<?xml version="1.0" encoding="UTF-8" standalone="no" ?>
<gpx xmlns="http://www.topografix.com/GPX/1/1" xmlns:xsi="http://www.w3.org/2001/XMLSchema-instance" xsi:schemaLocation="http://www.topografix.com/GPX/1/1 http://www.topografix.com/GPX/1/1/gpx.xsd" version="1.1" creator="VisuGPX - https://www.visugpx.com">
  <metadata>
    <name>En longeant l'Adour.</name>
    <desc><![CDATA[Exercice de déconfinement.
]]></desc>
  </metadata>
  <trk>
    <name><![CDATA[31 mai 2020 à 07:00:17]]></name>
    <cmt><![CDATA[31 mai 2020 à 07:00:17]]></cmt>
    <trkseg>
      <trkpt lat="43.2341" lon="0.08185">
        <ele>310</ele>
        <time>2020-05-31T05:00:18Z</time>
      </trkpt>
      <trkpt lat="43.2341" lon="0.08185">
        <ele>310</ele>
        <time>2020-05-31T05:00:19Z</time>
      </trkpt>
      <trkpt lat="43.23405" lon="0.08196">
        <ele>310</ele>
        <time>2020-05-31T05:00:28Z</time>
      </trkpt>
      <trkpt lat="43.23405" lon="0.08203">
        <ele>309</ele>
        <time>2020-05-31T05:00:37Z</time>
      </trkpt>
      <trkpt lat="43.23412" lon="0.08205">
        <ele>310</ele>
        <time>2020-05-31T05:00:53Z</time>
      </trkpt>
      <trkpt lat="43.23414" lon="0.08211">
        <ele>310</ele>
        <time>2020-05-31T05:00:56Z</time>
      </trkpt>
      <trkpt lat="43.23415" lon="0.08216">
        <ele>310</ele>
        <time>2020-05-31T05:00:58Z</time>
      </trkpt>
      <trkpt lat="43.23423" lon="0.08236">
        <ele>310</ele>
        <time>2020-05-31T05:01:06Z</time>
      </trkpt>
      <trkpt lat="43.23421" lon="0.08244">
        <ele>310</ele>
        <time>2020-05-31T05:01:13Z</time>
      </trkpt>
      <trkpt lat="43.23422" lon="0.08253">
        <ele>310</ele>
        <time>2020-05-31T05:01:21Z</time>
      </trkpt>
      <trkpt lat="43.23422" lon="0.08262">
        <ele>310</ele>
        <time>2020-05-31T05:01:26Z</time>
      </trkpt>
      <trkpt lat="43.23427" lon="0.08268">
        <ele>310</ele>
        <time>2020-05-31T05:01:34Z</time>
      </trkpt>
      <trkpt lat="43.2343" lon="0.08319">
        <ele>311</ele>
        <time>2020-05-31T05:02:12Z</time>
      </trkpt>
      <trkpt lat="43.23435" lon="0.08342">
        <ele>311</ele>
        <time>2020-05-31T05:02:17Z</time>
      </trkpt>
      <trkpt lat="43.23432" lon="0.08362">
        <ele>311</ele>
        <time>2020-05-31T05:02:27Z</time>
      </trkpt>
      <trkpt lat="43.23435" lon="0.08373">
        <ele>311</ele>
        <time>2020-05-31T05:02:33Z</time>
      </trkpt>
      <trkpt lat="43.23435" lon="0.08378">
        <ele>311</ele>
        <time>2020-05-31T05:02:36Z</time>
      </trkpt>
      <trkpt lat="43.23437" lon="0.08388">
        <ele>311</ele>
        <time>2020-05-31T05:02:44Z</time>
      </trkpt>
      <trkpt lat="43.23441" lon="0.08391">
        <ele>311</ele>
        <time>2020-05-31T05:02:48Z</time>
      </trkpt>
      <trkpt lat="43.23443" lon="0.08397">
        <ele>311</ele>
        <time>2020-05-31T05:02:51Z</time>
      </trkpt>
      <trkpt lat="43.23442" lon="0.08402">
        <ele>311</ele>
        <time>2020-05-31T05:02:54Z</time>
      </trkpt>
      <trkpt lat="43.23445" lon="0.08412">
        <ele>311</ele>
        <time>2020-05-31T05:03:02Z</time>
      </trkpt>
      <trkpt lat="43.23452" lon="0.08426">
        <ele>311</ele>
        <time>2020-05-31T05:03:11Z</time>
      </trkpt>
      <trkpt lat="43.23472" lon="0.0844">
        <ele>311</ele>
        <time>2020-05-31T05:03:31Z</time>
      </trkpt>
      <trkpt lat="43.23475" lon="0.08453">
        <ele>311</ele>
        <time>2020-05-31T05:03:36Z</time>
      </trkpt>
      <trkpt lat="43.23477" lon="0.08457">
        <ele>311</ele>
        <time>2020-05-31T05:03:38Z</time>
      </trkpt>
      <trkpt lat="43.23497" lon="0.08481">
        <ele>311</ele>
        <time>2020-05-31T05:03:58Z</time>
      </trkpt>
      <trkpt lat="43.23502" lon="0.08491">
        <ele>310</ele>
        <time>2020-05-31T05:04:06Z</time>
      </trkpt>
      <trkpt lat="43.23508" lon="0.08497">
        <ele>310</ele>
        <time>2020-05-31T05:04:12Z</time>
      </trkpt>
      <trkpt lat="43.23511" lon="0.08503">
        <ele>310</ele>
        <time>2020-05-31T05:04:15Z</time>
      </trkpt>
      <trkpt lat="43.23512" lon="0.08513">
        <ele>310</ele>
        <time>2020-05-31T05:04:20Z</time>
      </trkpt>
      <trkpt lat="43.2353" lon="0.08545">
        <ele>310</ele>
        <time>2020-05-31T05:04:43Z</time>
      </trkpt>
      <trkpt lat="43.23539" lon="0.08557">
        <ele>310</ele>
        <time>2020-05-31T05:04:53Z</time>
      </trkpt>
      <trkpt lat="43.23544" lon="0.08558">
        <ele>310</ele>
        <time>2020-05-31T05:04:56Z</time>
      </trkpt>
      <trkpt lat="43.23548" lon="0.08561">
        <ele>310</ele>
        <time>2020-05-31T05:04:59Z</time>
      </trkpt>
      <trkpt lat="43.23549" lon="0.08567">
        <ele>310</ele>
        <time>2020-05-31T05:05:02Z</time>
      </trkpt>
      <trkpt lat="43.23556" lon="0.08568">
        <ele>310</ele>
        <time>2020-05-31T05:05:11Z</time>
      </trkpt>
      <trkpt lat="43.2357" lon="0.08563">
        <ele>310</ele>
        <time>2020-05-31T05:06:01Z</time>
      </trkpt>
      <trkpt lat="43.23576" lon="0.08567">
        <ele>310</ele>
        <time>2020-05-31T05:06:06Z</time>
      </trkpt>
      <trkpt lat="43.23582" lon="0.08566">
        <ele>309</ele>
        <time>2020-05-31T05:06:11Z</time>
      </trkpt>
      <trkpt lat="43.23596" lon="0.08555">
        <ele>309</ele>
        <time>2020-05-31T05:06:38Z</time>
      </trkpt>
      <trkpt lat="43.23616" lon="0.08521">
        <ele>309</ele>
        <time>2020-05-31T05:07:02Z</time>
      </trkpt>
      <trkpt lat="43.23618" lon="0.08504">
        <ele>309</ele>
        <time>2020-05-31T05:07:12Z</time>
      </trkpt>
      <trkpt lat="43.23622" lon="0.08497">
        <ele>309</ele>
        <time>2020-05-31T05:07:18Z</time>
      </trkpt>
      <trkpt lat="43.23647" lon="0.08471">
        <ele>309</ele>
        <time>2020-05-31T05:07:42Z</time>
      </trkpt>
      <trkpt lat="43.23651" lon="0.08465">
        <ele>309</ele>
        <time>2020-05-31T05:07:46Z</time>
      </trkpt>
      <trkpt lat="43.23653" lon="0.08458">
        <ele>309</ele>
        <time>2020-05-31T05:07:51Z</time>
      </trkpt>
      <trkpt lat="43.23658" lon="0.08449">
        <ele>309</ele>
        <time>2020-05-31T05:07:59Z</time>
      </trkpt>
      <trkpt lat="43.23664" lon="0.08448">
        <ele>309</ele>
        <time>2020-05-31T05:08:06Z</time>
      </trkpt>
      <trkpt lat="43.23692" lon="0.08427">
        <ele>309</ele>
        <time>2020-05-31T05:08:32Z</time>
      </trkpt>
      <trkpt lat="43.23704" lon="0.08413">
        <ele>309</ele>
        <time>2020-05-31T05:08:45Z</time>
      </trkpt>
      <trkpt lat="43.2371" lon="0.084">
        <ele>309</ele>
        <time>2020-05-31T05:08:51Z</time>
      </trkpt>
      <trkpt lat="43.23716" lon="0.08397">
        <ele>309</ele>
        <time>2020-05-31T05:08:55Z</time>
      </trkpt>
      <trkpt lat="43.23722" lon="0.08395">
        <ele>309</ele>
        <time>2020-05-31T05:08:59Z</time>
      </trkpt>
      <trkpt lat="43.23727" lon="0.08391">
        <ele>309</ele>
        <time>2020-05-31T05:09:02Z</time>
      </trkpt>
      <trkpt lat="43.23739" lon="0.0839">
        <ele>309</ele>
        <time>2020-05-31T05:09:08Z</time>
      </trkpt>
      <trkpt lat="43.23744" lon="0.08386">
        <ele>308</ele>
        <time>2020-05-31T05:09:14Z</time>
      </trkpt>
      <trkpt lat="43.23749" lon="0.08381">
        <ele>308</ele>
        <time>2020-05-31T05:09:19Z</time>
      </trkpt>
      <trkpt lat="43.23755" lon="0.08377">
        <ele>308</ele>
        <time>2020-05-31T05:09:23Z</time>
      </trkpt>
      <trkpt lat="43.2376" lon="0.08372">
        <ele>308</ele>
        <time>2020-05-31T05:09:27Z</time>
      </trkpt>
      <trkpt lat="43.23767" lon="0.08374">
        <ele>308</ele>
        <time>2020-05-31T05:09:31Z</time>
      </trkpt>
      <trkpt lat="43.23788" lon="0.08355">
        <ele>308</ele>
        <time>2020-05-31T05:09:47Z</time>
      </trkpt>
      <trkpt lat="43.23794" lon="0.08353">
        <ele>308</ele>
        <time>2020-05-31T05:09:51Z</time>
      </trkpt>
      <trkpt lat="43.2382" lon="0.08317">
        <ele>307</ele>
        <time>2020-05-31T05:10:19Z</time>
      </trkpt>
      <trkpt lat="43.23827" lon="0.08315">
        <ele>307</ele>
        <time>2020-05-31T05:10:24Z</time>
      </trkpt>
      <trkpt lat="43.23834" lon="0.08316">
        <ele>307</ele>
        <time>2020-05-31T05:10:27Z</time>
      </trkpt>
      <trkpt lat="43.23855" lon="0.08325">
        <ele>307</ele>
        <time>2020-05-31T05:10:37Z</time>
      </trkpt>
      <trkpt lat="43.23891" lon="0.08314">
        <ele>306</ele>
        <time>2020-05-31T05:11:02Z</time>
      </trkpt>
      <trkpt lat="43.23898" lon="0.08309">
        <ele>306</ele>
        <time>2020-05-31T05:11:08Z</time>
      </trkpt>
      <trkpt lat="43.23903" lon="0.08309">
        <ele>306</ele>
        <time>2020-05-31T05:11:12Z</time>
      </trkpt>
      <trkpt lat="43.23911" lon="0.08305">
        <ele>306</ele>
        <time>2020-05-31T05:11:19Z</time>
      </trkpt>
      <trkpt lat="43.23915" lon="0.08305">
        <ele>306</ele>
        <time>2020-05-31T05:11:22Z</time>
      </trkpt>
      <trkpt lat="43.23947" lon="0.08291">
        <ele>305</ele>
        <time>2020-05-31T05:11:47Z</time>
      </trkpt>
      <trkpt lat="43.23952" lon="0.08285">
        <ele>305</ele>
        <time>2020-05-31T05:11:52Z</time>
      </trkpt>
      <trkpt lat="43.23961" lon="0.08285">
        <ele>304</ele>
        <time>2020-05-31T05:12:01Z</time>
      </trkpt>
      <trkpt lat="43.23967" lon="0.08281">
        <ele>305</ele>
        <time>2020-05-31T05:12:05Z</time>
      </trkpt>
      <trkpt lat="43.23966" lon="0.08273">
        <ele>306</ele>
        <time>2020-05-31T05:12:13Z</time>
      </trkpt>
      <trkpt lat="43.23971" lon="0.0827">
        <ele>307</ele>
        <time>2020-05-31T05:12:22Z</time>
      </trkpt>
      <trkpt lat="43.23972" lon="0.08276">
        <ele>307</ele>
        <time>2020-05-31T05:12:26Z</time>
      </trkpt>
      <trkpt lat="43.23972" lon="0.08283">
        <ele>307</ele>
        <time>2020-05-31T05:12:29Z</time>
      </trkpt>
      <trkpt lat="43.2397" lon="0.08294">
        <ele>307</ele>
        <time>2020-05-31T05:12:34Z</time>
      </trkpt>
      <trkpt lat="43.23964" lon="0.08318">
        <ele>307</ele>
        <time>2020-05-31T05:12:47Z</time>
      </trkpt>
      <trkpt lat="43.23964" lon="0.08323">
        <ele>307</ele>
        <time>2020-05-31T05:12:51Z</time>
      </trkpt>
      <trkpt lat="43.23961" lon="0.08335">
        <ele>307</ele>
        <time>2020-05-31T05:12:58Z</time>
      </trkpt>
      <trkpt lat="43.2396" lon="0.08341">
        <ele>307</ele>
        <time>2020-05-31T05:13:01Z</time>
      </trkpt>
      <trkpt lat="43.23959" lon="0.0835">
        <ele>307</ele>
        <time>2020-05-31T05:13:07Z</time>
      </trkpt>
      <trkpt lat="43.2396" lon="0.08357">
        <ele>306</ele>
        <time>2020-05-31T05:13:12Z</time>
      </trkpt>
      <trkpt lat="43.23962" lon="0.08364">
        <ele>306</ele>
        <time>2020-05-31T05:13:19Z</time>
      </trkpt>
      <trkpt lat="43.23968" lon="0.08361">
        <ele>306</ele>
        <time>2020-05-31T05:13:36Z</time>
      </trkpt>
      <trkpt lat="43.23971" lon="0.08358">
        <ele>305</ele>
        <time>2020-05-31T05:13:40Z</time>
      </trkpt>
      <trkpt lat="43.23978" lon="0.08335">
        <ele>305</ele>
        <time>2020-05-31T05:13:56Z</time>
      </trkpt>
      <trkpt lat="43.23982" lon="0.08329">
        <ele>304</ele>
        <time>2020-05-31T05:14:00Z</time>
      </trkpt>
      <trkpt lat="43.23986" lon="0.08326">
        <ele>304</ele>
        <time>2020-05-31T05:14:03Z</time>
      </trkpt>
      <trkpt lat="43.23995" lon="0.08328">
        <ele>305</ele>
        <time>2020-05-31T05:14:10Z</time>
      </trkpt>
      <trkpt lat="43.24012" lon="0.08322">
        <ele>305</ele>
        <time>2020-05-31T05:14:23Z</time>
      </trkpt>
      <trkpt lat="43.24017" lon="0.08318">
        <ele>304</ele>
        <time>2020-05-31T05:14:27Z</time>
      </trkpt>
      <trkpt lat="43.24039" lon="0.08306">
        <ele>304</ele>
        <time>2020-05-31T05:14:45Z</time>
      </trkpt>
      <trkpt lat="43.24042" lon="0.08303">
        <ele>304</ele>
        <time>2020-05-31T05:14:48Z</time>
      </trkpt>
      <trkpt lat="43.24054" lon="0.08298">
        <ele>304</ele>
        <time>2020-05-31T05:14:57Z</time>
      </trkpt>
      <trkpt lat="43.24065" lon="0.08289">
        <ele>304</ele>
        <time>2020-05-31T05:15:06Z</time>
      </trkpt>
      <trkpt lat="43.24068" lon="0.08287">
        <ele>303</ele>
        <time>2020-05-31T05:15:10Z</time>
      </trkpt>
      <trkpt lat="43.24082" lon="0.08281">
        <ele>304</ele>
        <time>2020-05-31T05:15:20Z</time>
      </trkpt>
      <trkpt lat="43.24098" lon="0.08267">
        <ele>303</ele>
        <time>2020-05-31T05:15:33Z</time>
      </trkpt>
      <trkpt lat="43.24102" lon="0.08266">
        <ele>303</ele>
        <time>2020-05-31T05:15:36Z</time>
      </trkpt>
      <trkpt lat="43.24121" lon="0.08267">
        <ele>303</ele>
        <time>2020-05-31T05:15:53Z</time>
      </trkpt>
      <trkpt lat="43.24132" lon="0.0826">
        <ele>302</ele>
        <time>2020-05-31T05:16:02Z</time>
      </trkpt>
      <trkpt lat="43.24136" lon="0.08258">
        <ele>302</ele>
        <time>2020-05-31T05:16:05Z</time>
      </trkpt>
      <trkpt lat="43.24152" lon="0.08249">
        <ele>302</ele>
        <time>2020-05-31T05:16:17Z</time>
      </trkpt>
      <trkpt lat="43.24158" lon="0.08249">
        <ele>302</ele>
        <time>2020-05-31T05:16:21Z</time>
      </trkpt>
      <trkpt lat="43.24162" lon="0.08247">
        <ele>301</ele>
        <time>2020-05-31T05:16:24Z</time>
      </trkpt>
      <trkpt lat="43.24175" lon="0.08247">
        <ele>302</ele>
        <time>2020-05-31T05:16:33Z</time>
      </trkpt>
      <trkpt lat="43.24188" lon="0.08249">
        <ele>302</ele>
        <time>2020-05-31T05:16:43Z</time>
      </trkpt>
      <trkpt lat="43.24192" lon="0.08249">
        <ele>302</ele>
        <time>2020-05-31T05:16:46Z</time>
      </trkpt>
      <trkpt lat="43.24197" lon="0.08246">
        <ele>302</ele>
        <time>2020-05-31T05:16:49Z</time>
      </trkpt>
      <trkpt lat="43.24201" lon="0.08248">
        <ele>302</ele>
        <time>2020-05-31T05:16:52Z</time>
      </trkpt>
      <trkpt lat="43.24205" lon="0.08246">
        <ele>302</ele>
        <time>2020-05-31T05:16:55Z</time>
      </trkpt>
      <trkpt lat="43.24218" lon="0.08245">
        <ele>302</ele>
        <time>2020-05-31T05:17:06Z</time>
      </trkpt>
      <trkpt lat="43.24222" lon="0.08243">
        <ele>302</ele>
        <time>2020-05-31T05:17:10Z</time>
      </trkpt>
      <trkpt lat="43.24228" lon="0.08243">
        <ele>302</ele>
        <time>2020-05-31T05:17:13Z</time>
      </trkpt>
      <trkpt lat="43.24233" lon="0.08246">
        <ele>302</ele>
        <time>2020-05-31T05:17:16Z</time>
      </trkpt>
      <trkpt lat="43.24238" lon="0.08244">
        <ele>302</ele>
        <time>2020-05-31T05:17:19Z</time>
      </trkpt>
      <trkpt lat="43.24242" lon="0.08242">
        <ele>302</ele>
        <time>2020-05-31T05:17:26Z</time>
      </trkpt>
      <trkpt lat="43.24249" lon="0.08247">
        <ele>302</ele>
        <time>2020-05-31T05:17:31Z</time>
      </trkpt>
      <trkpt lat="43.24253" lon="0.08248">
        <ele>302</ele>
        <time>2020-05-31T05:17:34Z</time>
      </trkpt>
      <trkpt lat="43.24266" lon="0.08244">
        <ele>302</ele>
        <time>2020-05-31T05:17:43Z</time>
      </trkpt>
      <trkpt lat="43.24273" lon="0.0824">
        <ele>302</ele>
        <time>2020-05-31T05:17:48Z</time>
      </trkpt>
      <trkpt lat="43.24278" lon="0.08241">
        <ele>302</ele>
        <time>2020-05-31T05:17:52Z</time>
      </trkpt>
      <trkpt lat="43.24293" lon="0.08248">
        <ele>302</ele>
        <time>2020-05-31T05:18:03Z</time>
      </trkpt>
      <trkpt lat="43.2431" lon="0.0826">
        <ele>301</ele>
        <time>2020-05-31T05:18:15Z</time>
      </trkpt>
      <trkpt lat="43.24347" lon="0.08265">
        <ele>301</ele>
        <time>2020-05-31T05:18:43Z</time>
      </trkpt>
      <trkpt lat="43.24382" lon="0.08263">
        <ele>301</ele>
        <time>2020-05-31T05:19:10Z</time>
      </trkpt>
      <trkpt lat="43.24385" lon="0.08263">
        <ele>301</ele>
        <time>2020-05-31T05:19:13Z</time>
      </trkpt>
      <trkpt lat="43.24393" lon="0.0826">
        <ele>300</ele>
        <time>2020-05-31T05:19:22Z</time>
      </trkpt>
      <trkpt lat="43.24425" lon="0.08255">
        <ele>300</ele>
        <time>2020-05-31T05:19:45Z</time>
      </trkpt>
      <trkpt lat="43.24431" lon="0.08257">
        <ele>300</ele>
        <time>2020-05-31T05:19:48Z</time>
      </trkpt>
      <trkpt lat="43.24442" lon="0.08255">
        <ele>301</ele>
        <time>2020-05-31T05:19:57Z</time>
      </trkpt>
      <trkpt lat="43.24469" lon="0.08248">
        <ele>300</ele>
        <time>2020-05-31T05:20:18Z</time>
      </trkpt>
      <trkpt lat="43.24476" lon="0.0825">
        <ele>300</ele>
        <time>2020-05-31T05:20:22Z</time>
      </trkpt>
      <trkpt lat="43.24493" lon="0.08248">
        <ele>299</ele>
        <time>2020-05-31T05:20:33Z</time>
      </trkpt>
      <trkpt lat="43.24497" lon="0.08251">
        <ele>299</ele>
        <time>2020-05-31T05:20:36Z</time>
      </trkpt>
      <trkpt lat="43.245" lon="0.08255">
        <ele>299</ele>
        <time>2020-05-31T05:20:38Z</time>
      </trkpt>
      <trkpt lat="43.24508" lon="0.08261">
        <ele>299</ele>
        <time>2020-05-31T05:20:44Z</time>
      </trkpt>
      <trkpt lat="43.2453" lon="0.08264">
        <ele>300</ele>
        <time>2020-05-31T05:21:02Z</time>
      </trkpt>
      <trkpt lat="43.24534" lon="0.08263">
        <ele>299</ele>
        <time>2020-05-31T05:21:05Z</time>
      </trkpt>
      <trkpt lat="43.24538" lon="0.08264">
        <ele>299</ele>
        <time>2020-05-31T05:21:08Z</time>
      </trkpt>
      <trkpt lat="43.24542" lon="0.08267">
        <ele>299</ele>
        <time>2020-05-31T05:21:10Z</time>
      </trkpt>
      <trkpt lat="43.24555" lon="0.08289">
        <ele>300</ele>
        <time>2020-05-31T05:21:25Z</time>
      </trkpt>
      <trkpt lat="43.24567" lon="0.08302">
        <ele>299</ele>
        <time>2020-05-31T05:21:36Z</time>
      </trkpt>
      <trkpt lat="43.24571" lon="0.08303">
        <ele>299</ele>
        <time>2020-05-31T05:21:39Z</time>
      </trkpt>
      <trkpt lat="43.24574" lon="0.08307">
        <ele>299</ele>
        <time>2020-05-31T05:21:42Z</time>
      </trkpt>
      <trkpt lat="43.24582" lon="0.08312">
        <ele>299</ele>
        <time>2020-05-31T05:21:49Z</time>
      </trkpt>
      <trkpt lat="43.24603" lon="0.08315">
        <ele>299</ele>
        <time>2020-05-31T05:22:06Z</time>
      </trkpt>
      <trkpt lat="43.24616" lon="0.08323">
        <ele>299</ele>
        <time>2020-05-31T05:22:15Z</time>
      </trkpt>
      <trkpt lat="43.24621" lon="0.08324">
        <ele>299</ele>
        <time>2020-05-31T05:22:20Z</time>
      </trkpt>
      <trkpt lat="43.24661" lon="0.08334">
        <ele>299</ele>
        <time>2020-05-31T05:22:53Z</time>
      </trkpt>
      <trkpt lat="43.24667" lon="0.08333">
        <ele>299</ele>
        <time>2020-05-31T05:22:57Z</time>
      </trkpt>
      <trkpt lat="43.24675" lon="0.08338">
        <ele>299</ele>
        <time>2020-05-31T05:23:06Z</time>
      </trkpt>
      <trkpt lat="43.24696" lon="0.08345">
        <ele>300</ele>
        <time>2020-05-31T05:23:20Z</time>
      </trkpt>
      <trkpt lat="43.24705" lon="0.08346">
        <ele>300</ele>
        <time>2020-05-31T05:23:25Z</time>
      </trkpt>
      <trkpt lat="43.24716" lon="0.08345">
        <ele>300</ele>
        <time>2020-05-31T05:23:34Z</time>
      </trkpt>
      <trkpt lat="43.24731" lon="0.08347">
        <ele>300</ele>
        <time>2020-05-31T05:23:45Z</time>
      </trkpt>
      <trkpt lat="43.24738" lon="0.08344">
        <ele>300</ele>
        <time>2020-05-31T05:23:51Z</time>
      </trkpt>
      <trkpt lat="43.24755" lon="0.08344">
        <ele>299</ele>
        <time>2020-05-31T05:24:04Z</time>
      </trkpt>
      <trkpt lat="43.2477" lon="0.08336">
        <ele>299</ele>
        <time>2020-05-31T05:24:17Z</time>
      </trkpt>
      <trkpt lat="43.24775" lon="0.08337">
        <ele>299</ele>
        <time>2020-05-31T05:24:20Z</time>
      </trkpt>
      <trkpt lat="43.24778" lon="0.0834">
        <ele>299</ele>
        <time>2020-05-31T05:24:22Z</time>
      </trkpt>
      <trkpt lat="43.24789" lon="0.08341">
        <ele>299</ele>
        <time>2020-05-31T05:24:28Z</time>
      </trkpt>
      <trkpt lat="43.24802" lon="0.08337">
        <ele>299</ele>
        <time>2020-05-31T05:24:39Z</time>
      </trkpt>
      <trkpt lat="43.2481" lon="0.08329">
        <ele>299</ele>
        <time>2020-05-31T05:24:45Z</time>
      </trkpt>
      <trkpt lat="43.24839" lon="0.08323">
        <ele>298</ele>
        <time>2020-05-31T05:25:09Z</time>
      </trkpt>
      <trkpt lat="43.24843" lon="0.0832">
        <ele>298</ele>
        <time>2020-05-31T05:25:12Z</time>
      </trkpt>
      <trkpt lat="43.24864" lon="0.08318">
        <ele>298</ele>
        <time>2020-05-31T05:25:31Z</time>
      </trkpt>
      <trkpt lat="43.2488" lon="0.08322">
        <ele>298</ele>
        <time>2020-05-31T05:25:45Z</time>
      </trkpt>
      <trkpt lat="43.24919" lon="0.08312">
        <ele>298</ele>
        <time>2020-05-31T05:26:11Z</time>
      </trkpt>
      <trkpt lat="43.24932" lon="0.08313">
        <ele>298</ele>
        <time>2020-05-31T05:26:21Z</time>
      </trkpt>
      <trkpt lat="43.24936" lon="0.08312">
        <ele>298</ele>
        <time>2020-05-31T05:26:24Z</time>
      </trkpt>
      <trkpt lat="43.24939" lon="0.0831">
        <ele>298</ele>
        <time>2020-05-31T05:26:28Z</time>
      </trkpt>
      <trkpt lat="43.24945" lon="0.08311">
        <ele>298</ele>
        <time>2020-05-31T05:26:35Z</time>
      </trkpt>
      <trkpt lat="43.24966" lon="0.08314">
        <ele>298</ele>
        <time>2020-05-31T05:26:50Z</time>
      </trkpt>
      <trkpt lat="43.2497" lon="0.08316">
        <ele>298</ele>
        <time>2020-05-31T05:26:53Z</time>
      </trkpt>
      <trkpt lat="43.24996" lon="0.0832">
        <ele>298</ele>
        <time>2020-05-31T05:27:12Z</time>
      </trkpt>
      <trkpt lat="43.25001" lon="0.08317">
        <ele>298</ele>
        <time>2020-05-31T05:27:16Z</time>
      </trkpt>
      <trkpt lat="43.25005" lon="0.08318">
        <ele>298</ele>
        <time>2020-05-31T05:27:19Z</time>
      </trkpt>
      <trkpt lat="43.25014" lon="0.08321">
        <ele>298</ele>
        <time>2020-05-31T05:27:25Z</time>
      </trkpt>
      <trkpt lat="43.25054" lon="0.08322">
        <ele>297</ele>
        <time>2020-05-31T05:27:57Z</time>
      </trkpt>
      <trkpt lat="43.25076" lon="0.08326">
        <ele>298</ele>
        <time>2020-05-31T05:28:16Z</time>
      </trkpt>
      <trkpt lat="43.25107" lon="0.08338">
        <ele>298</ele>
        <time>2020-05-31T05:28:37Z</time>
      </trkpt>
      <trkpt lat="43.25121" lon="0.08339">
        <ele>298</ele>
        <time>2020-05-31T05:28:46Z</time>
      </trkpt>
      <trkpt lat="43.25127" lon="0.08337">
        <ele>298</ele>
        <time>2020-05-31T05:28:52Z</time>
      </trkpt>
      <trkpt lat="43.25139" lon="0.08339">
        <ele>298</ele>
        <time>2020-05-31T05:29:02Z</time>
      </trkpt>
      <trkpt lat="43.25153" lon="0.08335">
        <ele>298</ele>
        <time>2020-05-31T05:29:13Z</time>
      </trkpt>
      <trkpt lat="43.25157" lon="0.08338">
        <ele>298</ele>
        <time>2020-05-31T05:29:16Z</time>
      </trkpt>
      <trkpt lat="43.2516" lon="0.08341">
        <ele>298</ele>
        <time>2020-05-31T05:29:18Z</time>
      </trkpt>
      <trkpt lat="43.25165" lon="0.08342">
        <ele>297</ele>
        <time>2020-05-31T05:29:21Z</time>
      </trkpt>
      <trkpt lat="43.25167" lon="0.08345">
        <ele>297</ele>
        <time>2020-05-31T05:29:23Z</time>
      </trkpt>
      <trkpt lat="43.25174" lon="0.08352">
        <ele>297</ele>
        <time>2020-05-31T05:29:27Z</time>
      </trkpt>
      <trkpt lat="43.25176" lon="0.08357">
        <ele>297</ele>
        <time>2020-05-31T05:29:30Z</time>
      </trkpt>
      <trkpt lat="43.25183" lon="0.08362">
        <ele>297</ele>
        <time>2020-05-31T05:29:37Z</time>
      </trkpt>
      <trkpt lat="43.25188" lon="0.08363">
        <ele>297</ele>
        <time>2020-05-31T05:29:40Z</time>
      </trkpt>
      <trkpt lat="43.25192" lon="0.08362">
        <ele>297</ele>
        <time>2020-05-31T05:29:43Z</time>
      </trkpt>
      <trkpt lat="43.252" lon="0.08364">
        <ele>297</ele>
        <time>2020-05-31T05:29:50Z</time>
      </trkpt>
      <trkpt lat="43.25224" lon="0.08359">
        <ele>296</ele>
        <time>2020-05-31T05:30:08Z</time>
      </trkpt>
      <trkpt lat="43.25237" lon="0.08362">
        <ele>296</ele>
        <time>2020-05-31T05:30:18Z</time>
      </trkpt>
      <trkpt lat="43.25241" lon="0.08367">
        <ele>296</ele>
        <time>2020-05-31T05:30:21Z</time>
      </trkpt>
      <trkpt lat="43.25249" lon="0.08383">
        <ele>296</ele>
        <time>2020-05-31T05:30:28Z</time>
      </trkpt>
      <trkpt lat="43.2525" lon="0.08387">
        <ele>296</ele>
        <time>2020-05-31T05:30:31Z</time>
      </trkpt>
      <trkpt lat="43.25264" lon="0.08421">
        <ele>296</ele>
        <time>2020-05-31T05:30:55Z</time>
      </trkpt>
      <trkpt lat="43.25276" lon="0.08415">
        <ele>296</ele>
        <time>2020-05-31T05:31:07Z</time>
      </trkpt>
      <trkpt lat="43.25298" lon="0.08401">
        <ele>296</ele>
        <time>2020-05-31T05:31:24Z</time>
      </trkpt>
      <trkpt lat="43.25304" lon="0.08402">
        <ele>296</ele>
        <time>2020-05-31T05:31:29Z</time>
      </trkpt>
      <trkpt lat="43.25316" lon="0.08401">
        <ele>296</ele>
        <time>2020-05-31T05:31:38Z</time>
      </trkpt>
      <trkpt lat="43.2532" lon="0.08402">
        <ele>296</ele>
        <time>2020-05-31T05:31:41Z</time>
      </trkpt>
      <trkpt lat="43.25325" lon="0.08402">
        <ele>296</ele>
        <time>2020-05-31T05:31:44Z</time>
      </trkpt>
      <trkpt lat="43.25341" lon="0.08407">
        <ele>296</ele>
        <time>2020-05-31T05:31:58Z</time>
      </trkpt>
      <trkpt lat="43.25348" lon="0.08411">
        <ele>296</ele>
        <time>2020-05-31T05:32:03Z</time>
      </trkpt>
      <trkpt lat="43.25367" lon="0.08409">
        <ele>295</ele>
        <time>2020-05-31T05:32:17Z</time>
      </trkpt>
      <trkpt lat="43.25404" lon="0.08413">
        <ele>294</ele>
        <time>2020-05-31T05:32:45Z</time>
      </trkpt>
      <trkpt lat="43.25409" lon="0.0841">
        <ele>294</ele>
        <time>2020-05-31T05:32:49Z</time>
      </trkpt>
      <trkpt lat="43.25416" lon="0.08409">
        <ele>294</ele>
        <time>2020-05-31T05:32:56Z</time>
      </trkpt>
      <trkpt lat="43.25425" lon="0.08404">
        <ele>294</ele>
        <time>2020-05-31T05:33:04Z</time>
      </trkpt>
      <trkpt lat="43.25447" lon="0.08407">
        <ele>294</ele>
        <time>2020-05-31T05:33:18Z</time>
      </trkpt>
      <trkpt lat="43.25457" lon="0.08403">
        <ele>294</ele>
        <time>2020-05-31T05:33:25Z</time>
      </trkpt>
      <trkpt lat="43.25461" lon="0.08406">
        <ele>294</ele>
        <time>2020-05-31T05:33:28Z</time>
      </trkpt>
      <trkpt lat="43.25486" lon="0.08395">
        <ele>294</ele>
        <time>2020-05-31T05:33:49Z</time>
      </trkpt>
      <trkpt lat="43.25506" lon="0.08392">
        <ele>293</ele>
        <time>2020-05-31T05:34:05Z</time>
      </trkpt>
      <trkpt lat="43.25525" lon="0.08382">
        <ele>293</ele>
        <time>2020-05-31T05:34:22Z</time>
      </trkpt>
      <trkpt lat="43.25535" lon="0.0838">
        <ele>293</ele>
        <time>2020-05-31T05:34:31Z</time>
      </trkpt>
      <trkpt lat="43.25542" lon="0.0838">
        <ele>293</ele>
        <time>2020-05-31T05:34:35Z</time>
      </trkpt>
      <trkpt lat="43.25548" lon="0.08375">
        <ele>293</ele>
        <time>2020-05-31T05:34:41Z</time>
      </trkpt>
      <trkpt lat="43.25552" lon="0.08374">
        <ele>294</ele>
        <time>2020-05-31T05:34:44Z</time>
      </trkpt>
      <trkpt lat="43.25583" lon="0.08379">
        <ele>293</ele>
        <time>2020-05-31T05:35:03Z</time>
      </trkpt>
      <trkpt lat="43.25604" lon="0.08372">
        <ele>293</ele>
        <time>2020-05-31T05:35:19Z</time>
      </trkpt>
      <trkpt lat="43.25617" lon="0.08375">
        <ele>292</ele>
        <time>2020-05-31T05:35:30Z</time>
      </trkpt>
      <trkpt lat="43.25621" lon="0.08373">
        <ele>292</ele>
        <time>2020-05-31T05:35:34Z</time>
      </trkpt>
      <trkpt lat="43.2564" lon="0.08363">
        <ele>292</ele>
        <time>2020-05-31T05:35:50Z</time>
      </trkpt>
      <trkpt lat="43.25652" lon="0.08363">
        <ele>291</ele>
        <time>2020-05-31T05:36:00Z</time>
      </trkpt>
      <trkpt lat="43.25657" lon="0.08366">
        <ele>291</ele>
        <time>2020-05-31T05:36:03Z</time>
      </trkpt>
      <trkpt lat="43.2567" lon="0.08371">
        <ele>291</ele>
        <time>2020-05-31T05:36:12Z</time>
      </trkpt>
      <trkpt lat="43.25687" lon="0.08368">
        <ele>291</ele>
        <time>2020-05-31T05:36:26Z</time>
      </trkpt>
      <trkpt lat="43.25694" lon="0.0836">
        <ele>291</ele>
        <time>2020-05-31T05:36:31Z</time>
      </trkpt>
      <trkpt lat="43.25708" lon="0.08356">
        <ele>291</ele>
        <time>2020-05-31T05:36:41Z</time>
      </trkpt>
      <trkpt lat="43.25711" lon="0.08355">
        <ele>292</ele>
        <time>2020-05-31T05:36:45Z</time>
      </trkpt>
      <trkpt lat="43.25715" lon="0.08354">
        <ele>292</ele>
        <time>2020-05-31T05:36:48Z</time>
      </trkpt>
      <trkpt lat="43.25719" lon="0.08356">
        <ele>292</ele>
        <time>2020-05-31T05:36:50Z</time>
      </trkpt>
      <trkpt lat="43.25732" lon="0.08353">
        <ele>292</ele>
        <time>2020-05-31T05:36:59Z</time>
      </trkpt>
      <trkpt lat="43.25741" lon="0.08357">
        <ele>292</ele>
        <time>2020-05-31T05:37:05Z</time>
      </trkpt>
      <trkpt lat="43.25756" lon="0.08354">
        <ele>292</ele>
        <time>2020-05-31T05:37:17Z</time>
      </trkpt>
      <trkpt lat="43.25765" lon="0.08356">
        <ele>292</ele>
        <time>2020-05-31T05:37:25Z</time>
      </trkpt>
      <trkpt lat="43.25773" lon="0.08352">
        <ele>292</ele>
        <time>2020-05-31T05:37:31Z</time>
      </trkpt>
      <trkpt lat="43.25777" lon="0.08354">
        <ele>292</ele>
        <time>2020-05-31T05:37:34Z</time>
      </trkpt>
      <trkpt lat="43.25784" lon="0.08353">
        <ele>292</ele>
        <time>2020-05-31T05:37:41Z</time>
      </trkpt>
      <trkpt lat="43.25825" lon="0.08354">
        <ele>292</ele>
        <time>2020-05-31T05:38:11Z</time>
      </trkpt>
      <trkpt lat="43.25849" lon="0.08347">
        <ele>292</ele>
        <time>2020-05-31T05:38:30Z</time>
      </trkpt>
      <trkpt lat="43.25861" lon="0.08348">
        <ele>292</ele>
        <time>2020-05-31T05:38:39Z</time>
      </trkpt>
      <trkpt lat="43.25866" lon="0.08352">
        <ele>292</ele>
        <time>2020-05-31T05:38:45Z</time>
      </trkpt>
      <trkpt lat="43.25873" lon="0.08352">
        <ele>292</ele>
        <time>2020-05-31T05:38:53Z</time>
      </trkpt>
      <trkpt lat="43.25879" lon="0.08354">
        <ele>292</ele>
        <time>2020-05-31T05:38:57Z</time>
      </trkpt>
      <trkpt lat="43.25898" lon="0.08352">
        <ele>292</ele>
        <time>2020-05-31T05:39:12Z</time>
      </trkpt>
      <trkpt lat="43.25906" lon="0.08354">
        <ele>292</ele>
        <time>2020-05-31T05:39:17Z</time>
      </trkpt>
      <trkpt lat="43.25912" lon="0.08352">
        <ele>292</ele>
        <time>2020-05-31T05:39:22Z</time>
      </trkpt>
      <trkpt lat="43.25938" lon="0.0836">
        <ele>292</ele>
        <time>2020-05-31T05:39:36Z</time>
      </trkpt>
      <trkpt lat="43.25941" lon="0.08364">
        <ele>292</ele>
        <time>2020-05-31T05:39:44Z</time>
      </trkpt>
      <trkpt lat="43.25949" lon="0.08362">
        <ele>292</ele>
        <time>2020-05-31T05:40:27Z</time>
      </trkpt>
      <trkpt lat="43.25957" lon="0.08365">
        <ele>292</ele>
        <time>2020-05-31T05:40:34Z</time>
      </trkpt>
      <trkpt lat="43.25963" lon="0.08367">
        <ele>292</ele>
        <time>2020-05-31T05:40:38Z</time>
      </trkpt>
      <trkpt lat="43.25972" lon="0.08366">
        <ele>292</ele>
        <time>2020-05-31T05:40:44Z</time>
      </trkpt>
      <trkpt lat="43.25977" lon="0.08368">
        <ele>292</ele>
        <time>2020-05-31T05:40:47Z</time>
      </trkpt>
      <trkpt lat="43.26015" lon="0.08365">
        <ele>291</ele>
        <time>2020-05-31T05:41:19Z</time>
      </trkpt>
      <trkpt lat="43.26028" lon="0.08362">
        <ele>291</ele>
        <time>2020-05-31T05:41:27Z</time>
      </trkpt>
      <trkpt lat="43.26036" lon="0.08364">
        <ele>291</ele>
        <time>2020-05-31T05:41:33Z</time>
      </trkpt>
      <trkpt lat="43.26065" lon="0.08362">
        <ele>291</ele>
        <time>2020-05-31T05:41:52Z</time>
      </trkpt>
      <trkpt lat="43.26078" lon="0.08363">
        <ele>291</ele>
        <time>2020-05-31T05:42:02Z</time>
      </trkpt>
      <trkpt lat="43.26086" lon="0.08361">
        <ele>291</ele>
        <time>2020-05-31T05:42:10Z</time>
      </trkpt>
      <trkpt lat="43.26091" lon="0.08356">
        <ele>291</ele>
        <time>2020-05-31T05:42:14Z</time>
      </trkpt>
      <trkpt lat="43.26109" lon="0.08348">
        <ele>290</ele>
        <time>2020-05-31T05:42:27Z</time>
      </trkpt>
      <trkpt lat="43.26119" lon="0.08349">
        <ele>290</ele>
        <time>2020-05-31T05:42:35Z</time>
      </trkpt>
      <trkpt lat="43.26125" lon="0.08347">
        <ele>290</ele>
        <time>2020-05-31T05:42:38Z</time>
      </trkpt>
      <trkpt lat="43.26161" lon="0.08346">
        <ele>290</ele>
        <time>2020-05-31T05:43:12Z</time>
      </trkpt>
      <trkpt lat="43.26185" lon="0.08341">
        <ele>290</ele>
        <time>2020-05-31T05:43:27Z</time>
      </trkpt>
      <trkpt lat="43.26197" lon="0.08342">
        <ele>289</ele>
        <time>2020-05-31T05:43:36Z</time>
      </trkpt>
      <trkpt lat="43.26209" lon="0.08339">
        <ele>289</ele>
        <time>2020-05-31T05:43:43Z</time>
      </trkpt>
      <trkpt lat="43.26216" lon="0.0834">
        <ele>289</ele>
        <time>2020-05-31T05:43:47Z</time>
      </trkpt>
      <trkpt lat="43.26221" lon="0.08337">
        <ele>289</ele>
        <time>2020-05-31T05:43:53Z</time>
      </trkpt>
      <trkpt lat="43.26233" lon="0.08333">
        <ele>289</ele>
        <time>2020-05-31T05:44:03Z</time>
      </trkpt>
      <trkpt lat="43.26238" lon="0.08333">
        <ele>289</ele>
        <time>2020-05-31T05:44:07Z</time>
      </trkpt>
      <trkpt lat="43.26244" lon="0.08332">
        <ele>289</ele>
        <time>2020-05-31T05:44:12Z</time>
      </trkpt>
      <trkpt lat="43.26255" lon="0.08333">
        <ele>289</ele>
        <time>2020-05-31T05:44:21Z</time>
      </trkpt>
      <trkpt lat="43.2627" lon="0.08324">
        <ele>288</ele>
        <time>2020-05-31T05:44:35Z</time>
      </trkpt>
      <trkpt lat="43.26282" lon="0.08324">
        <ele>288</ele>
        <time>2020-05-31T05:44:43Z</time>
      </trkpt>
      <trkpt lat="43.26289" lon="0.08322">
        <ele>288</ele>
        <time>2020-05-31T05:44:48Z</time>
      </trkpt>
      <trkpt lat="43.26294" lon="0.08318">
        <ele>288</ele>
        <time>2020-05-31T05:44:52Z</time>
      </trkpt>
      <trkpt lat="43.263" lon="0.08321">
        <ele>288</ele>
        <time>2020-05-31T05:44:56Z</time>
      </trkpt>
      <trkpt lat="43.26304" lon="0.08323">
        <ele>288</ele>
        <time>2020-05-31T05:44:59Z</time>
      </trkpt>
      <trkpt lat="43.2631" lon="0.08324">
        <ele>288</ele>
        <time>2020-05-31T05:45:04Z</time>
      </trkpt>
      <trkpt lat="43.26317" lon="0.08321">
        <ele>288</ele>
        <time>2020-05-31T05:45:09Z</time>
      </trkpt>
      <trkpt lat="43.26324" lon="0.08323">
        <ele>288</ele>
        <time>2020-05-31T05:45:14Z</time>
      </trkpt>
      <trkpt lat="43.26354" lon="0.08323">
        <ele>288</ele>
        <time>2020-05-31T05:45:37Z</time>
      </trkpt>
      <trkpt lat="43.26371" lon="0.08328">
        <ele>288</ele>
        <time>2020-05-31T05:45:50Z</time>
      </trkpt>
      <trkpt lat="43.2638" lon="0.08327">
        <ele>288</ele>
        <time>2020-05-31T05:45:56Z</time>
      </trkpt>
      <trkpt lat="43.26391" lon="0.08322">
        <ele>287</ele>
        <time>2020-05-31T05:46:06Z</time>
      </trkpt>
      <trkpt lat="43.26397" lon="0.08316">
        <ele>287</ele>
        <time>2020-05-31T05:46:11Z</time>
      </trkpt>
      <trkpt lat="43.26404" lon="0.08312">
        <ele>287</ele>
        <time>2020-05-31T05:46:15Z</time>
      </trkpt>
      <trkpt lat="43.26415" lon="0.08312">
        <ele>287</ele>
        <time>2020-05-31T05:46:22Z</time>
      </trkpt>
      <trkpt lat="43.26419" lon="0.0831">
        <ele>287</ele>
        <time>2020-05-31T05:46:26Z</time>
      </trkpt>
      <trkpt lat="43.26425" lon="0.08307">
        <ele>287</ele>
        <time>2020-05-31T05:46:31Z</time>
      </trkpt>
      <trkpt lat="43.26447" lon="0.08301">
        <ele>287</ele>
        <time>2020-05-31T05:46:50Z</time>
      </trkpt>
      <trkpt lat="43.26474" lon="0.08306">
        <ele>286</ele>
        <time>2020-05-31T05:47:09Z</time>
      </trkpt>
      <trkpt lat="43.26484" lon="0.08316">
        <ele>286</ele>
        <time>2020-05-31T05:47:15Z</time>
      </trkpt>
      <trkpt lat="43.2651" lon="0.08354">
        <ele>286</ele>
        <time>2020-05-31T05:47:44Z</time>
      </trkpt>
      <trkpt lat="43.26527" lon="0.08367">
        <ele>286</ele>
        <time>2020-05-31T05:47:59Z</time>
      </trkpt>
      <trkpt lat="43.2654" lon="0.08372">
        <ele>286</ele>
        <time>2020-05-31T05:48:08Z</time>
      </trkpt>
      <trkpt lat="43.2655" lon="0.08381">
        <ele>286</ele>
        <time>2020-05-31T05:48:16Z</time>
      </trkpt>
      <trkpt lat="43.26556" lon="0.08383">
        <ele>286</ele>
        <time>2020-05-31T05:48:21Z</time>
      </trkpt>
      <trkpt lat="43.26561" lon="0.08388">
        <ele>285</ele>
        <time>2020-05-31T05:48:25Z</time>
      </trkpt>
      <trkpt lat="43.26572" lon="0.08393">
        <ele>285</ele>
        <time>2020-05-31T05:48:35Z</time>
      </trkpt>
      <trkpt lat="43.26578" lon="0.08393">
        <ele>285</ele>
        <time>2020-05-31T05:48:40Z</time>
      </trkpt>
      <trkpt lat="43.26589" lon="0.08401">
        <ele>285</ele>
        <time>2020-05-31T05:48:49Z</time>
      </trkpt>
      <trkpt lat="43.26606" lon="0.08407">
        <ele>285</ele>
        <time>2020-05-31T05:49:03Z</time>
      </trkpt>
      <trkpt lat="43.26642" lon="0.08429">
        <ele>284</ele>
        <time>2020-05-31T05:49:32Z</time>
      </trkpt>
      <trkpt lat="43.26656" lon="0.08427">
        <ele>284</ele>
        <time>2020-05-31T05:49:42Z</time>
      </trkpt>
      <trkpt lat="43.26663" lon="0.08429">
        <ele>284</ele>
        <time>2020-05-31T05:49:46Z</time>
      </trkpt>
      <trkpt lat="43.26681" lon="0.08432">
        <ele>284</ele>
        <time>2020-05-31T05:50:00Z</time>
      </trkpt>
      <trkpt lat="43.26686" lon="0.08437">
        <ele>284</ele>
        <time>2020-05-31T05:50:03Z</time>
      </trkpt>
      <trkpt lat="43.26689" lon="0.08438">
        <ele>283</ele>
        <time>2020-05-31T05:50:06Z</time>
      </trkpt>
      <trkpt lat="43.2671" lon="0.08437">
        <ele>283</ele>
        <time>2020-05-31T05:50:23Z</time>
      </trkpt>
      <trkpt lat="43.26721" lon="0.08443">
        <ele>283</ele>
        <time>2020-05-31T05:50:32Z</time>
      </trkpt>
      <trkpt lat="43.26753" lon="0.08444">
        <ele>283</ele>
        <time>2020-05-31T05:50:54Z</time>
      </trkpt>
      <trkpt lat="43.26759" lon="0.08442">
        <ele>282</ele>
        <time>2020-05-31T05:50:58Z</time>
      </trkpt>
      <trkpt lat="43.26764" lon="0.0844">
        <ele>282</ele>
        <time>2020-05-31T05:51:03Z</time>
      </trkpt>
      <trkpt lat="43.26796" lon="0.08429">
        <ele>282</ele>
        <time>2020-05-31T05:51:28Z</time>
      </trkpt>
      <trkpt lat="43.268" lon="0.0843">
        <ele>282</ele>
        <time>2020-05-31T05:51:31Z</time>
      </trkpt>
      <trkpt lat="43.26816" lon="0.08422">
        <ele>282</ele>
        <time>2020-05-31T05:51:43Z</time>
      </trkpt>
      <trkpt lat="43.26825" lon="0.08422">
        <ele>282</ele>
        <time>2020-05-31T05:51:49Z</time>
      </trkpt>
      <trkpt lat="43.26864" lon="0.08408">
        <ele>282</ele>
        <time>2020-05-31T05:52:21Z</time>
      </trkpt>
      <trkpt lat="43.2689" lon="0.084">
        <ele>281</ele>
        <time>2020-05-31T05:52:39Z</time>
      </trkpt>
      <trkpt lat="43.26901" lon="0.08391">
        <ele>281</ele>
        <time>2020-05-31T05:52:50Z</time>
      </trkpt>
      <trkpt lat="43.26939" lon="0.08374">
        <ele>280</ele>
        <time>2020-05-31T05:53:20Z</time>
      </trkpt>
      <trkpt lat="43.26957" lon="0.08368">
        <ele>280</ele>
        <time>2020-05-31T05:53:34Z</time>
      </trkpt>
      <trkpt lat="43.26969" lon="0.0837">
        <ele>280</ele>
        <time>2020-05-31T05:53:43Z</time>
      </trkpt>
      <trkpt lat="43.26977" lon="0.08365">
        <ele>280</ele>
        <time>2020-05-31T05:53:49Z</time>
      </trkpt>
      <trkpt lat="43.27005" lon="0.08369">
        <ele>280</ele>
        <time>2020-05-31T05:54:09Z</time>
      </trkpt>
      <trkpt lat="43.27021" lon="0.08378">
        <ele>280</ele>
        <time>2020-05-31T05:54:20Z</time>
      </trkpt>
      <trkpt lat="43.27024" lon="0.08381">
        <ele>280</ele>
        <time>2020-05-31T05:54:22Z</time>
      </trkpt>
      <trkpt lat="43.27035" lon="0.08388">
        <ele>281</ele>
        <time>2020-05-31T05:54:31Z</time>
      </trkpt>
      <trkpt lat="43.27045" lon="0.08396">
        <ele>281</ele>
        <time>2020-05-31T05:54:45Z</time>
      </trkpt>
      <trkpt lat="43.2705" lon="0.08391">
        <ele>281</ele>
        <time>2020-05-31T05:55:22Z</time>
      </trkpt>
      <trkpt lat="43.27055" lon="0.08384">
        <ele>281</ele>
        <time>2020-05-31T05:55:33Z</time>
      </trkpt>
      <trkpt lat="43.27063" lon="0.08384">
        <ele>281</ele>
        <time>2020-05-31T05:55:41Z</time>
      </trkpt>
      <trkpt lat="43.2711" lon="0.08363">
        <ele>281</ele>
        <time>2020-05-31T05:56:11Z</time>
      </trkpt>
      <trkpt lat="43.27126" lon="0.08353">
        <ele>280</ele>
        <time>2020-05-31T05:56:24Z</time>
      </trkpt>
      <trkpt lat="43.27156" lon="0.08346">
        <ele>280</ele>
        <time>2020-05-31T05:56:46Z</time>
      </trkpt>
      <trkpt lat="43.2716" lon="0.08346">
        <ele>280</ele>
        <time>2020-05-31T05:56:48Z</time>
      </trkpt>
      <trkpt lat="43.2717" lon="0.08348">
        <ele>280</ele>
        <time>2020-05-31T05:56:54Z</time>
      </trkpt>
      <trkpt lat="43.27174" lon="0.08348">
        <ele>280</ele>
        <time>2020-05-31T05:56:57Z</time>
      </trkpt>
      <trkpt lat="43.27195" lon="0.0836">
        <ele>280</ele>
        <time>2020-05-31T05:57:12Z</time>
      </trkpt>
      <trkpt lat="43.27201" lon="0.08366">
        <ele>280</ele>
        <time>2020-05-31T05:57:55Z</time>
      </trkpt>
      <trkpt lat="43.27211" lon="0.0837">
        <ele>279</ele>
        <time>2020-05-31T05:58:17Z</time>
      </trkpt>
      <trkpt lat="43.27218" lon="0.08368">
        <ele>279</ele>
        <time>2020-05-31T05:58:24Z</time>
      </trkpt>
      <trkpt lat="43.27252" lon="0.08385">
        <ele>279</ele>
        <time>2020-05-31T05:58:47Z</time>
      </trkpt>
      <trkpt lat="43.27258" lon="0.08386">
        <ele>279</ele>
        <time>2020-05-31T05:58:51Z</time>
      </trkpt>
      <trkpt lat="43.27268" lon="0.08393">
        <ele>279</ele>
        <time>2020-05-31T05:58:56Z</time>
      </trkpt>
      <trkpt lat="43.27279" lon="0.08393">
        <ele>279</ele>
        <time>2020-05-31T05:59:04Z</time>
      </trkpt>
      <trkpt lat="43.27284" lon="0.08395">
        <ele>279</ele>
        <time>2020-05-31T05:59:07Z</time>
      </trkpt>
      <trkpt lat="43.2732" lon="0.08391">
        <ele>278</ele>
        <time>2020-05-31T05:59:34Z</time>
      </trkpt>
      <trkpt lat="43.27324" lon="0.0839">
        <ele>279</ele>
        <time>2020-05-31T05:59:37Z</time>
      </trkpt>
      <trkpt lat="43.27328" lon="0.08392">
        <ele>278</ele>
        <time>2020-05-31T05:59:40Z</time>
      </trkpt>
      <trkpt lat="43.27333" lon="0.08392">
        <ele>278</ele>
        <time>2020-05-31T05:59:43Z</time>
      </trkpt>
      <trkpt lat="43.27338" lon="0.08391">
        <ele>278</ele>
        <time>2020-05-31T05:59:46Z</time>
      </trkpt>
      <trkpt lat="43.27343" lon="0.08388">
        <ele>278</ele>
        <time>2020-05-31T05:59:49Z</time>
      </trkpt>
      <trkpt lat="43.27347" lon="0.08388">
        <ele>278</ele>
        <time>2020-05-31T05:59:52Z</time>
      </trkpt>
      <trkpt lat="43.27351" lon="0.08386">
        <ele>278</ele>
        <time>2020-05-31T05:59:55Z</time>
      </trkpt>
      <trkpt lat="43.27365" lon="0.08382">
        <ele>278</ele>
        <time>2020-05-31T06:00:06Z</time>
      </trkpt>
      <trkpt lat="43.2737" lon="0.08378">
        <ele>278</ele>
        <time>2020-05-31T06:00:10Z</time>
      </trkpt>
      <trkpt lat="43.27377" lon="0.08376">
        <ele>278</ele>
        <time>2020-05-31T06:00:14Z</time>
      </trkpt>
      <trkpt lat="43.27384" lon="0.08377">
        <ele>278</ele>
        <time>2020-05-31T06:00:18Z</time>
      </trkpt>
      <trkpt lat="43.2739" lon="0.0838">
        <ele>278</ele>
        <time>2020-05-31T06:00:22Z</time>
      </trkpt>
      <trkpt lat="43.27398" lon="0.0838">
        <ele>278</ele>
        <time>2020-05-31T06:00:28Z</time>
      </trkpt>
      <trkpt lat="43.27411" lon="0.08381">
        <ele>278</ele>
        <time>2020-05-31T06:00:38Z</time>
      </trkpt>
      <trkpt lat="43.27423" lon="0.08382">
        <ele>278</ele>
        <time>2020-05-31T06:00:47Z</time>
      </trkpt>
      <trkpt lat="43.27429" lon="0.0838">
        <ele>278</ele>
        <time>2020-05-31T06:00:50Z</time>
      </trkpt>
      <trkpt lat="43.27442" lon="0.08381">
        <ele>278</ele>
        <time>2020-05-31T06:00:58Z</time>
      </trkpt>
      <trkpt lat="43.27446" lon="0.08383">
        <ele>278</ele>
        <time>2020-05-31T06:01:01Z</time>
      </trkpt>
      <trkpt lat="43.2745" lon="0.08381">
        <ele>278</ele>
        <time>2020-05-31T06:01:03Z</time>
      </trkpt>
      <trkpt lat="43.2747" lon="0.08382">
        <ele>278</ele>
        <time>2020-05-31T06:01:19Z</time>
      </trkpt>
      <trkpt lat="43.2748" lon="0.08384">
        <ele>278</ele>
        <time>2020-05-31T06:01:27Z</time>
      </trkpt>
      <trkpt lat="43.27488" lon="0.0839">
        <ele>278</ele>
        <time>2020-05-31T06:01:33Z</time>
      </trkpt>
      <trkpt lat="43.27493" lon="0.08389">
        <ele>278</ele>
        <time>2020-05-31T06:01:36Z</time>
      </trkpt>
      <trkpt lat="43.27497" lon="0.0839">
        <ele>278</ele>
        <time>2020-05-31T06:01:39Z</time>
      </trkpt>
      <trkpt lat="43.27503" lon="0.0839">
        <ele>278</ele>
        <time>2020-05-31T06:01:43Z</time>
      </trkpt>
      <trkpt lat="43.27522" lon="0.08394">
        <ele>278</ele>
        <time>2020-05-31T06:01:57Z</time>
      </trkpt>
      <trkpt lat="43.27529" lon="0.08394">
        <ele>278</ele>
        <time>2020-05-31T06:02:03Z</time>
      </trkpt>
      <trkpt lat="43.27547" lon="0.08397">
        <ele>278</ele>
        <time>2020-05-31T06:02:17Z</time>
      </trkpt>
      <trkpt lat="43.2755" lon="0.08399">
        <ele>278</ele>
        <time>2020-05-31T06:02:20Z</time>
      </trkpt>
      <trkpt lat="43.27555" lon="0.084">
        <ele>278</ele>
        <time>2020-05-31T06:02:24Z</time>
      </trkpt>
      <trkpt lat="43.27563" lon="0.08403">
        <ele>278</ele>
        <time>2020-05-31T06:02:32Z</time>
      </trkpt>
      <trkpt lat="43.27571" lon="0.08404">
        <ele>278</ele>
        <time>2020-05-31T06:02:38Z</time>
      </trkpt>
      <trkpt lat="43.27599" lon="0.08414">
        <ele>278</ele>
        <time>2020-05-31T06:02:59Z</time>
      </trkpt>
      <trkpt lat="43.27611" lon="0.08417">
        <ele>278</ele>
        <time>2020-05-31T06:03:07Z</time>
      </trkpt>
      <trkpt lat="43.27622" lon="0.08414">
        <ele>277</ele>
        <time>2020-05-31T06:03:17Z</time>
      </trkpt>
      <trkpt lat="43.27627" lon="0.08416">
        <ele>277</ele>
        <time>2020-05-31T06:03:20Z</time>
      </trkpt>
      <trkpt lat="43.27642" lon="0.08415">
        <ele>277</ele>
        <time>2020-05-31T06:03:30Z</time>
      </trkpt>
      <trkpt lat="43.27648" lon="0.08413">
        <ele>277</ele>
        <time>2020-05-31T06:03:34Z</time>
      </trkpt>
      <trkpt lat="43.27657" lon="0.0841">
        <ele>277</ele>
        <time>2020-05-31T06:03:47Z</time>
      </trkpt>
      <trkpt lat="43.27666" lon="0.08408">
        <ele>276</ele>
        <time>2020-05-31T06:03:53Z</time>
      </trkpt>
      <trkpt lat="43.27676" lon="0.08414">
        <ele>276</ele>
        <time>2020-05-31T06:04:01Z</time>
      </trkpt>
      <trkpt lat="43.2768" lon="0.08413">
        <ele>276</ele>
        <time>2020-05-31T06:04:04Z</time>
      </trkpt>
      <trkpt lat="43.27689" lon="0.08415">
        <ele>275</ele>
        <time>2020-05-31T06:04:12Z</time>
      </trkpt>
      <trkpt lat="43.27693" lon="0.08418">
        <ele>275</ele>
        <time>2020-05-31T06:04:15Z</time>
      </trkpt>
      <trkpt lat="43.27702" lon="0.08422">
        <ele>275</ele>
        <time>2020-05-31T06:04:23Z</time>
      </trkpt>
      <trkpt lat="43.27714" lon="0.08424">
        <ele>275</ele>
        <time>2020-05-31T06:04:31Z</time>
      </trkpt>
      <trkpt lat="43.27722" lon="0.08428">
        <ele>275</ele>
        <time>2020-05-31T06:04:38Z</time>
      </trkpt>
      <trkpt lat="43.27732" lon="0.08428">
        <ele>276</ele>
        <time>2020-05-31T06:04:46Z</time>
      </trkpt>
      <trkpt lat="43.27735" lon="0.08431">
        <ele>276</ele>
        <time>2020-05-31T06:04:49Z</time>
      </trkpt>
      <trkpt lat="43.27747" lon="0.08434">
        <ele>276</ele>
        <time>2020-05-31T06:04:58Z</time>
      </trkpt>
      <trkpt lat="43.27767" lon="0.08433">
        <ele>276</ele>
        <time>2020-05-31T06:05:10Z</time>
      </trkpt>
      <trkpt lat="43.27771" lon="0.08431">
        <ele>276</ele>
        <time>2020-05-31T06:05:13Z</time>
      </trkpt>
      <trkpt lat="43.27779" lon="0.08432">
        <ele>276</ele>
        <time>2020-05-31T06:05:18Z</time>
      </trkpt>
      <trkpt lat="43.27791" lon="0.08435">
        <ele>276</ele>
        <time>2020-05-31T06:05:27Z</time>
      </trkpt>
      <trkpt lat="43.27795" lon="0.08434">
        <ele>276</ele>
        <time>2020-05-31T06:05:31Z</time>
      </trkpt>
      <trkpt lat="43.27806" lon="0.08438">
        <ele>276</ele>
        <time>2020-05-31T06:05:42Z</time>
      </trkpt>
      <trkpt lat="43.27819" lon="0.0844">
        <ele>277</ele>
        <time>2020-05-31T06:05:53Z</time>
      </trkpt>
      <trkpt lat="43.27823" lon="0.08443">
        <ele>277</ele>
        <time>2020-05-31T06:05:56Z</time>
      </trkpt>
      <trkpt lat="43.27835" lon="0.08443">
        <ele>277</ele>
        <time>2020-05-31T06:06:04Z</time>
      </trkpt>
      <trkpt lat="43.2784" lon="0.08442">
        <ele>277</ele>
        <time>2020-05-31T06:06:08Z</time>
      </trkpt>
      <trkpt lat="43.2786" lon="0.08443">
        <ele>277</ele>
        <time>2020-05-31T06:07:07Z</time>
      </trkpt>
      <trkpt lat="43.27868" lon="0.08441">
        <ele>277</ele>
        <time>2020-05-31T06:07:13Z</time>
      </trkpt>
      <trkpt lat="43.27874" lon="0.08442">
        <ele>277</ele>
        <time>2020-05-31T06:07:17Z</time>
      </trkpt>
      <trkpt lat="43.27889" lon="0.0845">
        <ele>276</ele>
        <time>2020-05-31T06:07:26Z</time>
      </trkpt>
      <trkpt lat="43.27902" lon="0.08451">
        <ele>276</ele>
        <time>2020-05-31T06:07:37Z</time>
      </trkpt>
      <trkpt lat="43.27907" lon="0.08449">
        <ele>276</ele>
        <time>2020-05-31T06:07:41Z</time>
      </trkpt>
      <trkpt lat="43.27924" lon="0.08451">
        <ele>276</ele>
        <time>2020-05-31T06:07:55Z</time>
      </trkpt>
      <trkpt lat="43.27932" lon="0.08455">
        <ele>276</ele>
        <time>2020-05-31T06:08:01Z</time>
      </trkpt>
      <trkpt lat="43.27936" lon="0.08453">
        <ele>276</ele>
        <time>2020-05-31T06:08:04Z</time>
      </trkpt>
      <trkpt lat="43.27943" lon="0.08457">
        <ele>276</ele>
        <time>2020-05-31T06:08:10Z</time>
      </trkpt>
      <trkpt lat="43.27951" lon="0.08464">
        <ele>276</ele>
        <time>2020-05-31T06:08:17Z</time>
      </trkpt>
      <trkpt lat="43.27963" lon="0.08467">
        <ele>275</ele>
        <time>2020-05-31T06:08:27Z</time>
      </trkpt>
      <trkpt lat="43.27974" lon="0.08476">
        <ele>275</ele>
        <time>2020-05-31T06:08:38Z</time>
      </trkpt>
      <trkpt lat="43.27999" lon="0.08483">
        <ele>274</ele>
        <time>2020-05-31T06:08:56Z</time>
      </trkpt>
      <trkpt lat="43.28017" lon="0.08496">
        <ele>273</ele>
        <time>2020-05-31T06:09:10Z</time>
      </trkpt>
      <trkpt lat="43.28021" lon="0.08497">
        <ele>273</ele>
        <time>2020-05-31T06:09:13Z</time>
      </trkpt>
      <trkpt lat="43.28023" lon="0.08501">
        <ele>273</ele>
        <time>2020-05-31T06:09:16Z</time>
      </trkpt>
      <trkpt lat="43.28027" lon="0.08503">
        <ele>273</ele>
        <time>2020-05-31T06:09:19Z</time>
      </trkpt>
      <trkpt lat="43.28031" lon="0.08503">
        <ele>274</ele>
        <time>2020-05-31T06:09:22Z</time>
      </trkpt>
      <trkpt lat="43.28035" lon="0.08506">
        <ele>274</ele>
        <time>2020-05-31T06:09:26Z</time>
      </trkpt>
      <trkpt lat="43.28042" lon="0.08506">
        <ele>274</ele>
        <time>2020-05-31T06:09:30Z</time>
      </trkpt>
      <trkpt lat="43.28046" lon="0.08511">
        <ele>274</ele>
        <time>2020-05-31T06:09:34Z</time>
      </trkpt>
      <trkpt lat="43.28053" lon="0.08516">
        <ele>275</ele>
        <time>2020-05-31T06:09:39Z</time>
      </trkpt>
      <trkpt lat="43.28091" lon="0.08523">
        <ele>275</ele>
        <time>2020-05-31T06:10:10Z</time>
      </trkpt>
      <trkpt lat="43.28096" lon="0.08524">
        <ele>275</ele>
        <time>2020-05-31T06:10:13Z</time>
      </trkpt>
      <trkpt lat="43.28101" lon="0.08529">
        <ele>275</ele>
        <time>2020-05-31T06:10:19Z</time>
      </trkpt>
      <trkpt lat="43.2811" lon="0.08531">
        <ele>275</ele>
        <time>2020-05-31T06:10:27Z</time>
      </trkpt>
      <trkpt lat="43.28119" lon="0.08535">
        <ele>274</ele>
        <time>2020-05-31T06:10:35Z</time>
      </trkpt>
      <trkpt lat="43.28153" lon="0.08546">
        <ele>274</ele>
        <time>2020-05-31T06:11:01Z</time>
      </trkpt>
      <trkpt lat="43.28182" lon="0.08543">
        <ele>274</ele>
        <time>2020-05-31T06:11:23Z</time>
      </trkpt>
      <trkpt lat="43.28186" lon="0.08544">
        <ele>274</ele>
        <time>2020-05-31T06:11:25Z</time>
      </trkpt>
      <trkpt lat="43.28202" lon="0.08543">
        <ele>274</ele>
        <time>2020-05-31T06:11:38Z</time>
      </trkpt>
      <trkpt lat="43.28206" lon="0.08544">
        <ele>274</ele>
        <time>2020-05-31T06:11:41Z</time>
      </trkpt>
      <trkpt lat="43.28215" lon="0.08543">
        <ele>274</ele>
        <time>2020-05-31T06:11:48Z</time>
      </trkpt>
      <trkpt lat="43.28219" lon="0.08544">
        <ele>274</ele>
        <time>2020-05-31T06:11:52Z</time>
      </trkpt>
      <trkpt lat="43.28227" lon="0.08546">
        <ele>273</ele>
        <time>2020-05-31T06:11:58Z</time>
      </trkpt>
      <trkpt lat="43.28235" lon="0.08547">
        <ele>273</ele>
        <time>2020-05-31T06:12:04Z</time>
      </trkpt>
      <trkpt lat="43.28254" lon="0.08544">
        <ele>273</ele>
        <time>2020-05-31T06:12:17Z</time>
      </trkpt>
      <trkpt lat="43.28273" lon="0.08549">
        <ele>273</ele>
        <time>2020-05-31T06:12:33Z</time>
      </trkpt>
      <trkpt lat="43.28282" lon="0.0855">
        <ele>273</ele>
        <time>2020-05-31T06:12:41Z</time>
      </trkpt>
      <trkpt lat="43.2829" lon="0.08557">
        <ele>273</ele>
        <time>2020-05-31T06:12:47Z</time>
      </trkpt>
      <trkpt lat="43.28296" lon="0.08566">
        <ele>272</ele>
        <time>2020-05-31T06:12:54Z</time>
      </trkpt>
      <trkpt lat="43.28299" lon="0.08582">
        <ele>273</ele>
        <time>2020-05-31T06:13:04Z</time>
      </trkpt>
      <trkpt lat="43.28302" lon="0.08591">
        <ele>273</ele>
        <time>2020-05-31T06:13:10Z</time>
      </trkpt>
      <trkpt lat="43.28302" lon="0.08599">
        <ele>273</ele>
        <time>2020-05-31T06:13:18Z</time>
      </trkpt>
      <trkpt lat="43.28321" lon="0.08632">
        <ele>272</ele>
        <time>2020-05-31T06:13:49Z</time>
      </trkpt>
      <trkpt lat="43.28331" lon="0.08649">
        <ele>272</ele>
        <time>2020-05-31T06:14:02Z</time>
      </trkpt>
      <trkpt lat="43.28357" lon="0.08667">
        <ele>272</ele>
        <time>2020-05-31T06:14:29Z</time>
      </trkpt>
      <trkpt lat="43.2836" lon="0.08671">
        <ele>272</ele>
        <time>2020-05-31T06:14:32Z</time>
      </trkpt>
      <trkpt lat="43.2837" lon="0.08679">
        <ele>271</ele>
        <time>2020-05-31T06:14:41Z</time>
      </trkpt>
      <trkpt lat="43.28403" lon="0.08697">
        <ele>271</ele>
        <time>2020-05-31T06:15:12Z</time>
      </trkpt>
      <trkpt lat="43.2842" lon="0.08704">
        <ele>271</ele>
        <time>2020-05-31T06:15:26Z</time>
      </trkpt>
      <trkpt lat="43.2844" lon="0.08705">
        <ele>270</ele>
        <time>2020-05-31T06:15:44Z</time>
      </trkpt>
      <trkpt lat="43.28444" lon="0.08708">
        <ele>270</ele>
        <time>2020-05-31T06:15:47Z</time>
      </trkpt>
      <trkpt lat="43.28463" lon="0.0871">
        <ele>270</ele>
        <time>2020-05-31T06:16:02Z</time>
      </trkpt>
      <trkpt lat="43.28478" lon="0.0871">
        <ele>271</ele>
        <time>2020-05-31T06:16:16Z</time>
      </trkpt>
      <trkpt lat="43.28483" lon="0.08712">
        <ele>271</ele>
        <time>2020-05-31T06:16:21Z</time>
      </trkpt>
      <trkpt lat="43.28491" lon="0.08716">
        <ele>271</ele>
        <time>2020-05-31T06:16:29Z</time>
      </trkpt>
      <trkpt lat="43.28496" lon="0.0872">
        <ele>271</ele>
        <time>2020-05-31T06:16:33Z</time>
      </trkpt>
      <trkpt lat="43.285" lon="0.0872">
        <ele>271</ele>
        <time>2020-05-31T06:16:37Z</time>
      </trkpt>
      <trkpt lat="43.28509" lon="0.08725">
        <ele>271</ele>
        <time>2020-05-31T06:16:44Z</time>
      </trkpt>
      <trkpt lat="43.28531" lon="0.08723">
        <ele>270</ele>
        <time>2020-05-31T06:17:06Z</time>
      </trkpt>
      <trkpt lat="43.28535" lon="0.08721">
        <ele>270</ele>
        <time>2020-05-31T06:17:09Z</time>
      </trkpt>
      <trkpt lat="43.28539" lon="0.08728">
        <ele>271</ele>
        <time>2020-05-31T06:20:00Z</time>
      </trkpt>
      <trkpt lat="43.28549" lon="0.08728">
        <ele>271</ele>
        <time>2020-05-31T06:21:25Z</time>
      </trkpt>
      <trkpt lat="43.28554" lon="0.08734">
        <ele>271</ele>
        <time>2020-05-31T06:21:30Z</time>
      </trkpt>
      <trkpt lat="43.28596" lon="0.08716">
        <ele>271</ele>
        <time>2020-05-31T06:22:01Z</time>
      </trkpt>
      <trkpt lat="43.286" lon="0.08714">
        <ele>271</ele>
        <time>2020-05-31T06:22:04Z</time>
      </trkpt>
      <trkpt lat="43.28605" lon="0.08713">
        <ele>271</ele>
        <time>2020-05-31T06:22:08Z</time>
      </trkpt>
      <trkpt lat="43.2863" lon="0.08702">
        <ele>272</ele>
        <time>2020-05-31T06:22:29Z</time>
      </trkpt>
      <trkpt lat="43.28634" lon="0.08702">
        <ele>272</ele>
        <time>2020-05-31T06:22:32Z</time>
      </trkpt>
      <trkpt lat="43.28637" lon="0.08703">
        <ele>272</ele>
        <time>2020-05-31T06:22:35Z</time>
      </trkpt>
      <trkpt lat="43.28647" lon="0.08702">
        <ele>272</ele>
        <time>2020-05-31T06:22:41Z</time>
      </trkpt>
      <trkpt lat="43.28665" lon="0.08687">
        <ele>272</ele>
        <time>2020-05-31T06:22:56Z</time>
      </trkpt>
      <trkpt lat="43.28673" lon="0.0868">
        <ele>271</ele>
        <time>2020-05-31T06:23:03Z</time>
      </trkpt>
      <trkpt lat="43.28699" lon="0.08671">
        <ele>271</ele>
        <time>2020-05-31T06:23:22Z</time>
      </trkpt>
      <trkpt lat="43.28703" lon="0.08667">
        <ele>271</ele>
        <time>2020-05-31T06:23:25Z</time>
      </trkpt>
      <trkpt lat="43.28711" lon="0.08666">
        <ele>271</ele>
        <time>2020-05-31T06:23:31Z</time>
      </trkpt>
      <trkpt lat="43.28731" lon="0.08653">
        <ele>271</ele>
        <time>2020-05-31T06:23:47Z</time>
      </trkpt>
      <trkpt lat="43.28737" lon="0.08646">
        <ele>271</ele>
        <time>2020-05-31T06:23:54Z</time>
      </trkpt>
      <trkpt lat="43.28754" lon="0.08636">
        <ele>271</ele>
        <time>2020-05-31T06:24:07Z</time>
      </trkpt>
      <trkpt lat="43.2876" lon="0.08629">
        <ele>271</ele>
        <time>2020-05-31T06:24:12Z</time>
      </trkpt>
      <trkpt lat="43.28764" lon="0.08622">
        <ele>271</ele>
        <time>2020-05-31T06:24:17Z</time>
      </trkpt>
      <trkpt lat="43.28781" lon="0.08598">
        <ele>271</ele>
        <time>2020-05-31T06:24:35Z</time>
      </trkpt>
      <trkpt lat="43.28784" lon="0.08592">
        <ele>271</ele>
        <time>2020-05-31T06:24:41Z</time>
      </trkpt>
      <trkpt lat="43.28785" lon="0.08585">
        <ele>271</ele>
        <time>2020-05-31T06:24:44Z</time>
      </trkpt>
      <trkpt lat="43.28786" lon="0.08574">
        <ele>270</ele>
        <time>2020-05-31T06:24:52Z</time>
      </trkpt>
      <trkpt lat="43.28787" lon="0.08569">
        <ele>270</ele>
        <time>2020-05-31T06:24:55Z</time>
      </trkpt>
      <trkpt lat="43.28801" lon="0.08538">
        <ele>270</ele>
        <time>2020-05-31T06:25:15Z</time>
      </trkpt>
      <trkpt lat="43.28801" lon="0.08533">
        <ele>270</ele>
        <time>2020-05-31T06:25:19Z</time>
      </trkpt>
      <trkpt lat="43.28806" lon="0.08522">
        <ele>269</ele>
        <time>2020-05-31T06:25:25Z</time>
      </trkpt>
      <trkpt lat="43.28807" lon="0.08511">
        <ele>269</ele>
        <time>2020-05-31T06:25:32Z</time>
      </trkpt>
      <trkpt lat="43.28809" lon="0.08506">
        <ele>269</ele>
        <time>2020-05-31T06:25:35Z</time>
      </trkpt>
      <trkpt lat="43.28814" lon="0.08479">
        <ele>269</ele>
        <time>2020-05-31T06:25:53Z</time>
      </trkpt>
      <trkpt lat="43.28817" lon="0.08471">
        <ele>269</ele>
        <time>2020-05-31T06:26:06Z</time>
      </trkpt>
      <trkpt lat="43.28819" lon="0.08466">
        <ele>269</ele>
        <time>2020-05-31T06:26:09Z</time>
      </trkpt>
      <trkpt lat="43.2882" lon="0.08455">
        <ele>269</ele>
        <time>2020-05-31T06:26:15Z</time>
      </trkpt>
      <trkpt lat="43.28821" lon="0.08449">
        <ele>269</ele>
        <time>2020-05-31T06:26:18Z</time>
      </trkpt>
      <trkpt lat="43.2882" lon="0.08443">
        <ele>269</ele>
        <time>2020-05-31T06:26:21Z</time>
      </trkpt>
      <trkpt lat="43.2882" lon="0.08436">
        <ele>269</ele>
        <time>2020-05-31T06:26:25Z</time>
      </trkpt>
      <trkpt lat="43.28822" lon="0.08427">
        <ele>269</ele>
        <time>2020-05-31T06:26:31Z</time>
      </trkpt>
      <trkpt lat="43.28823" lon="0.08411">
        <ele>269</ele>
        <time>2020-05-31T06:26:39Z</time>
      </trkpt>
      <trkpt lat="43.28824" lon="0.08406">
        <ele>269</ele>
        <time>2020-05-31T06:26:42Z</time>
      </trkpt>
      <trkpt lat="43.28823" lon="0.08402">
        <ele>269</ele>
        <time>2020-05-31T06:26:45Z</time>
      </trkpt>
      <trkpt lat="43.28825" lon="0.0839">
        <ele>269</ele>
        <time>2020-05-31T06:26:51Z</time>
      </trkpt>
      <trkpt lat="43.28828" lon="0.08386">
        <ele>269</ele>
        <time>2020-05-31T06:26:54Z</time>
      </trkpt>
      <trkpt lat="43.28829" lon="0.08375">
        <ele>269</ele>
        <time>2020-05-31T06:27:11Z</time>
      </trkpt>
      <trkpt lat="43.2883" lon="0.08369">
        <ele>269</ele>
        <time>2020-05-31T06:27:15Z</time>
      </trkpt>
      <trkpt lat="43.28831" lon="0.08357">
        <ele>269</ele>
        <time>2020-05-31T06:27:23Z</time>
      </trkpt>
      <trkpt lat="43.28824" lon="0.08293">
        <ele>268</ele>
        <time>2020-05-31T06:27:57Z</time>
      </trkpt>
      <trkpt lat="43.28822" lon="0.08288">
        <ele>268</ele>
        <time>2020-05-31T06:28:00Z</time>
      </trkpt>
      <trkpt lat="43.28819" lon="0.08271">
        <ele>268</ele>
        <time>2020-05-31T06:28:10Z</time>
      </trkpt>
      <trkpt lat="43.28807" lon="0.08241">
        <ele>268</ele>
        <time>2020-05-31T06:28:29Z</time>
      </trkpt>
      <trkpt lat="43.28803" lon="0.08237">
        <ele>268</ele>
        <time>2020-05-31T06:28:32Z</time>
      </trkpt>
      <trkpt lat="43.28799" lon="0.08227">
        <ele>269</ele>
        <time>2020-05-31T06:28:39Z</time>
      </trkpt>
      <trkpt lat="43.28798" lon="0.08222">
        <ele>269</ele>
        <time>2020-05-31T06:28:41Z</time>
      </trkpt>
      <trkpt lat="43.28795" lon="0.08218">
        <ele>269</ele>
        <time>2020-05-31T06:28:44Z</time>
      </trkpt>
      <trkpt lat="43.2879" lon="0.08207">
        <ele>269</ele>
        <time>2020-05-31T06:28:51Z</time>
      </trkpt>
      <trkpt lat="43.28786" lon="0.08204">
        <ele>270</ele>
        <time>2020-05-31T06:28:54Z</time>
      </trkpt>
      <trkpt lat="43.2878" lon="0.08199">
        <ele>270</ele>
        <time>2020-05-31T06:29:00Z</time>
      </trkpt>
      <trkpt lat="43.28773" lon="0.08191">
        <ele>270</ele>
        <time>2020-05-31T06:29:09Z</time>
      </trkpt>
      <trkpt lat="43.28764" lon="0.08193">
        <ele>270</ele>
        <time>2020-05-31T06:29:16Z</time>
      </trkpt>
      <trkpt lat="43.28756" lon="0.08192">
        <ele>270</ele>
        <time>2020-05-31T06:29:22Z</time>
      </trkpt>
      <trkpt lat="43.2875" lon="0.08197">
        <ele>270</ele>
        <time>2020-05-31T06:29:27Z</time>
      </trkpt>
      <trkpt lat="43.28736" lon="0.08205">
        <ele>270</ele>
        <time>2020-05-31T06:29:38Z</time>
      </trkpt>
      <trkpt lat="43.28727" lon="0.08214">
        <ele>270</ele>
        <time>2020-05-31T06:29:48Z</time>
      </trkpt>
      <trkpt lat="43.28715" lon="0.08222">
        <ele>270</ele>
        <time>2020-05-31T06:29:57Z</time>
      </trkpt>
      <trkpt lat="43.28712" lon="0.08225">
        <ele>270</ele>
        <time>2020-05-31T06:29:59Z</time>
      </trkpt>
      <trkpt lat="43.2871" lon="0.0823">
        <ele>270</ele>
        <time>2020-05-31T06:30:02Z</time>
      </trkpt>
      <trkpt lat="43.28707" lon="0.08234">
        <ele>270</ele>
        <time>2020-05-31T06:30:05Z</time>
      </trkpt>
      <trkpt lat="43.28692" lon="0.08246">
        <ele>270</ele>
        <time>2020-05-31T06:30:17Z</time>
      </trkpt>
      <trkpt lat="43.28689" lon="0.08249">
        <ele>270</ele>
        <time>2020-05-31T06:30:20Z</time>
      </trkpt>
      <trkpt lat="43.28666" lon="0.08266">
        <ele>269</ele>
        <time>2020-05-31T06:30:41Z</time>
      </trkpt>
      <trkpt lat="43.28663" lon="0.08269">
        <ele>269</ele>
        <time>2020-05-31T06:30:44Z</time>
      </trkpt>
      <trkpt lat="43.28639" lon="0.08281">
        <ele>269</ele>
        <time>2020-05-31T06:31:03Z</time>
      </trkpt>
      <trkpt lat="43.28628" lon="0.08284">
        <ele>269</ele>
        <time>2020-05-31T06:31:10Z</time>
      </trkpt>
      <trkpt lat="43.28624" lon="0.08288">
        <ele>269</ele>
        <time>2020-05-31T06:31:17Z</time>
      </trkpt>
      <trkpt lat="43.28619" lon="0.08298">
        <ele>269</ele>
        <time>2020-05-31T06:31:25Z</time>
      </trkpt>
      <trkpt lat="43.28582" lon="0.08331">
        <ele>269</ele>
        <time>2020-05-31T06:31:55Z</time>
      </trkpt>
      <trkpt lat="43.28574" lon="0.08334">
        <ele>269</ele>
        <time>2020-05-31T06:32:02Z</time>
      </trkpt>
      <trkpt lat="43.28545" lon="0.0833">
        <ele>270</ele>
        <time>2020-05-31T06:32:23Z</time>
      </trkpt>
      <trkpt lat="43.2854" lon="0.08328">
        <ele>270</ele>
        <time>2020-05-31T06:32:27Z</time>
      </trkpt>
      <trkpt lat="43.28537" lon="0.08329">
        <ele>270</ele>
        <time>2020-05-31T06:32:30Z</time>
      </trkpt>
      <trkpt lat="43.28532" lon="0.08328">
        <ele>270</ele>
        <time>2020-05-31T06:32:33Z</time>
      </trkpt>
      <trkpt lat="43.28527" lon="0.0833">
        <ele>270</ele>
        <time>2020-05-31T06:32:37Z</time>
      </trkpt>
      <trkpt lat="43.28518" lon="0.08329">
        <ele>270</ele>
        <time>2020-05-31T06:32:44Z</time>
      </trkpt>
      <trkpt lat="43.28514" lon="0.08326">
        <ele>270</ele>
        <time>2020-05-31T06:32:48Z</time>
      </trkpt>
      <trkpt lat="43.28506" lon="0.08325">
        <ele>270</ele>
        <time>2020-05-31T06:32:53Z</time>
      </trkpt>
      <trkpt lat="43.28503" lon="0.08322">
        <ele>270</ele>
        <time>2020-05-31T06:32:57Z</time>
      </trkpt>
      <trkpt lat="43.28489" lon="0.08323">
        <ele>270</ele>
        <time>2020-05-31T06:33:06Z</time>
      </trkpt>
      <trkpt lat="43.28485" lon="0.0832">
        <ele>270</ele>
        <time>2020-05-31T06:33:10Z</time>
      </trkpt>
      <trkpt lat="43.28482" lon="0.08319">
        <ele>270</ele>
        <time>2020-05-31T06:33:13Z</time>
      </trkpt>
      <trkpt lat="43.28478" lon="0.08319">
        <ele>270</ele>
        <time>2020-05-31T06:33:16Z</time>
      </trkpt>
      <trkpt lat="43.2846" lon="0.08324">
        <ele>271</ele>
        <time>2020-05-31T06:33:29Z</time>
      </trkpt>
      <trkpt lat="43.28446" lon="0.08323">
        <ele>272</ele>
        <time>2020-05-31T06:33:40Z</time>
      </trkpt>
      <trkpt lat="43.28437" lon="0.08323">
        <ele>271</ele>
        <time>2020-05-31T06:33:46Z</time>
      </trkpt>
      <trkpt lat="43.28416" lon="0.08328">
        <ele>271</ele>
        <time>2020-05-31T06:34:01Z</time>
      </trkpt>
      <trkpt lat="43.28408" lon="0.08324">
        <ele>271</ele>
        <time>2020-05-31T06:34:08Z</time>
      </trkpt>
      <trkpt lat="43.28392" lon="0.08324">
        <ele>271</ele>
        <time>2020-05-31T06:34:20Z</time>
      </trkpt>
      <trkpt lat="43.28388" lon="0.08323">
        <ele>271</ele>
        <time>2020-05-31T06:34:23Z</time>
      </trkpt>
      <trkpt lat="43.28384" lon="0.08326">
        <ele>271</ele>
        <time>2020-05-31T06:34:27Z</time>
      </trkpt>
      <trkpt lat="43.28367" lon="0.08327">
        <ele>270</ele>
        <time>2020-05-31T06:34:41Z</time>
      </trkpt>
      <trkpt lat="43.28364" lon="0.08331">
        <ele>269</ele>
        <time>2020-05-31T06:34:45Z</time>
      </trkpt>
      <trkpt lat="43.28362" lon="0.08336">
        <ele>269</ele>
        <time>2020-05-31T06:34:49Z</time>
      </trkpt>
      <trkpt lat="43.2836" lon="0.08346">
        <ele>269</ele>
        <time>2020-05-31T06:35:00Z</time>
      </trkpt>
      <trkpt lat="43.28357" lon="0.08358">
        <ele>269</ele>
        <time>2020-05-31T06:35:11Z</time>
      </trkpt>
      <trkpt lat="43.28359" lon="0.08388">
        <ele>269</ele>
        <time>2020-05-31T06:35:32Z</time>
      </trkpt>
      <trkpt lat="43.28358" lon="0.08401">
        <ele>269</ele>
        <time>2020-05-31T06:35:39Z</time>
      </trkpt>
      <trkpt lat="43.28359" lon="0.08415">
        <ele>270</ele>
        <time>2020-05-31T06:35:48Z</time>
      </trkpt>
      <trkpt lat="43.28365" lon="0.08446">
        <ele>270</ele>
        <time>2020-05-31T06:36:03Z</time>
      </trkpt>
      <trkpt lat="43.28366" lon="0.08458">
        <ele>270</ele>
        <time>2020-05-31T06:36:09Z</time>
      </trkpt>
      <trkpt lat="43.28364" lon="0.0847">
        <ele>270</ele>
        <time>2020-05-31T06:36:15Z</time>
      </trkpt>
      <trkpt lat="43.28359" lon="0.08479">
        <ele>270</ele>
        <time>2020-05-31T06:36:21Z</time>
      </trkpt>
      <trkpt lat="43.28353" lon="0.08487">
        <ele>270</ele>
        <time>2020-05-31T06:36:28Z</time>
      </trkpt>
      <trkpt lat="43.28348" lon="0.0849">
        <ele>270</ele>
        <time>2020-05-31T06:36:32Z</time>
      </trkpt>
      <trkpt lat="43.28323" lon="0.08502">
        <ele>270</ele>
        <time>2020-05-31T06:36:49Z</time>
      </trkpt>
      <trkpt lat="43.28313" lon="0.08511">
        <ele>270</ele>
        <time>2020-05-31T06:36:58Z</time>
      </trkpt>
      <trkpt lat="43.28305" lon="0.08514">
        <ele>270</ele>
        <time>2020-05-31T06:37:04Z</time>
      </trkpt>
      <trkpt lat="43.28293" lon="0.08532">
        <ele>269</ele>
        <time>2020-05-31T06:37:19Z</time>
      </trkpt>
      <trkpt lat="43.28291" lon="0.08535">
        <ele>271</ele>
        <time>2020-05-31T06:37:26Z</time>
      </trkpt>
      <trkpt lat="43.2829" lon="0.08541">
        <ele>272</ele>
        <time>2020-05-31T06:37:33Z</time>
      </trkpt>
      <trkpt lat="43.28283" lon="0.08546">
        <ele>273</ele>
        <time>2020-05-31T06:37:46Z</time>
      </trkpt>
      <trkpt lat="43.28275" lon="0.08545">
        <ele>273</ele>
        <time>2020-05-31T06:37:54Z</time>
      </trkpt>
      <trkpt lat="43.2827" lon="0.08546">
        <ele>273</ele>
        <time>2020-05-31T06:37:58Z</time>
      </trkpt>
      <trkpt lat="43.28266" lon="0.08545">
        <ele>273</ele>
        <time>2020-05-31T06:38:01Z</time>
      </trkpt>
      <trkpt lat="43.28257" lon="0.08546">
        <ele>273</ele>
        <time>2020-05-31T06:38:07Z</time>
      </trkpt>
      <trkpt lat="43.28231" lon="0.08543">
        <ele>273</ele>
        <time>2020-05-31T06:38:35Z</time>
      </trkpt>
      <trkpt lat="43.28218" lon="0.08541">
        <ele>273</ele>
        <time>2020-05-31T06:39:15Z</time>
      </trkpt>
      <trkpt lat="43.28201" lon="0.08543">
        <ele>273</ele>
        <time>2020-05-31T06:39:32Z</time>
      </trkpt>
      <trkpt lat="43.28194" lon="0.08544">
        <ele>273</ele>
        <time>2020-05-31T06:39:37Z</time>
      </trkpt>
      <trkpt lat="43.28186" lon="0.08542">
        <ele>273</ele>
        <time>2020-05-31T06:39:41Z</time>
      </trkpt>
      <trkpt lat="43.28175" lon="0.08543">
        <ele>274</ele>
        <time>2020-05-31T06:39:59Z</time>
      </trkpt>
      <trkpt lat="43.2817" lon="0.08541">
        <ele>274</ele>
        <time>2020-05-31T06:40:03Z</time>
      </trkpt>
      <trkpt lat="43.28166" lon="0.08542">
        <ele>274</ele>
        <time>2020-05-31T06:40:05Z</time>
      </trkpt>
      <trkpt lat="43.28162" lon="0.08541">
        <ele>274</ele>
        <time>2020-05-31T06:40:08Z</time>
      </trkpt>
      <trkpt lat="43.28131" lon="0.08541">
        <ele>274</ele>
        <time>2020-05-31T06:40:29Z</time>
      </trkpt>
      <trkpt lat="43.28093" lon="0.08522">
        <ele>274</ele>
        <time>2020-05-31T06:41:01Z</time>
      </trkpt>
      <trkpt lat="43.28089" lon="0.08521">
        <ele>274</ele>
        <time>2020-05-31T06:41:04Z</time>
      </trkpt>
      <trkpt lat="43.2808" lon="0.08517">
        <ele>274</ele>
        <time>2020-05-31T06:41:12Z</time>
      </trkpt>
      <trkpt lat="43.28072" lon="0.08516">
        <ele>274</ele>
        <time>2020-05-31T06:41:19Z</time>
      </trkpt>
      <trkpt lat="43.28068" lon="0.08515">
        <ele>274</ele>
        <time>2020-05-31T06:41:23Z</time>
      </trkpt>
      <trkpt lat="43.28058" lon="0.08512">
        <ele>274</ele>
        <time>2020-05-31T06:41:30Z</time>
      </trkpt>
      <trkpt lat="43.2805" lon="0.08512">
        <ele>274</ele>
        <time>2020-05-31T06:41:36Z</time>
      </trkpt>
      <trkpt lat="43.28032" lon="0.08504">
        <ele>273</ele>
        <time>2020-05-31T06:41:52Z</time>
      </trkpt>
      <trkpt lat="43.28024" lon="0.08504">
        <ele>273</ele>
        <time>2020-05-31T06:41:57Z</time>
      </trkpt>
      <trkpt lat="43.27986" lon="0.08484">
        <ele>274</ele>
        <time>2020-05-31T06:42:28Z</time>
      </trkpt>
      <trkpt lat="43.27981" lon="0.08484">
        <ele>274</ele>
        <time>2020-05-31T06:42:31Z</time>
      </trkpt>
      <trkpt lat="43.27977" lon="0.0848">
        <ele>274</ele>
        <time>2020-05-31T06:42:34Z</time>
      </trkpt>
      <trkpt lat="43.27972" lon="0.08479">
        <ele>274</ele>
        <time>2020-05-31T06:42:38Z</time>
      </trkpt>
      <trkpt lat="43.2797" lon="0.08475">
        <ele>274</ele>
        <time>2020-05-31T06:42:41Z</time>
      </trkpt>
      <trkpt lat="43.27966" lon="0.08471">
        <ele>275</ele>
        <time>2020-05-31T06:42:44Z</time>
      </trkpt>
      <trkpt lat="43.27938" lon="0.08457">
        <ele>275</ele>
        <time>2020-05-31T06:43:07Z</time>
      </trkpt>
      <trkpt lat="43.27933" lon="0.08457">
        <ele>275</ele>
        <time>2020-05-31T06:43:12Z</time>
      </trkpt>
      <trkpt lat="43.27929" lon="0.08455">
        <ele>275</ele>
        <time>2020-05-31T06:43:15Z</time>
      </trkpt>
      <trkpt lat="43.27924" lon="0.08456">
        <ele>275</ele>
        <time>2020-05-31T06:43:20Z</time>
      </trkpt>
      <trkpt lat="43.27912" lon="0.08452">
        <ele>275</ele>
        <time>2020-05-31T06:43:31Z</time>
      </trkpt>
      <trkpt lat="43.27881" lon="0.08454">
        <ele>276</ele>
        <time>2020-05-31T06:43:59Z</time>
      </trkpt>
      <trkpt lat="43.27872" lon="0.08452">
        <ele>276</ele>
        <time>2020-05-31T06:44:06Z</time>
      </trkpt>
      <trkpt lat="43.27847" lon="0.08457">
        <ele>276</ele>
        <time>2020-05-31T06:44:28Z</time>
      </trkpt>
      <trkpt lat="43.27836" lon="0.08453">
        <ele>277</ele>
        <time>2020-05-31T06:44:37Z</time>
      </trkpt>
      <trkpt lat="43.27831" lon="0.08445">
        <ele>276</ele>
        <time>2020-05-31T06:44:44Z</time>
      </trkpt>
      <trkpt lat="43.27796" lon="0.08435">
        <ele>275</ele>
        <time>2020-05-31T06:45:15Z</time>
      </trkpt>
      <trkpt lat="43.27778" lon="0.08437">
        <ele>275</ele>
        <time>2020-05-31T06:45:29Z</time>
      </trkpt>
      <trkpt lat="43.2777" lon="0.08434">
        <ele>275</ele>
        <time>2020-05-31T06:45:35Z</time>
      </trkpt>
      <trkpt lat="43.27766" lon="0.08435">
        <ele>275</ele>
        <time>2020-05-31T06:45:38Z</time>
      </trkpt>
      <trkpt lat="43.27761" lon="0.08433">
        <ele>275</ele>
        <time>2020-05-31T06:45:41Z</time>
      </trkpt>
      <trkpt lat="43.27757" lon="0.08434">
        <ele>275</ele>
        <time>2020-05-31T06:45:44Z</time>
      </trkpt>
      <trkpt lat="43.27738" lon="0.08432">
        <ele>276</ele>
        <time>2020-05-31T06:45:59Z</time>
      </trkpt>
      <trkpt lat="43.27732" lon="0.08435">
        <ele>276</ele>
        <time>2020-05-31T06:46:04Z</time>
      </trkpt>
      <trkpt lat="43.27728" lon="0.08435">
        <ele>276</ele>
        <time>2020-05-31T06:46:08Z</time>
      </trkpt>
      <trkpt lat="43.27723" lon="0.08437">
        <ele>275</ele>
        <time>2020-05-31T06:46:11Z</time>
      </trkpt>
      <trkpt lat="43.27715" lon="0.08435">
        <ele>275</ele>
        <time>2020-05-31T06:46:17Z</time>
      </trkpt>
      <trkpt lat="43.27693" lon="0.08424">
        <ele>275</ele>
        <time>2020-05-31T06:46:35Z</time>
      </trkpt>
      <trkpt lat="43.27688" lon="0.08419">
        <ele>275</ele>
        <time>2020-05-31T06:46:42Z</time>
      </trkpt>
      <trkpt lat="43.27687" lon="0.08413">
        <ele>275</ele>
        <time>2020-05-31T06:46:45Z</time>
      </trkpt>
      <trkpt lat="43.27688" lon="0.08402">
        <ele>275</ele>
        <time>2020-05-31T06:46:52Z</time>
      </trkpt>
      <trkpt lat="43.2768" lon="0.08415">
        <ele>276</ele>
        <time>2020-05-31T06:48:18Z</time>
      </trkpt>
      <trkpt lat="43.27674" lon="0.08415">
        <ele>277</ele>
        <time>2020-05-31T06:48:41Z</time>
      </trkpt>
      <trkpt lat="43.27666" lon="0.08411">
        <ele>277</ele>
        <time>2020-05-31T06:49:41Z</time>
      </trkpt>
      <trkpt lat="43.27658" lon="0.08418">
        <ele>277</ele>
        <time>2020-05-31T06:51:01Z</time>
      </trkpt>
      <trkpt lat="43.27642" lon="0.08426">
        <ele>278</ele>
        <time>2020-05-31T06:51:16Z</time>
      </trkpt>
      <trkpt lat="43.27637" lon="0.0843">
        <ele>278</ele>
        <time>2020-05-31T06:51:20Z</time>
      </trkpt>
      <trkpt lat="43.27609" lon="0.08437">
        <ele>279</ele>
        <time>2020-05-31T06:51:39Z</time>
      </trkpt>
      <trkpt lat="43.27603" lon="0.08436">
        <ele>279</ele>
        <time>2020-05-31T06:51:42Z</time>
      </trkpt>
      <trkpt lat="43.27596" lon="0.08434">
        <ele>279</ele>
        <time>2020-05-31T06:51:46Z</time>
      </trkpt>
      <trkpt lat="43.27589" lon="0.08434">
        <ele>279</ele>
        <time>2020-05-31T06:51:50Z</time>
      </trkpt>
      <trkpt lat="43.27559" lon="0.08424">
        <ele>280</ele>
        <time>2020-05-31T06:52:09Z</time>
      </trkpt>
      <trkpt lat="43.27553" lon="0.08419">
        <ele>280</ele>
        <time>2020-05-31T06:52:12Z</time>
      </trkpt>
      <trkpt lat="43.2755" lon="0.0841">
        <ele>280</ele>
        <time>2020-05-31T06:52:15Z</time>
      </trkpt>
      <trkpt lat="43.27548" lon="0.08406">
        <ele>280</ele>
        <time>2020-05-31T06:52:17Z</time>
      </trkpt>
      <trkpt lat="43.27545" lon="0.08403">
        <ele>280</ele>
        <time>2020-05-31T06:52:20Z</time>
      </trkpt>
      <trkpt lat="43.27541" lon="0.084">
        <ele>280</ele>
        <time>2020-05-31T06:52:24Z</time>
      </trkpt>
      <trkpt lat="43.27537" lon="0.08399">
        <ele>280</ele>
        <time>2020-05-31T06:52:28Z</time>
      </trkpt>
      <trkpt lat="43.27532" lon="0.08396">
        <ele>280</ele>
        <time>2020-05-31T06:52:32Z</time>
      </trkpt>
      <trkpt lat="43.27506" lon="0.08396">
        <ele>280</ele>
        <time>2020-05-31T06:52:51Z</time>
      </trkpt>
      <trkpt lat="43.27502" lon="0.08395">
        <ele>280</ele>
        <time>2020-05-31T06:52:54Z</time>
      </trkpt>
      <trkpt lat="43.27494" lon="0.08395">
        <ele>280</ele>
        <time>2020-05-31T06:53:00Z</time>
      </trkpt>
      <trkpt lat="43.27486" lon="0.08391">
        <ele>280</ele>
        <time>2020-05-31T06:53:05Z</time>
      </trkpt>
      <trkpt lat="43.27482" lon="0.08391">
        <ele>280</ele>
        <time>2020-05-31T06:53:08Z</time>
      </trkpt>
      <trkpt lat="43.27475" lon="0.08385">
        <ele>280</ele>
        <time>2020-05-31T06:53:14Z</time>
      </trkpt>
      <trkpt lat="43.27467" lon="0.08383">
        <ele>280</ele>
        <time>2020-05-31T06:53:20Z</time>
      </trkpt>
      <trkpt lat="43.27419" lon="0.08382">
        <ele>280</ele>
        <time>2020-05-31T06:53:57Z</time>
      </trkpt>
      <trkpt lat="43.27408" lon="0.08381">
        <ele>280</ele>
        <time>2020-05-31T06:54:09Z</time>
      </trkpt>
      <trkpt lat="43.27402" lon="0.08383">
        <ele>280</ele>
        <time>2020-05-31T06:54:14Z</time>
      </trkpt>
      <trkpt lat="43.27396" lon="0.08386">
        <ele>280</ele>
        <time>2020-05-31T06:54:19Z</time>
      </trkpt>
      <trkpt lat="43.27372" lon="0.08386">
        <ele>280</ele>
        <time>2020-05-31T06:54:33Z</time>
      </trkpt>
      <trkpt lat="43.27364" lon="0.08388">
        <ele>280</ele>
        <time>2020-05-31T06:54:39Z</time>
      </trkpt>
      <trkpt lat="43.2734" lon="0.08397">
        <ele>280</ele>
        <time>2020-05-31T06:54:56Z</time>
      </trkpt>
      <trkpt lat="43.27336" lon="0.08396">
        <ele>281</ele>
        <time>2020-05-31T06:54:59Z</time>
      </trkpt>
      <trkpt lat="43.27323" lon="0.08398">
        <ele>281</ele>
        <time>2020-05-31T06:55:08Z</time>
      </trkpt>
      <trkpt lat="43.2732" lon="0.084">
        <ele>281</ele>
        <time>2020-05-31T06:55:11Z</time>
      </trkpt>
      <trkpt lat="43.27316" lon="0.08399">
        <ele>281</ele>
        <time>2020-05-31T06:55:14Z</time>
      </trkpt>
      <trkpt lat="43.27305" lon="0.08402">
        <ele>281</ele>
        <time>2020-05-31T06:55:23Z</time>
      </trkpt>
      <trkpt lat="43.27263" lon="0.08394">
        <ele>281</ele>
        <time>2020-05-31T06:55:58Z</time>
      </trkpt>
      <trkpt lat="43.27251" lon="0.08388">
        <ele>281</ele>
        <time>2020-05-31T06:56:07Z</time>
      </trkpt>
      <trkpt lat="43.27245" lon="0.08389">
        <ele>281</ele>
        <time>2020-05-31T06:56:11Z</time>
      </trkpt>
      <trkpt lat="43.27234" lon="0.08386">
        <ele>281</ele>
        <time>2020-05-31T06:56:19Z</time>
      </trkpt>
      <trkpt lat="43.27228" lon="0.08385">
        <ele>282</ele>
        <time>2020-05-31T06:56:24Z</time>
      </trkpt>
      <trkpt lat="43.27211" lon="0.08377">
        <ele>282</ele>
        <time>2020-05-31T06:56:38Z</time>
      </trkpt>
      <trkpt lat="43.27191" lon="0.08364">
        <ele>282</ele>
        <time>2020-05-31T06:56:55Z</time>
      </trkpt>
      <trkpt lat="43.27169" lon="0.08357">
        <ele>282</ele>
        <time>2020-05-31T06:57:12Z</time>
      </trkpt>
      <trkpt lat="43.27169" lon="0.08351">
        <ele>282</ele>
        <time>2020-05-31T06:57:26Z</time>
      </trkpt>
      <trkpt lat="43.27163" lon="0.08352">
        <ele>282</ele>
        <time>2020-05-31T06:57:38Z</time>
      </trkpt>
      <trkpt lat="43.27156" lon="0.0835">
        <ele>281</ele>
        <time>2020-05-31T06:58:02Z</time>
      </trkpt>
      <trkpt lat="43.27142" lon="0.08357">
        <ele>281</ele>
        <time>2020-05-31T06:58:20Z</time>
      </trkpt>
      <trkpt lat="43.27098" lon="0.08386">
        <ele>281</ele>
        <time>2020-05-31T06:58:51Z</time>
      </trkpt>
      <trkpt lat="43.27081" lon="0.08393">
        <ele>281</ele>
        <time>2020-05-31T06:59:04Z</time>
      </trkpt>
      <trkpt lat="43.27078" lon="0.08397">
        <ele>281</ele>
        <time>2020-05-31T06:59:07Z</time>
      </trkpt>
      <trkpt lat="43.27069" lon="0.08402">
        <ele>281</ele>
        <time>2020-05-31T06:59:13Z</time>
      </trkpt>
      <trkpt lat="43.27039" lon="0.08406">
        <ele>281</ele>
        <time>2020-05-31T06:59:37Z</time>
      </trkpt>
      <trkpt lat="43.27035" lon="0.08404">
        <ele>281</ele>
        <time>2020-05-31T06:59:40Z</time>
      </trkpt>
      <trkpt lat="43.27031" lon="0.08404">
        <ele>281</ele>
        <time>2020-05-31T06:59:42Z</time>
      </trkpt>
      <trkpt lat="43.27023" lon="0.08397">
        <ele>281</ele>
        <time>2020-05-31T06:59:50Z</time>
      </trkpt>
      <trkpt lat="43.27009" lon="0.08383">
        <ele>281</ele>
        <time>2020-05-31T07:00:03Z</time>
      </trkpt>
      <trkpt lat="43.26993" lon="0.08378">
        <ele>281</ele>
        <time>2020-05-31T07:00:16Z</time>
      </trkpt>
      <trkpt lat="43.26983" lon="0.08378">
        <ele>281</ele>
        <time>2020-05-31T07:00:23Z</time>
      </trkpt>
      <trkpt lat="43.26943" lon="0.08386">
        <ele>281</ele>
        <time>2020-05-31T07:00:57Z</time>
      </trkpt>
      <trkpt lat="43.26937" lon="0.08386">
        <ele>281</ele>
        <time>2020-05-31T07:01:01Z</time>
      </trkpt>
      <trkpt lat="43.26889" lon="0.08411">
        <ele>281</ele>
        <time>2020-05-31T07:01:40Z</time>
      </trkpt>
      <trkpt lat="43.26884" lon="0.08414">
        <ele>281</ele>
        <time>2020-05-31T07:01:44Z</time>
      </trkpt>
      <trkpt lat="43.26877" lon="0.08414">
        <ele>282</ele>
        <time>2020-05-31T07:01:49Z</time>
      </trkpt>
      <trkpt lat="43.26836" lon="0.08434">
        <ele>283</ele>
        <time>2020-05-31T07:02:20Z</time>
      </trkpt>
      <trkpt lat="43.26832" lon="0.08433">
        <ele>283</ele>
        <time>2020-05-31T07:02:23Z</time>
      </trkpt>
      <trkpt lat="43.26815" lon="0.08439">
        <ele>283</ele>
        <time>2020-05-31T07:02:39Z</time>
      </trkpt>
      <trkpt lat="43.26804" lon="0.08445">
        <ele>283</ele>
        <time>2020-05-31T07:02:49Z</time>
      </trkpt>
      <trkpt lat="43.26792" lon="0.08449">
        <ele>283</ele>
        <time>2020-05-31T07:02:58Z</time>
      </trkpt>
      <trkpt lat="43.26781" lon="0.08448">
        <ele>283</ele>
        <time>2020-05-31T07:03:06Z</time>
      </trkpt>
      <trkpt lat="43.26736" lon="0.08457">
        <ele>284</ele>
        <time>2020-05-31T07:03:38Z</time>
      </trkpt>
      <trkpt lat="43.26701" lon="0.0846">
        <ele>284</ele>
        <time>2020-05-31T07:04:06Z</time>
      </trkpt>
      <trkpt lat="43.26695" lon="0.08462">
        <ele>284</ele>
        <time>2020-05-31T07:04:10Z</time>
      </trkpt>
      <trkpt lat="43.26689" lon="0.08459">
        <ele>284</ele>
        <time>2020-05-31T07:04:15Z</time>
      </trkpt>
      <trkpt lat="43.26683" lon="0.08453">
        <ele>284</ele>
        <time>2020-05-31T07:04:20Z</time>
      </trkpt>
      <trkpt lat="43.26673" lon="0.0845">
        <ele>284</ele>
        <time>2020-05-31T07:04:29Z</time>
      </trkpt>
      <trkpt lat="43.26662" lon="0.08448">
        <ele>284</ele>
        <time>2020-05-31T07:04:37Z</time>
      </trkpt>
      <trkpt lat="43.2665" lon="0.08445">
        <ele>284</ele>
        <time>2020-05-31T07:04:46Z</time>
      </trkpt>
      <trkpt lat="43.26633" lon="0.08445">
        <ele>285</ele>
        <time>2020-05-31T07:04:57Z</time>
      </trkpt>
      <trkpt lat="43.2662" lon="0.08437">
        <ele>285</ele>
        <time>2020-05-31T07:05:08Z</time>
      </trkpt>
      <trkpt lat="43.26595" lon="0.08417">
        <ele>285</ele>
        <time>2020-05-31T07:05:33Z</time>
      </trkpt>
      <trkpt lat="43.26567" lon="0.08402">
        <ele>286</ele>
        <time>2020-05-31T07:06:04Z</time>
      </trkpt>
      <trkpt lat="43.26535" lon="0.08383">
        <ele>286</ele>
        <time>2020-05-31T07:06:35Z</time>
      </trkpt>
      <trkpt lat="43.2653" lon="0.08378">
        <ele>286</ele>
        <time>2020-05-31T07:06:40Z</time>
      </trkpt>
      <trkpt lat="43.2652" lon="0.0837">
        <ele>286</ele>
        <time>2020-05-31T07:06:50Z</time>
      </trkpt>
      <trkpt lat="43.26515" lon="0.08365">
        <ele>286</ele>
        <time>2020-05-31T07:06:55Z</time>
      </trkpt>
      <trkpt lat="43.26494" lon="0.08348">
        <ele>286</ele>
        <time>2020-05-31T07:07:13Z</time>
      </trkpt>
      <trkpt lat="43.26487" lon="0.08335">
        <ele>286</ele>
        <time>2020-05-31T07:07:22Z</time>
      </trkpt>
      <trkpt lat="43.26484" lon="0.08327">
        <ele>286</ele>
        <time>2020-05-31T07:07:27Z</time>
      </trkpt>
      <trkpt lat="43.26479" lon="0.08322">
        <ele>286</ele>
        <time>2020-05-31T07:07:31Z</time>
      </trkpt>
      <trkpt lat="43.26472" lon="0.0832">
        <ele>286</ele>
        <time>2020-05-31T07:07:37Z</time>
      </trkpt>
      <trkpt lat="43.26433" lon="0.08322">
        <ele>287</ele>
        <time>2020-05-31T07:08:08Z</time>
      </trkpt>
      <trkpt lat="43.26427" lon="0.08321">
        <ele>287</ele>
        <time>2020-05-31T07:08:12Z</time>
      </trkpt>
      <trkpt lat="43.26386" lon="0.0833">
        <ele>287</ele>
        <time>2020-05-31T07:08:41Z</time>
      </trkpt>
      <trkpt lat="43.26381" lon="0.08333">
        <ele>287</ele>
        <time>2020-05-31T07:08:45Z</time>
      </trkpt>
      <trkpt lat="43.26338" lon="0.08342">
        <ele>287</ele>
        <time>2020-05-31T07:09:19Z</time>
      </trkpt>
      <trkpt lat="43.26332" lon="0.08339">
        <ele>287</ele>
        <time>2020-05-31T07:09:25Z</time>
      </trkpt>
      <trkpt lat="43.26318" lon="0.08343">
        <ele>287</ele>
        <time>2020-05-31T07:09:35Z</time>
      </trkpt>
      <trkpt lat="43.26306" lon="0.08342">
        <ele>287</ele>
        <time>2020-05-31T07:09:46Z</time>
      </trkpt>
      <trkpt lat="43.26288" lon="0.08346">
        <ele>288</ele>
        <time>2020-05-31T07:10:00Z</time>
      </trkpt>
      <trkpt lat="43.26283" lon="0.08345">
        <ele>288</ele>
        <time>2020-05-31T07:10:04Z</time>
      </trkpt>
      <trkpt lat="43.26276" lon="0.0835">
        <ele>288</ele>
        <time>2020-05-31T07:10:11Z</time>
      </trkpt>
      <trkpt lat="43.26263" lon="0.08351">
        <ele>288</ele>
        <time>2020-05-31T07:10:22Z</time>
      </trkpt>
      <trkpt lat="43.26257" lon="0.08353">
        <ele>288</ele>
        <time>2020-05-31T07:10:26Z</time>
      </trkpt>
      <trkpt lat="43.26251" lon="0.08351">
        <ele>288</ele>
        <time>2020-05-31T07:10:31Z</time>
      </trkpt>
      <trkpt lat="43.26231" lon="0.08353">
        <ele>288</ele>
        <time>2020-05-31T07:10:43Z</time>
      </trkpt>
      <trkpt lat="43.26226" lon="0.08356">
        <ele>288</ele>
        <time>2020-05-31T07:10:47Z</time>
      </trkpt>
      <trkpt lat="43.2622" lon="0.08355">
        <ele>288</ele>
        <time>2020-05-31T07:10:52Z</time>
      </trkpt>
      <trkpt lat="43.2621" lon="0.0836">
        <ele>289</ele>
        <time>2020-05-31T07:11:02Z</time>
      </trkpt>
      <trkpt lat="43.26199" lon="0.08359">
        <ele>289</ele>
        <time>2020-05-31T07:11:12Z</time>
      </trkpt>
      <trkpt lat="43.26175" lon="0.08366">
        <ele>289</ele>
        <time>2020-05-31T07:11:31Z</time>
      </trkpt>
      <trkpt lat="43.26162" lon="0.08364">
        <ele>289</ele>
        <time>2020-05-31T07:11:38Z</time>
      </trkpt>
      <trkpt lat="43.26149" lon="0.08364">
        <ele>289</ele>
        <time>2020-05-31T07:11:46Z</time>
      </trkpt>
      <trkpt lat="43.26144" lon="0.08367">
        <ele>289</ele>
        <time>2020-05-31T07:11:50Z</time>
      </trkpt>
      <trkpt lat="43.2612" lon="0.08372">
        <ele>290</ele>
        <time>2020-05-31T07:12:06Z</time>
      </trkpt>
      <trkpt lat="43.26107" lon="0.0837">
        <ele>290</ele>
        <time>2020-05-31T07:12:19Z</time>
      </trkpt>
      <trkpt lat="43.26101" lon="0.08372">
        <ele>290</ele>
        <time>2020-05-31T07:12:24Z</time>
      </trkpt>
      <trkpt lat="43.26088" lon="0.08372">
        <ele>290</ele>
        <time>2020-05-31T07:12:32Z</time>
      </trkpt>
      <trkpt lat="43.26063" lon="0.08381">
        <ele>290</ele>
        <time>2020-05-31T07:12:48Z</time>
      </trkpt>
      <trkpt lat="43.26058" lon="0.08379">
        <ele>290</ele>
        <time>2020-05-31T07:12:53Z</time>
      </trkpt>
      <trkpt lat="43.26045" lon="0.08378">
        <ele>291</ele>
        <time>2020-05-31T07:13:02Z</time>
      </trkpt>
      <trkpt lat="43.2604" lon="0.08374">
        <ele>291</ele>
        <time>2020-05-31T07:13:06Z</time>
      </trkpt>
      <trkpt lat="43.26034" lon="0.08375">
        <ele>291</ele>
        <time>2020-05-31T07:13:11Z</time>
      </trkpt>
      <trkpt lat="43.2602" lon="0.08383">
        <ele>291</ele>
        <time>2020-05-31T07:13:25Z</time>
      </trkpt>
      <trkpt lat="43.25996" lon="0.08385">
        <ele>291</ele>
        <time>2020-05-31T07:13:41Z</time>
      </trkpt>
      <trkpt lat="43.2599" lon="0.08381">
        <ele>291</ele>
        <time>2020-05-31T07:13:45Z</time>
      </trkpt>
      <trkpt lat="43.25984" lon="0.0838">
        <ele>291</ele>
        <time>2020-05-31T07:13:49Z</time>
      </trkpt>
      <trkpt lat="43.25978" lon="0.0838">
        <ele>291</ele>
        <time>2020-05-31T07:13:53Z</time>
      </trkpt>
      <trkpt lat="43.25936" lon="0.08375">
        <ele>291</ele>
        <time>2020-05-31T07:14:25Z</time>
      </trkpt>
      <trkpt lat="43.25923" lon="0.0837">
        <ele>291</ele>
        <time>2020-05-31T07:14:37Z</time>
      </trkpt>
      <trkpt lat="43.25911" lon="0.08373">
        <ele>291</ele>
        <time>2020-05-31T07:14:46Z</time>
      </trkpt>
      <trkpt lat="43.25874" lon="0.08368">
        <ele>292</ele>
        <time>2020-05-31T07:15:16Z</time>
      </trkpt>
      <trkpt lat="43.25862" lon="0.08365">
        <ele>292</ele>
        <time>2020-05-31T07:15:24Z</time>
      </trkpt>
      <trkpt lat="43.25826" lon="0.08372">
        <ele>292</ele>
        <time>2020-05-31T07:15:56Z</time>
      </trkpt>
      <trkpt lat="43.25814" lon="0.08369">
        <ele>292</ele>
        <time>2020-05-31T07:16:04Z</time>
      </trkpt>
      <trkpt lat="43.25794" lon="0.08366">
        <ele>292</ele>
        <time>2020-05-31T07:16:18Z</time>
      </trkpt>
      <trkpt lat="43.25782" lon="0.08364">
        <ele>292</ele>
        <time>2020-05-31T07:16:26Z</time>
      </trkpt>
      <trkpt lat="43.2577" lon="0.08367">
        <ele>292</ele>
        <time>2020-05-31T07:16:34Z</time>
      </trkpt>
      <trkpt lat="43.25763" lon="0.08365">
        <ele>292</ele>
        <time>2020-05-31T07:16:39Z</time>
      </trkpt>
      <trkpt lat="43.25758" lon="0.08367">
        <ele>292</ele>
        <time>2020-05-31T07:16:44Z</time>
      </trkpt>
      <trkpt lat="43.25753" lon="0.08366">
        <ele>292</ele>
        <time>2020-05-31T07:16:47Z</time>
      </trkpt>
      <trkpt lat="43.2575" lon="0.08365">
        <ele>293</ele>
        <time>2020-05-31T07:16:50Z</time>
      </trkpt>
      <trkpt lat="43.25736" lon="0.08368">
        <ele>293</ele>
        <time>2020-05-31T07:17:00Z</time>
      </trkpt>
      <trkpt lat="43.25715" lon="0.08367">
        <ele>293</ele>
        <time>2020-05-31T07:17:18Z</time>
      </trkpt>
      <trkpt lat="43.25682" lon="0.08375">
        <ele>293</ele>
        <time>2020-05-31T07:17:43Z</time>
      </trkpt>
      <trkpt lat="43.25673" lon="0.0838">
        <ele>293</ele>
        <time>2020-05-31T07:17:51Z</time>
      </trkpt>
      <trkpt lat="43.25669" lon="0.0838">
        <ele>293</ele>
        <time>2020-05-31T07:17:54Z</time>
      </trkpt>
      <trkpt lat="43.25665" lon="0.08381">
        <ele>293</ele>
        <time>2020-05-31T07:17:57Z</time>
      </trkpt>
      <trkpt lat="43.25651" lon="0.08379">
        <ele>293</ele>
        <time>2020-05-31T07:18:10Z</time>
      </trkpt>
      <trkpt lat="43.25615" lon="0.08387">
        <ele>294</ele>
        <time>2020-05-31T07:18:38Z</time>
      </trkpt>
      <trkpt lat="43.25598" lon="0.08385">
        <ele>294</ele>
        <time>2020-05-31T07:18:51Z</time>
      </trkpt>
      <trkpt lat="43.25585" lon="0.08389">
        <ele>294</ele>
        <time>2020-05-31T07:19:00Z</time>
      </trkpt>
      <trkpt lat="43.25543" lon="0.08388">
        <ele>294</ele>
        <time>2020-05-31T07:19:32Z</time>
      </trkpt>
      <trkpt lat="43.25533" lon="0.08388">
        <ele>294</ele>
        <time>2020-05-31T07:19:40Z</time>
      </trkpt>
      <trkpt lat="43.25527" lon="0.0839">
        <ele>294</ele>
        <time>2020-05-31T07:19:45Z</time>
      </trkpt>
      <trkpt lat="43.25521" lon="0.08395">
        <ele>294</ele>
        <time>2020-05-31T07:19:51Z</time>
      </trkpt>
      <trkpt lat="43.2551" lon="0.084">
        <ele>294</ele>
        <time>2020-05-31T07:19:59Z</time>
      </trkpt>
      <trkpt lat="43.25507" lon="0.08403">
        <ele>294</ele>
        <time>2020-05-31T07:20:02Z</time>
      </trkpt>
      <trkpt lat="43.25478" lon="0.08406">
        <ele>294</ele>
        <time>2020-05-31T07:20:26Z</time>
      </trkpt>
      <trkpt lat="43.25443" lon="0.08417">
        <ele>294</ele>
        <time>2020-05-31T07:20:53Z</time>
      </trkpt>
      <trkpt lat="43.25432" lon="0.08414">
        <ele>294</ele>
        <time>2020-05-31T07:21:01Z</time>
      </trkpt>
      <trkpt lat="43.25413" lon="0.0842">
        <ele>294</ele>
        <time>2020-05-31T07:21:18Z</time>
      </trkpt>
      <trkpt lat="43.25407" lon="0.0842">
        <ele>294</ele>
        <time>2020-05-31T07:21:23Z</time>
      </trkpt>
      <trkpt lat="43.25401" lon="0.08419">
        <ele>294</ele>
        <time>2020-05-31T07:21:27Z</time>
      </trkpt>
      <trkpt lat="43.2537" lon="0.08426">
        <ele>294</ele>
        <time>2020-05-31T07:21:48Z</time>
      </trkpt>
      <trkpt lat="43.25364" lon="0.08424">
        <ele>294</ele>
        <time>2020-05-31T07:21:53Z</time>
      </trkpt>
      <trkpt lat="43.2534" lon="0.08424">
        <ele>295</ele>
        <time>2020-05-31T07:22:12Z</time>
      </trkpt>
      <trkpt lat="43.25306" lon="0.08409">
        <ele>294</ele>
        <time>2020-05-31T07:22:43Z</time>
      </trkpt>
      <trkpt lat="43.25294" lon="0.08411">
        <ele>295</ele>
        <time>2020-05-31T07:22:51Z</time>
      </trkpt>
      <trkpt lat="43.25262" lon="0.0843">
        <ele>295</ele>
        <time>2020-05-31T07:23:16Z</time>
      </trkpt>
      <trkpt lat="43.25257" lon="0.08425">
        <ele>295</ele>
        <time>2020-05-31T07:23:20Z</time>
      </trkpt>
      <trkpt lat="43.2525" lon="0.08405">
        <ele>295</ele>
        <time>2020-05-31T07:23:32Z</time>
      </trkpt>
      <trkpt lat="43.25244" lon="0.08399">
        <ele>296</ele>
        <time>2020-05-31T07:23:36Z</time>
      </trkpt>
      <trkpt lat="43.25244" lon="0.08394">
        <ele>296</ele>
        <time>2020-05-31T07:23:39Z</time>
      </trkpt>
      <trkpt lat="43.25239" lon="0.0839">
        <ele>296</ele>
        <time>2020-05-31T07:23:42Z</time>
      </trkpt>
      <trkpt lat="43.25238" lon="0.08378">
        <ele>296</ele>
        <time>2020-05-31T07:23:48Z</time>
      </trkpt>
      <trkpt lat="43.25236" lon="0.08374">
        <ele>297</ele>
        <time>2020-05-31T07:23:51Z</time>
      </trkpt>
      <trkpt lat="43.25231" lon="0.08373">
        <ele>297</ele>
        <time>2020-05-31T07:23:54Z</time>
      </trkpt>
      <trkpt lat="43.25216" lon="0.08375">
        <ele>297</ele>
        <time>2020-05-31T07:24:05Z</time>
      </trkpt>
      <trkpt lat="43.25208" lon="0.08379">
        <ele>297</ele>
        <time>2020-05-31T07:24:11Z</time>
      </trkpt>
      <trkpt lat="43.2519" lon="0.08377">
        <ele>297</ele>
        <time>2020-05-31T07:24:25Z</time>
      </trkpt>
      <trkpt lat="43.25171" lon="0.08367">
        <ele>297</ele>
        <time>2020-05-31T07:24:41Z</time>
      </trkpt>
      <trkpt lat="43.25155" lon="0.08346">
        <ele>297</ele>
        <time>2020-05-31T07:24:58Z</time>
      </trkpt>
      <trkpt lat="43.25149" lon="0.08346">
        <ele>297</ele>
        <time>2020-05-31T07:25:01Z</time>
      </trkpt>
      <trkpt lat="43.25134" lon="0.0835">
        <ele>297</ele>
        <time>2020-05-31T07:25:13Z</time>
      </trkpt>
      <trkpt lat="43.25119" lon="0.08347">
        <ele>297</ele>
        <time>2020-05-31T07:25:25Z</time>
      </trkpt>
      <trkpt lat="43.25111" lon="0.08347">
        <ele>297</ele>
        <time>2020-05-31T07:25:31Z</time>
      </trkpt>
      <trkpt lat="43.25107" lon="0.08346">
        <ele>297</ele>
        <time>2020-05-31T07:25:34Z</time>
      </trkpt>
      <trkpt lat="43.25093" lon="0.08344">
        <ele>297</ele>
        <time>2020-05-31T07:25:44Z</time>
      </trkpt>
      <trkpt lat="43.25089" lon="0.08342">
        <ele>297</ele>
        <time>2020-05-31T07:25:47Z</time>
      </trkpt>
      <trkpt lat="43.2505" lon="0.08334">
        <ele>298</ele>
        <time>2020-05-31T07:26:19Z</time>
      </trkpt>
      <trkpt lat="43.25045" lon="0.08333">
        <ele>298</ele>
        <time>2020-05-31T07:26:22Z</time>
      </trkpt>
      <trkpt lat="43.25041" lon="0.08334">
        <ele>298</ele>
        <time>2020-05-31T07:26:26Z</time>
      </trkpt>
      <trkpt lat="43.25015" lon="0.08329">
        <ele>299</ele>
        <time>2020-05-31T07:26:46Z</time>
      </trkpt>
      <trkpt lat="43.25012" lon="0.08327">
        <ele>299</ele>
        <time>2020-05-31T07:26:49Z</time>
      </trkpt>
      <trkpt lat="43.25008" lon="0.08326">
        <ele>299</ele>
        <time>2020-05-31T07:26:51Z</time>
      </trkpt>
      <trkpt lat="43.24999" lon="0.08329">
        <ele>299</ele>
        <time>2020-05-31T07:26:57Z</time>
      </trkpt>
      <trkpt lat="43.24974" lon="0.08324">
        <ele>298</ele>
        <time>2020-05-31T07:27:16Z</time>
      </trkpt>
      <trkpt lat="43.24956" lon="0.08323">
        <ele>299</ele>
        <time>2020-05-31T07:27:29Z</time>
      </trkpt>
      <trkpt lat="43.24953" lon="0.08321">
        <ele>299</ele>
        <time>2020-05-31T07:27:32Z</time>
      </trkpt>
      <trkpt lat="43.24948" lon="0.08322">
        <ele>299</ele>
        <time>2020-05-31T07:27:35Z</time>
      </trkpt>
      <trkpt lat="43.24934" lon="0.08322">
        <ele>298</ele>
        <time>2020-05-31T07:27:45Z</time>
      </trkpt>
      <trkpt lat="43.2492" lon="0.08327">
        <ele>298</ele>
        <time>2020-05-31T07:27:58Z</time>
      </trkpt>
      <trkpt lat="43.24881" lon="0.08328">
        <ele>298</ele>
        <time>2020-05-31T07:28:26Z</time>
      </trkpt>
      <trkpt lat="43.24877" lon="0.08327">
        <ele>298</ele>
        <time>2020-05-31T07:28:29Z</time>
      </trkpt>
      <trkpt lat="43.24872" lon="0.08327">
        <ele>298</ele>
        <time>2020-05-31T07:28:32Z</time>
      </trkpt>
      <trkpt lat="43.24868" lon="0.08328">
        <ele>298</ele>
        <time>2020-05-31T07:28:35Z</time>
      </trkpt>
      <trkpt lat="43.24859" lon="0.08327">
        <ele>298</ele>
        <time>2020-05-31T07:28:42Z</time>
      </trkpt>
      <trkpt lat="43.24854" lon="0.0833">
        <ele>299</ele>
        <time>2020-05-31T07:28:46Z</time>
      </trkpt>
      <trkpt lat="43.24825" lon="0.08337">
        <ele>299</ele>
        <time>2020-05-31T07:29:08Z</time>
      </trkpt>
      <trkpt lat="43.24821" lon="0.08336">
        <ele>299</ele>
        <time>2020-05-31T07:29:10Z</time>
      </trkpt>
      <trkpt lat="43.24817" lon="0.08335">
        <ele>299</ele>
        <time>2020-05-31T07:29:13Z</time>
      </trkpt>
      <trkpt lat="43.24801" lon="0.08345">
        <ele>299</ele>
        <time>2020-05-31T07:29:25Z</time>
      </trkpt>
      <trkpt lat="43.24798" lon="0.08348">
        <ele>299</ele>
        <time>2020-05-31T07:29:28Z</time>
      </trkpt>
      <trkpt lat="43.24794" lon="0.08349">
        <ele>299</ele>
        <time>2020-05-31T07:29:31Z</time>
      </trkpt>
      <trkpt lat="43.24791" lon="0.08352">
        <ele>299</ele>
        <time>2020-05-31T07:29:34Z</time>
      </trkpt>
      <trkpt lat="43.24758" lon="0.08351">
        <ele>300</ele>
        <time>2020-05-31T07:29:59Z</time>
      </trkpt>
      <trkpt lat="43.24754" lon="0.08352">
        <ele>300</ele>
        <time>2020-05-31T07:30:03Z</time>
      </trkpt>
      <trkpt lat="43.2475" lon="0.08352">
        <ele>300</ele>
        <time>2020-05-31T07:30:07Z</time>
      </trkpt>
      <trkpt lat="43.24745" lon="0.08355">
        <ele>300</ele>
        <time>2020-05-31T07:30:10Z</time>
      </trkpt>
      <trkpt lat="43.24726" lon="0.08359">
        <ele>300</ele>
        <time>2020-05-31T07:30:22Z</time>
      </trkpt>
      <trkpt lat="43.24723" lon="0.08358">
        <ele>300</ele>
        <time>2020-05-31T07:30:24Z</time>
      </trkpt>
      <trkpt lat="43.24719" lon="0.0836">
        <ele>300</ele>
        <time>2020-05-31T07:30:27Z</time>
      </trkpt>
      <trkpt lat="43.24699" lon="0.08355">
        <ele>300</ele>
        <time>2020-05-31T07:30:44Z</time>
      </trkpt>
      <trkpt lat="43.24693" lon="0.08351">
        <ele>300</ele>
        <time>2020-05-31T07:30:50Z</time>
      </trkpt>
      <trkpt lat="43.24672" lon="0.08345">
        <ele>299</ele>
        <time>2020-05-31T07:31:07Z</time>
      </trkpt>
      <trkpt lat="43.24661" lon="0.08339">
        <ele>298</ele>
        <time>2020-05-31T07:31:18Z</time>
      </trkpt>
      <trkpt lat="43.24655" lon="0.0834">
        <ele>299</ele>
        <time>2020-05-31T07:31:22Z</time>
      </trkpt>
      <trkpt lat="43.24649" lon="0.08336">
        <ele>299</ele>
        <time>2020-05-31T07:31:26Z</time>
      </trkpt>
      <trkpt lat="43.24641" lon="0.08339">
        <ele>299</ele>
        <time>2020-05-31T07:31:31Z</time>
      </trkpt>
      <trkpt lat="43.24617" lon="0.08334">
        <ele>300</ele>
        <time>2020-05-31T07:31:50Z</time>
      </trkpt>
      <trkpt lat="43.24612" lon="0.08332">
        <ele>300</ele>
        <time>2020-05-31T07:31:53Z</time>
      </trkpt>
      <trkpt lat="43.24593" lon="0.08327">
        <ele>300</ele>
        <time>2020-05-31T07:32:09Z</time>
      </trkpt>
      <trkpt lat="43.24581" lon="0.0832">
        <ele>300</ele>
        <time>2020-05-31T07:32:18Z</time>
      </trkpt>
      <trkpt lat="43.24577" lon="0.08319">
        <ele>300</ele>
        <time>2020-05-31T07:32:21Z</time>
      </trkpt>
      <trkpt lat="43.24566" lon="0.08313">
        <ele>300</ele>
        <time>2020-05-31T07:32:30Z</time>
      </trkpt>
      <trkpt lat="43.2456" lon="0.08304">
        <ele>300</ele>
        <time>2020-05-31T07:32:37Z</time>
      </trkpt>
      <trkpt lat="43.24556" lon="0.08303">
        <ele>300</ele>
        <time>2020-05-31T07:32:39Z</time>
      </trkpt>
      <trkpt lat="43.24554" lon="0.08299">
        <ele>300</ele>
        <time>2020-05-31T07:32:42Z</time>
      </trkpt>
      <trkpt lat="43.24546" lon="0.08293">
        <ele>300</ele>
        <time>2020-05-31T07:32:48Z</time>
      </trkpt>
      <trkpt lat="43.24533" lon="0.08275">
        <ele>300</ele>
        <time>2020-05-31T07:33:01Z</time>
      </trkpt>
      <trkpt lat="43.245" lon="0.0827">
        <ele>300</ele>
        <time>2020-05-31T07:33:25Z</time>
      </trkpt>
      <trkpt lat="43.24496" lon="0.08267">
        <ele>300</ele>
        <time>2020-05-31T07:33:29Z</time>
      </trkpt>
      <trkpt lat="43.24494" lon="0.08263">
        <ele>300</ele>
        <time>2020-05-31T07:33:32Z</time>
      </trkpt>
      <trkpt lat="43.24487" lon="0.08261">
        <ele>300</ele>
        <time>2020-05-31T07:33:38Z</time>
      </trkpt>
      <trkpt lat="43.24482" lon="0.08262">
        <ele>300</ele>
        <time>2020-05-31T07:33:41Z</time>
      </trkpt>
      <trkpt lat="43.24455" lon="0.08261">
        <ele>300</ele>
        <time>2020-05-31T07:34:01Z</time>
      </trkpt>
      <trkpt lat="43.2444" lon="0.0827">
        <ele>301</ele>
        <time>2020-05-31T07:34:15Z</time>
      </trkpt>
      <trkpt lat="43.24433" lon="0.08273">
        <ele>301</ele>
        <time>2020-05-31T07:34:23Z</time>
      </trkpt>
      <trkpt lat="43.24403" lon="0.08278">
        <ele>300</ele>
        <time>2020-05-31T07:34:46Z</time>
      </trkpt>
      <trkpt lat="43.24392" lon="0.08281">
        <ele>301</ele>
        <time>2020-05-31T07:34:56Z</time>
      </trkpt>
      <trkpt lat="43.24368" lon="0.08281">
        <ele>301</ele>
        <time>2020-05-31T07:35:13Z</time>
      </trkpt>
      <trkpt lat="43.24362" lon="0.08278">
        <ele>301</ele>
        <time>2020-05-31T07:35:17Z</time>
      </trkpt>
      <trkpt lat="43.24352" lon="0.08278">
        <ele>301</ele>
        <time>2020-05-31T07:35:23Z</time>
      </trkpt>
      <trkpt lat="43.24348" lon="0.08279">
        <ele>301</ele>
        <time>2020-05-31T07:35:27Z</time>
      </trkpt>
      <trkpt lat="43.24336" lon="0.08275">
        <ele>301</ele>
        <time>2020-05-31T07:35:37Z</time>
      </trkpt>
      <trkpt lat="43.24318" lon="0.08274">
        <ele>302</ele>
        <time>2020-05-31T07:35:48Z</time>
      </trkpt>
      <trkpt lat="43.24306" lon="0.08269">
        <ele>302</ele>
        <time>2020-05-31T07:35:55Z</time>
      </trkpt>
      <trkpt lat="43.24302" lon="0.08268">
        <ele>302</ele>
        <time>2020-05-31T07:36:00Z</time>
      </trkpt>
      <trkpt lat="43.24297" lon="0.08268">
        <ele>302</ele>
        <time>2020-05-31T07:36:03Z</time>
      </trkpt>
      <trkpt lat="43.24294" lon="0.08266">
        <ele>303</ele>
        <time>2020-05-31T07:36:06Z</time>
      </trkpt>
      <trkpt lat="43.24286" lon="0.08259">
        <ele>303</ele>
        <time>2020-05-31T07:36:14Z</time>
      </trkpt>
      <trkpt lat="43.2428" lon="0.0826">
        <ele>303</ele>
        <time>2020-05-31T07:36:18Z</time>
      </trkpt>
      <trkpt lat="43.24267" lon="0.08258">
        <ele>303</ele>
        <time>2020-05-31T07:36:27Z</time>
      </trkpt>
      <trkpt lat="43.2426" lon="0.08258">
        <ele>303</ele>
        <time>2020-05-31T07:36:32Z</time>
      </trkpt>
      <trkpt lat="43.24253" lon="0.08257">
        <ele>303</ele>
        <time>2020-05-31T07:36:35Z</time>
      </trkpt>
      <trkpt lat="43.2424" lon="0.08261">
        <ele>303</ele>
        <time>2020-05-31T07:36:43Z</time>
      </trkpt>
      <trkpt lat="43.24236" lon="0.0826">
        <ele>303</ele>
        <time>2020-05-31T07:36:45Z</time>
      </trkpt>
      <trkpt lat="43.24224" lon="0.08262">
        <ele>304</ele>
        <time>2020-05-31T07:36:56Z</time>
      </trkpt>
      <trkpt lat="43.24215" lon="0.0826">
        <ele>304</ele>
        <time>2020-05-31T07:37:02Z</time>
      </trkpt>
      <trkpt lat="43.24212" lon="0.08257">
        <ele>303</ele>
        <time>2020-05-31T07:37:05Z</time>
      </trkpt>
      <trkpt lat="43.24196" lon="0.08259">
        <ele>303</ele>
        <time>2020-05-31T07:37:17Z</time>
      </trkpt>
      <trkpt lat="43.24192" lon="0.08257">
        <ele>303</ele>
        <time>2020-05-31T07:37:20Z</time>
      </trkpt>
      <trkpt lat="43.24183" lon="0.08258">
        <ele>303</ele>
        <time>2020-05-31T07:37:27Z</time>
      </trkpt>
      <trkpt lat="43.24178" lon="0.08259">
        <ele>303</ele>
        <time>2020-05-31T07:37:30Z</time>
      </trkpt>
      <trkpt lat="43.24159" lon="0.0826">
        <ele>303</ele>
        <time>2020-05-31T07:37:46Z</time>
      </trkpt>
      <trkpt lat="43.2412" lon="0.08274">
        <ele>304</ele>
        <time>2020-05-31T07:38:15Z</time>
      </trkpt>
      <trkpt lat="43.24114" lon="0.08274">
        <ele>304</ele>
        <time>2020-05-31T07:38:19Z</time>
      </trkpt>
      <trkpt lat="43.24111" lon="0.08272">
        <ele>304</ele>
        <time>2020-05-31T07:38:21Z</time>
      </trkpt>
      <trkpt lat="43.24106" lon="0.08271">
        <ele>304</ele>
        <time>2020-05-31T07:38:24Z</time>
      </trkpt>
      <trkpt lat="43.24094" lon="0.08276">
        <ele>304</ele>
        <time>2020-05-31T07:38:34Z</time>
      </trkpt>
      <trkpt lat="43.2409" lon="0.0828">
        <ele>304</ele>
        <time>2020-05-31T07:38:37Z</time>
      </trkpt>
      <trkpt lat="43.24087" lon="0.08282">
        <ele>304</ele>
        <time>2020-05-31T07:38:40Z</time>
      </trkpt>
      <trkpt lat="43.24083" lon="0.08283">
        <ele>304</ele>
        <time>2020-05-31T07:38:43Z</time>
      </trkpt>
      <trkpt lat="43.24076" lon="0.0829">
        <ele>304</ele>
        <time>2020-05-31T07:38:52Z</time>
      </trkpt>
      <trkpt lat="43.2406" lon="0.083">
        <ele>304</ele>
        <time>2020-05-31T07:39:05Z</time>
      </trkpt>
      <trkpt lat="43.24056" lon="0.08303">
        <ele>304</ele>
        <time>2020-05-31T07:39:08Z</time>
      </trkpt>
      <trkpt lat="43.24031" lon="0.08319">
        <ele>304</ele>
        <time>2020-05-31T07:39:28Z</time>
      </trkpt>
      <trkpt lat="43.24027" lon="0.08323">
        <ele>304</ele>
        <time>2020-05-31T07:39:32Z</time>
      </trkpt>
      <trkpt lat="43.24015" lon="0.08331">
        <ele>305</ele>
        <time>2020-05-31T07:39:42Z</time>
      </trkpt>
      <trkpt lat="43.23994" lon="0.08341">
        <ele>305</ele>
        <time>2020-05-31T07:39:58Z</time>
      </trkpt>
      <trkpt lat="43.23986" lon="0.08336">
        <ele>305</ele>
        <time>2020-05-31T07:40:05Z</time>
      </trkpt>
      <trkpt lat="43.23982" lon="0.08335">
        <ele>305</ele>
        <time>2020-05-31T07:40:08Z</time>
      </trkpt>
      <trkpt lat="43.23972" lon="0.08334">
        <ele>304</ele>
        <time>2020-05-31T07:40:15Z</time>
      </trkpt>
      <trkpt lat="43.23968" lon="0.08336">
        <ele>304</ele>
        <time>2020-05-31T07:40:19Z</time>
      </trkpt>
      <trkpt lat="43.23959" lon="0.08338">
        <ele>304</ele>
        <time>2020-05-31T07:40:28Z</time>
      </trkpt>
      <trkpt lat="43.23945" lon="0.08337">
        <ele>304</ele>
        <time>2020-05-31T07:40:38Z</time>
      </trkpt>
      <trkpt lat="43.2394" lon="0.08342">
        <ele>304</ele>
        <time>2020-05-31T07:40:42Z</time>
      </trkpt>
      <trkpt lat="43.23935" lon="0.08348">
        <ele>304</ele>
        <time>2020-05-31T07:40:48Z</time>
      </trkpt>
      <trkpt lat="43.2392" lon="0.08355">
        <ele>304</ele>
        <time>2020-05-31T07:40:59Z</time>
      </trkpt>
      <trkpt lat="43.23917" lon="0.0836">
        <ele>304</ele>
        <time>2020-05-31T07:41:02Z</time>
      </trkpt>
      <trkpt lat="43.23909" lon="0.0836">
        <ele>304</ele>
        <time>2020-05-31T07:41:06Z</time>
      </trkpt>
      <trkpt lat="43.23904" lon="0.08358">
        <ele>305</ele>
        <time>2020-05-31T07:41:10Z</time>
      </trkpt>
      <trkpt lat="43.23896" lon="0.08359">
        <ele>305</ele>
        <time>2020-05-31T07:41:17Z</time>
      </trkpt>
      <trkpt lat="43.23888" lon="0.08365">
        <ele>305</ele>
        <time>2020-05-31T07:42:02Z</time>
      </trkpt>
      <trkpt lat="43.23855" lon="0.08384">
        <ele>305</ele>
        <time>2020-05-31T07:42:26Z</time>
      </trkpt>
      <trkpt lat="43.23849" lon="0.08385">
        <ele>305</ele>
        <time>2020-05-31T07:42:31Z</time>
      </trkpt>
      <trkpt lat="43.23811" lon="0.08409">
        <ele>306</ele>
        <time>2020-05-31T07:43:03Z</time>
      </trkpt>
      <trkpt lat="43.23802" lon="0.08419">
        <ele>306</ele>
        <time>2020-05-31T07:43:10Z</time>
      </trkpt>
      <trkpt lat="43.23791" lon="0.08423">
        <ele>306</ele>
        <time>2020-05-31T07:43:19Z</time>
      </trkpt>
      <trkpt lat="43.23768" lon="0.0844">
        <ele>306</ele>
        <time>2020-05-31T07:43:42Z</time>
      </trkpt>
      <trkpt lat="43.23754" lon="0.08443">
        <ele>307</ele>
        <time>2020-05-31T07:43:52Z</time>
      </trkpt>
      <trkpt lat="43.23747" lon="0.08442">
        <ele>307</ele>
        <time>2020-05-31T07:43:57Z</time>
      </trkpt>
      <trkpt lat="43.23742" lon="0.08444">
        <ele>307</ele>
        <time>2020-05-31T07:44:01Z</time>
      </trkpt>
      <trkpt lat="43.23703" lon="0.08473">
        <ele>307</ele>
        <time>2020-05-31T07:44:33Z</time>
      </trkpt>
      <trkpt lat="43.23689" lon="0.08486">
        <ele>307</ele>
        <time>2020-05-31T07:44:43Z</time>
      </trkpt>
      <trkpt lat="43.23656" lon="0.08525">
        <ele>308</ele>
        <time>2020-05-31T07:45:16Z</time>
      </trkpt>
      <trkpt lat="43.23624" lon="0.08559">
        <ele>308</ele>
        <time>2020-05-31T07:45:47Z</time>
      </trkpt>
      <trkpt lat="43.23614" lon="0.08579">
        <ele>308</ele>
        <time>2020-05-31T07:45:59Z</time>
      </trkpt>
      <trkpt lat="43.23582" lon="0.08617">
        <ele>309</ele>
        <time>2020-05-31T07:46:32Z</time>
      </trkpt>
      <trkpt lat="43.2357" lon="0.08632">
        <ele>309</ele>
        <time>2020-05-31T07:46:48Z</time>
      </trkpt>
      <trkpt lat="43.23564" lon="0.08634">
        <ele>309</ele>
        <time>2020-05-31T07:46:52Z</time>
      </trkpt>
      <trkpt lat="43.23559" lon="0.08639">
        <ele>309</ele>
        <time>2020-05-31T07:46:56Z</time>
      </trkpt>
      <trkpt lat="43.23552" lon="0.08651">
        <ele>309</ele>
        <time>2020-05-31T07:47:04Z</time>
      </trkpt>
      <trkpt lat="43.23544" lon="0.08659">
        <ele>309</ele>
        <time>2020-05-31T07:47:11Z</time>
      </trkpt>
      <trkpt lat="43.23535" lon="0.08673">
        <ele>310</ele>
        <time>2020-05-31T07:47:20Z</time>
      </trkpt>
      <trkpt lat="43.23502" lon="0.08707">
        <ele>310</ele>
        <time>2020-05-31T07:47:55Z</time>
      </trkpt>
      <trkpt lat="43.23492" lon="0.0872">
        <ele>310</ele>
        <time>2020-05-31T07:48:03Z</time>
      </trkpt>
      <trkpt lat="43.23482" lon="0.08729">
        <ele>310</ele>
        <time>2020-05-31T07:48:12Z</time>
      </trkpt>
      <trkpt lat="43.23478" lon="0.08735">
        <ele>310</ele>
        <time>2020-05-31T07:48:17Z</time>
      </trkpt>
      <trkpt lat="43.23471" lon="0.0874">
        <ele>310</ele>
        <time>2020-05-31T07:48:23Z</time>
      </trkpt>
      <trkpt lat="43.23469" lon="0.08744">
        <ele>310</ele>
        <time>2020-05-31T07:48:25Z</time>
      </trkpt>
      <trkpt lat="43.23459" lon="0.08751">
        <ele>310</ele>
        <time>2020-05-31T07:48:33Z</time>
      </trkpt>
      <trkpt lat="43.23448" lon="0.08761">
        <ele>311</ele>
        <time>2020-05-31T07:48:42Z</time>
      </trkpt>
      <trkpt lat="43.23444" lon="0.08762">
        <ele>311</ele>
        <time>2020-05-31T07:48:46Z</time>
      </trkpt>
      <trkpt lat="43.23435" lon="0.08774">
        <ele>311</ele>
        <time>2020-05-31T07:48:58Z</time>
      </trkpt>
      <trkpt lat="43.23428" lon="0.08779">
        <ele>311</ele>
        <time>2020-05-31T07:49:03Z</time>
      </trkpt>
      <trkpt lat="43.23415" lon="0.08787">
        <ele>311</ele>
        <time>2020-05-31T07:49:15Z</time>
      </trkpt>
      <trkpt lat="43.23404" lon="0.08797">
        <ele>311</ele>
        <time>2020-05-31T07:49:25Z</time>
      </trkpt>
      <trkpt lat="43.23384" lon="0.08803">
        <ele>311</ele>
        <time>2020-05-31T07:49:38Z</time>
      </trkpt>
      <trkpt lat="43.23367" lon="0.08814">
        <ele>312</ele>
        <time>2020-05-31T07:49:52Z</time>
      </trkpt>
      <trkpt lat="43.23363" lon="0.08815">
        <ele>312</ele>
        <time>2020-05-31T07:49:55Z</time>
      </trkpt>
      <trkpt lat="43.2336" lon="0.08817">
        <ele>312</ele>
        <time>2020-05-31T07:49:58Z</time>
      </trkpt>
      <trkpt lat="43.23355" lon="0.08817">
        <ele>312</ele>
        <time>2020-05-31T07:50:01Z</time>
      </trkpt>
      <trkpt lat="43.23352" lon="0.08819">
        <ele>312</ele>
        <time>2020-05-31T07:50:05Z</time>
      </trkpt>
      <trkpt lat="43.23344" lon="0.08818">
        <ele>312</ele>
        <time>2020-05-31T07:50:11Z</time>
      </trkpt>
      <trkpt lat="43.23329" lon="0.08824">
        <ele>312</ele>
        <time>2020-05-31T07:50:21Z</time>
      </trkpt>
      <trkpt lat="43.2332" lon="0.0883">
        <ele>312</ele>
        <time>2020-05-31T07:50:28Z</time>
      </trkpt>
      <trkpt lat="43.23308" lon="0.08831">
        <ele>312</ele>
        <time>2020-05-31T07:50:39Z</time>
      </trkpt>
      <trkpt lat="43.23303" lon="0.08833">
        <ele>312</ele>
        <time>2020-05-31T07:50:42Z</time>
      </trkpt>
      <trkpt lat="43.23299" lon="0.08832">
        <ele>312</ele>
        <time>2020-05-31T07:50:46Z</time>
      </trkpt>
      <trkpt lat="43.23295" lon="0.08834">
        <ele>312</ele>
        <time>2020-05-31T07:50:49Z</time>
      </trkpt>
      <trkpt lat="43.23278" lon="0.08844">
        <ele>312</ele>
        <time>2020-05-31T07:51:04Z</time>
      </trkpt>
      <trkpt lat="43.23274" lon="0.08846">
        <ele>312</ele>
        <time>2020-05-31T07:51:08Z</time>
      </trkpt>
      <trkpt lat="43.23265" lon="0.08846">
        <ele>313</ele>
        <time>2020-05-31T07:51:15Z</time>
      </trkpt>
      <trkpt lat="43.23258" lon="0.0885">
        <ele>313</ele>
        <time>2020-05-31T07:51:32Z</time>
      </trkpt>
      <trkpt lat="43.23257" lon="0.08855">
        <ele>313</ele>
        <time>2020-05-31T07:51:34Z</time>
      </trkpt>
      <trkpt lat="43.23254" lon="0.08859">
        <ele>313</ele>
        <time>2020-05-31T07:51:38Z</time>
      </trkpt>
      <trkpt lat="43.23253" lon="0.08869">
        <ele>313</ele>
        <time>2020-05-31T07:51:58Z</time>
      </trkpt>
      <trkpt lat="43.23242" lon="0.08872">
        <ele>313</ele>
        <time>2020-05-31T07:52:02Z</time>
      </trkpt>
      <trkpt lat="43.23239" lon="0.08878">
        <ele>313</ele>
        <time>2020-05-31T07:52:04Z</time>
      </trkpt>
      <trkpt lat="43.23216" lon="0.08873">
        <ele>313</ele>
        <time>2020-05-31T07:52:21Z</time>
      </trkpt>
      <trkpt lat="43.23205" lon="0.08878">
        <ele>313</ele>
        <time>2020-05-31T07:52:29Z</time>
      </trkpt>
      <trkpt lat="43.23196" lon="0.08879">
        <ele>313</ele>
        <time>2020-05-31T07:52:36Z</time>
      </trkpt>
      <trkpt lat="43.23188" lon="0.08883">
        <ele>313</ele>
        <time>2020-05-31T07:52:47Z</time>
      </trkpt>
      <trkpt lat="43.23181" lon="0.08888">
        <ele>313</ele>
        <time>2020-05-31T07:52:53Z</time>
      </trkpt>
      <trkpt lat="43.23169" lon="0.08892">
        <ele>312</ele>
        <time>2020-05-31T07:53:01Z</time>
      </trkpt>
      <trkpt lat="43.23162" lon="0.08896">
        <ele>313</ele>
        <time>2020-05-31T07:53:06Z</time>
      </trkpt>
      <trkpt lat="43.23157" lon="0.08896">
        <ele>313</ele>
        <time>2020-05-31T07:53:08Z</time>
      </trkpt>
      <trkpt lat="43.23153" lon="0.08898">
        <ele>313</ele>
        <time>2020-05-31T07:53:10Z</time>
      </trkpt>
      <trkpt lat="43.23142" lon="0.08897">
        <ele>313</ele>
        <time>2020-05-31T07:53:19Z</time>
      </trkpt>
      <trkpt lat="43.23134" lon="0.08898">
        <ele>313</ele>
        <time>2020-05-31T07:53:27Z</time>
      </trkpt>
      <trkpt lat="43.23125" lon="0.08899">
        <ele>313</ele>
        <time>2020-05-31T07:53:32Z</time>
      </trkpt>
      <trkpt lat="43.23122" lon="0.08896">
        <ele>312</ele>
        <time>2020-05-31T07:53:36Z</time>
      </trkpt>
      <trkpt lat="43.23103" lon="0.08908">
        <ele>312</ele>
        <time>2020-05-31T07:53:50Z</time>
      </trkpt>
      <trkpt lat="43.23095" lon="0.08909">
        <ele>312</ele>
        <time>2020-05-31T07:53:56Z</time>
      </trkpt>
      <trkpt lat="43.23087" lon="0.08911">
        <ele>312</ele>
        <time>2020-05-31T07:54:03Z</time>
      </trkpt>
      <trkpt lat="43.23083" lon="0.08912">
        <ele>312</ele>
        <time>2020-05-31T07:54:05Z</time>
      </trkpt>
      <trkpt lat="43.23079" lon="0.08916">
        <ele>312</ele>
        <time>2020-05-31T07:54:08Z</time>
      </trkpt>
      <trkpt lat="43.23074" lon="0.08915">
        <ele>313</ele>
        <time>2020-05-31T07:54:14Z</time>
      </trkpt>
      <trkpt lat="43.23071" lon="0.08917">
        <ele>313</ele>
        <time>2020-05-31T07:54:16Z</time>
      </trkpt>
      <trkpt lat="43.23067" lon="0.08918">
        <ele>313</ele>
        <time>2020-05-31T07:54:18Z</time>
      </trkpt>
      <trkpt lat="43.23051" lon="0.08917">
        <ele>312</ele>
        <time>2020-05-31T07:54:30Z</time>
      </trkpt>
      <trkpt lat="43.23047" lon="0.08921">
        <ele>312</ele>
        <time>2020-05-31T07:54:33Z</time>
      </trkpt>
      <trkpt lat="43.23043" lon="0.08922">
        <ele>312</ele>
        <time>2020-05-31T07:54:36Z</time>
      </trkpt>
      <trkpt lat="43.23039" lon="0.08922">
        <ele>312</ele>
        <time>2020-05-31T07:54:38Z</time>
      </trkpt>
      <trkpt lat="43.23031" lon="0.08927">
        <ele>312</ele>
        <time>2020-05-31T07:54:44Z</time>
      </trkpt>
      <trkpt lat="43.23022" lon="0.08933">
        <ele>312</ele>
        <time>2020-05-31T07:54:55Z</time>
      </trkpt>
      <trkpt lat="43.23015" lon="0.08942">
        <ele>313</ele>
        <time>2020-05-31T07:55:02Z</time>
      </trkpt>
      <trkpt lat="43.23009" lon="0.08942">
        <ele>313</ele>
        <time>2020-05-31T07:55:04Z</time>
      </trkpt>
      <trkpt lat="43.23006" lon="0.08945">
        <ele>313</ele>
        <time>2020-05-31T07:55:08Z</time>
      </trkpt>
      <trkpt lat="43.23001" lon="0.0895">
        <ele>313</ele>
        <time>2020-05-31T07:55:13Z</time>
      </trkpt>
      <trkpt lat="43.22998" lon="0.08957">
        <ele>313</ele>
        <time>2020-05-31T07:55:18Z</time>
      </trkpt>
      <trkpt lat="43.22964" lon="0.08987">
        <ele>313</ele>
        <time>2020-05-31T07:55:44Z</time>
      </trkpt>
      <trkpt lat="43.2296" lon="0.08989">
        <ele>313</ele>
        <time>2020-05-31T07:55:48Z</time>
      </trkpt>
      <trkpt lat="43.22956" lon="0.08994">
        <ele>313</ele>
        <time>2020-05-31T07:55:54Z</time>
      </trkpt>
      <trkpt lat="43.22945" lon="0.09005">
        <ele>313</ele>
        <time>2020-05-31T07:56:03Z</time>
      </trkpt>
      <trkpt lat="43.22935" lon="0.09016">
        <ele>314</ele>
        <time>2020-05-31T07:56:14Z</time>
      </trkpt>
      <trkpt lat="43.22931" lon="0.09018">
        <ele>314</ele>
        <time>2020-05-31T07:56:17Z</time>
      </trkpt>
      <trkpt lat="43.22927" lon="0.09019">
        <ele>314</ele>
        <time>2020-05-31T07:56:19Z</time>
      </trkpt>
      <trkpt lat="43.22924" lon="0.09021">
        <ele>314</ele>
        <time>2020-05-31T07:56:21Z</time>
      </trkpt>
      <trkpt lat="43.22915" lon="0.09024">
        <ele>314</ele>
        <time>2020-05-31T07:56:27Z</time>
      </trkpt>
      <trkpt lat="43.22911" lon="0.09028">
        <ele>314</ele>
        <time>2020-05-31T07:56:30Z</time>
      </trkpt>
      <trkpt lat="43.22906" lon="0.09028">
        <ele>314</ele>
        <time>2020-05-31T07:56:36Z</time>
      </trkpt>
      <trkpt lat="43.22901" lon="0.0903">
        <ele>314</ele>
        <time>2020-05-31T07:56:41Z</time>
      </trkpt>
      <trkpt lat="43.22894" lon="0.0903">
        <ele>314</ele>
        <time>2020-05-31T07:56:45Z</time>
      </trkpt>
      <trkpt lat="43.22863" lon="0.09038">
        <ele>315</ele>
        <time>2020-05-31T07:57:09Z</time>
      </trkpt>
      <trkpt lat="43.22851" lon="0.09039">
        <ele>315</ele>
        <time>2020-05-31T07:57:18Z</time>
      </trkpt>
      <trkpt lat="43.22839" lon="0.09048">
        <ele>315</ele>
        <time>2020-05-31T07:57:30Z</time>
      </trkpt>
      <trkpt lat="43.22835" lon="0.09049">
        <ele>316</ele>
        <time>2020-05-31T07:57:34Z</time>
      </trkpt>
      <trkpt lat="43.22829" lon="0.09053">
        <ele>316</ele>
        <time>2020-05-31T07:57:54Z</time>
      </trkpt>
      <trkpt lat="43.22811" lon="0.09055">
        <ele>315</ele>
        <time>2020-05-31T07:58:09Z</time>
      </trkpt>
      <trkpt lat="43.22807" lon="0.09057">
        <ele>315</ele>
        <time>2020-05-31T07:58:13Z</time>
      </trkpt>
      <trkpt lat="43.22803" lon="0.09056">
        <ele>315</ele>
        <time>2020-05-31T07:58:16Z</time>
      </trkpt>
      <trkpt lat="43.22792" lon="0.09067">
        <ele>316</ele>
        <time>2020-05-31T07:58:25Z</time>
      </trkpt>
      <trkpt lat="43.22784" lon="0.09068">
        <ele>316</ele>
        <time>2020-05-31T07:58:32Z</time>
      </trkpt>
      <trkpt lat="43.2278" lon="0.09072">
        <ele>316</ele>
        <time>2020-05-31T07:58:35Z</time>
      </trkpt>
      <trkpt lat="43.22772" lon="0.09074">
        <ele>316</ele>
        <time>2020-05-31T07:58:42Z</time>
      </trkpt>
      <trkpt lat="43.22768" lon="0.09076">
        <ele>316</ele>
        <time>2020-05-31T07:58:45Z</time>
      </trkpt>
      <trkpt lat="43.22739" lon="0.09082">
        <ele>316</ele>
        <time>2020-05-31T07:59:09Z</time>
      </trkpt>
      <trkpt lat="43.22736" lon="0.09084">
        <ele>316</ele>
        <time>2020-05-31T07:59:12Z</time>
      </trkpt>
      <trkpt lat="43.22726" lon="0.09091">
        <ele>317</ele>
        <time>2020-05-31T07:59:21Z</time>
      </trkpt>
      <trkpt lat="43.2272" lon="0.09094">
        <ele>317</ele>
        <time>2020-05-31T07:59:26Z</time>
      </trkpt>
      <trkpt lat="43.22716" lon="0.09097">
        <ele>317</ele>
        <time>2020-05-31T07:59:29Z</time>
      </trkpt>
      <trkpt lat="43.22709" lon="0.091">
        <ele>317</ele>
        <time>2020-05-31T07:59:35Z</time>
      </trkpt>
      <trkpt lat="43.227" lon="0.09112">
        <ele>318</ele>
        <time>2020-05-31T07:59:45Z</time>
      </trkpt>
      <trkpt lat="43.22688" lon="0.09117">
        <ele>318</ele>
        <time>2020-05-31T07:59:56Z</time>
      </trkpt>
      <trkpt lat="43.22684" lon="0.09121">
        <ele>318</ele>
        <time>2020-05-31T07:59:59Z</time>
      </trkpt>
      <trkpt lat="43.22671" lon="0.09123">
        <ele>319</ele>
        <time>2020-05-31T08:00:08Z</time>
      </trkpt>
      <trkpt lat="43.22662" lon="0.09129">
        <ele>319</ele>
        <time>2020-05-31T08:00:16Z</time>
      </trkpt>
      <trkpt lat="43.22658" lon="0.0913">
        <ele>319</ele>
        <time>2020-05-31T08:00:19Z</time>
      </trkpt>
      <trkpt lat="43.22634" lon="0.09142">
        <ele>319</ele>
        <time>2020-05-31T08:00:38Z</time>
      </trkpt>
      <trkpt lat="43.22631" lon="0.09145">
        <ele>319</ele>
        <time>2020-05-31T08:00:41Z</time>
      </trkpt>
      <trkpt lat="43.22627" lon="0.09146">
        <ele>319</ele>
        <time>2020-05-31T08:00:44Z</time>
      </trkpt>
      <trkpt lat="43.22618" lon="0.09153">
        <ele>319</ele>
        <time>2020-05-31T08:00:51Z</time>
      </trkpt>
      <trkpt lat="43.22615" lon="0.09154">
        <ele>319</ele>
        <time>2020-05-31T08:00:54Z</time>
      </trkpt>
      <trkpt lat="43.22611" lon="0.09154">
        <ele>319</ele>
        <time>2020-05-31T08:00:57Z</time>
      </trkpt>
      <trkpt lat="43.22603" lon="0.09156">
        <ele>319</ele>
        <time>2020-05-31T08:01:03Z</time>
      </trkpt>
      <trkpt lat="43.22594" lon="0.09155">
        <ele>319</ele>
        <time>2020-05-31T08:01:10Z</time>
      </trkpt>
      <trkpt lat="43.22589" lon="0.09156">
        <ele>319</ele>
        <time>2020-05-31T08:01:14Z</time>
      </trkpt>
      <trkpt lat="43.22562" lon="0.09171">
        <ele>319</ele>
        <time>2020-05-31T08:01:36Z</time>
      </trkpt>
      <trkpt lat="43.22557" lon="0.09172">
        <ele>319</ele>
        <time>2020-05-31T08:01:39Z</time>
      </trkpt>
      <trkpt lat="43.22554" lon="0.09175">
        <ele>319</ele>
        <time>2020-05-31T08:01:42Z</time>
      </trkpt>
      <trkpt lat="43.2255" lon="0.09177">
        <ele>319</ele>
        <time>2020-05-31T08:01:44Z</time>
      </trkpt>
      <trkpt lat="43.22545" lon="0.09176">
        <ele>319</ele>
        <time>2020-05-31T08:01:48Z</time>
      </trkpt>
      <trkpt lat="43.22506" lon="0.09189">
        <ele>319</ele>
        <time>2020-05-31T08:02:20Z</time>
      </trkpt>
      <trkpt lat="43.22462" lon="0.092">
        <ele>318</ele>
        <time>2020-05-31T08:02:53Z</time>
      </trkpt>
      <trkpt lat="43.22454" lon="0.09201">
        <ele>318</ele>
        <time>2020-05-31T08:03:00Z</time>
      </trkpt>
      <trkpt lat="43.22428" lon="0.09214">
        <ele>318</ele>
        <time>2020-05-31T08:03:22Z</time>
      </trkpt>
      <trkpt lat="43.22423" lon="0.09213">
        <ele>318</ele>
        <time>2020-05-31T08:03:25Z</time>
      </trkpt>
      <trkpt lat="43.22417" lon="0.09218">
        <ele>318</ele>
        <time>2020-05-31T08:03:32Z</time>
      </trkpt>
      <trkpt lat="43.22415" lon="0.09226">
        <ele>319</ele>
        <time>2020-05-31T08:03:38Z</time>
      </trkpt>
      <trkpt lat="43.22411" lon="0.09234">
        <ele>319</ele>
        <time>2020-05-31T08:03:43Z</time>
      </trkpt>
      <trkpt lat="43.22408" lon="0.09237">
        <ele>319</ele>
        <time>2020-05-31T08:03:46Z</time>
      </trkpt>
      <trkpt lat="43.224" lon="0.09241">
        <ele>319</ele>
        <time>2020-05-31T08:03:51Z</time>
      </trkpt>
      <trkpt lat="43.22385" lon="0.09245">
        <ele>320</ele>
        <time>2020-05-31T08:04:00Z</time>
      </trkpt>
      <trkpt lat="43.22381" lon="0.09244">
        <ele>320</ele>
        <time>2020-05-31T08:04:02Z</time>
      </trkpt>
      <trkpt lat="43.22373" lon="0.09249">
        <ele>320</ele>
        <time>2020-05-31T08:04:09Z</time>
      </trkpt>
      <trkpt lat="43.2237" lon="0.09252">
        <ele>320</ele>
        <time>2020-05-31T08:04:13Z</time>
      </trkpt>
      <trkpt lat="43.22368" lon="0.09257">
        <ele>320</ele>
        <time>2020-05-31T08:04:18Z</time>
      </trkpt>
      <trkpt lat="43.22363" lon="0.09264">
        <ele>321</ele>
        <time>2020-05-31T08:04:24Z</time>
      </trkpt>
      <trkpt lat="43.22359" lon="0.09265">
        <ele>321</ele>
        <time>2020-05-31T08:04:27Z</time>
      </trkpt>
      <trkpt lat="43.22355" lon="0.09264">
        <ele>321</ele>
        <time>2020-05-31T08:04:30Z</time>
      </trkpt>
      <trkpt lat="43.22351" lon="0.09264">
        <ele>321</ele>
        <time>2020-05-31T08:04:34Z</time>
      </trkpt>
      <trkpt lat="43.22345" lon="0.09258">
        <ele>319</ele>
        <time>2020-05-31T08:04:47Z</time>
      </trkpt>
      <trkpt lat="43.22346" lon="0.09251">
        <ele>318</ele>
        <time>2020-05-31T08:04:51Z</time>
      </trkpt>
      <trkpt lat="43.22339" lon="0.09251">
        <ele>318</ele>
        <time>2020-05-31T08:05:01Z</time>
      </trkpt>
      <trkpt lat="43.22338" lon="0.09264">
        <ele>320</ele>
        <time>2020-05-31T08:05:15Z</time>
      </trkpt>
      <trkpt lat="43.22334" lon="0.09265">
        <ele>320</ele>
        <time>2020-05-31T08:05:18Z</time>
      </trkpt>
      <trkpt lat="43.22326" lon="0.09264">
        <ele>320</ele>
        <time>2020-05-31T08:05:24Z</time>
      </trkpt>
      <trkpt lat="43.22311" lon="0.09271">
        <ele>319</ele>
        <time>2020-05-31T08:05:34Z</time>
      </trkpt>
      <trkpt lat="43.22303" lon="0.0927">
        <ele>319</ele>
        <time>2020-05-31T08:05:39Z</time>
      </trkpt>
      <trkpt lat="43.22279" lon="0.09282">
        <ele>319</ele>
        <time>2020-05-31T08:06:00Z</time>
      </trkpt>
      <trkpt lat="43.22275" lon="0.09283">
        <ele>319</ele>
        <time>2020-05-31T08:06:03Z</time>
      </trkpt>
      <trkpt lat="43.22268" lon="0.09287">
        <ele>319</ele>
        <time>2020-05-31T08:06:09Z</time>
      </trkpt>
      <trkpt lat="43.22251" lon="0.09294">
        <ele>319</ele>
        <time>2020-05-31T08:06:23Z</time>
      </trkpt>
      <trkpt lat="43.22239" lon="0.09302">
        <ele>320</ele>
        <time>2020-05-31T08:06:30Z</time>
      </trkpt>
      <trkpt lat="43.22235" lon="0.09307">
        <ele>320</ele>
        <time>2020-05-31T08:06:37Z</time>
      </trkpt>
      <trkpt lat="43.22229" lon="0.09322">
        <ele>321</ele>
        <time>2020-05-31T08:06:46Z</time>
      </trkpt>
      <trkpt lat="43.22222" lon="0.0933">
        <ele>321</ele>
        <time>2020-05-31T08:06:53Z</time>
      </trkpt>
      <trkpt lat="43.22218" lon="0.09332">
        <ele>322</ele>
        <time>2020-05-31T08:06:56Z</time>
      </trkpt>
      <trkpt lat="43.22214" lon="0.09334">
        <ele>322</ele>
        <time>2020-05-31T08:06:59Z</time>
      </trkpt>
      <trkpt lat="43.22205" lon="0.09333">
        <ele>322</ele>
        <time>2020-05-31T08:07:06Z</time>
      </trkpt>
      <trkpt lat="43.22201" lon="0.09333">
        <ele>322</ele>
        <time>2020-05-31T08:07:09Z</time>
      </trkpt>
      <trkpt lat="43.22189" lon="0.09339">
        <ele>322</ele>
        <time>2020-05-31T08:07:19Z</time>
      </trkpt>
      <trkpt lat="43.22182" lon="0.09341">
        <ele>322</ele>
        <time>2020-05-31T08:07:25Z</time>
      </trkpt>
      <trkpt lat="43.22178" lon="0.0934">
        <ele>322</ele>
        <time>2020-05-31T08:07:29Z</time>
      </trkpt>
      <trkpt lat="43.22165" lon="0.09344">
        <ele>321</ele>
        <time>2020-05-31T08:07:38Z</time>
      </trkpt>
      <trkpt lat="43.22161" lon="0.09344">
        <ele>321</ele>
        <time>2020-05-31T08:07:41Z</time>
      </trkpt>
      <trkpt lat="43.22146" lon="0.09348">
        <ele>320</ele>
        <time>2020-05-31T08:07:53Z</time>
      </trkpt>
      <trkpt lat="43.22127" lon="0.09362">
        <ele>320</ele>
        <time>2020-05-31T08:08:11Z</time>
      </trkpt>
      <trkpt lat="43.22122" lon="0.09362">
        <ele>320</ele>
        <time>2020-05-31T08:08:16Z</time>
      </trkpt>
      <trkpt lat="43.22118" lon="0.09365">
        <ele>321</ele>
        <time>2020-05-31T08:08:20Z</time>
      </trkpt>
      <trkpt lat="43.22112" lon="0.09367">
        <ele>321</ele>
        <time>2020-05-31T08:08:24Z</time>
      </trkpt>
      <trkpt lat="43.22109" lon="0.09368">
        <ele>321</ele>
        <time>2020-05-31T08:08:27Z</time>
      </trkpt>
      <trkpt lat="43.22098" lon="0.09371">
        <ele>321</ele>
        <time>2020-05-31T08:08:34Z</time>
      </trkpt>
      <trkpt lat="43.22086" lon="0.09369">
        <ele>321</ele>
        <time>2020-05-31T08:08:44Z</time>
      </trkpt>
      <trkpt lat="43.22082" lon="0.0937">
        <ele>321</ele>
        <time>2020-05-31T08:08:47Z</time>
      </trkpt>
      <trkpt lat="43.22078" lon="0.09374">
        <ele>321</ele>
        <time>2020-05-31T08:08:51Z</time>
      </trkpt>
      <trkpt lat="43.2206" lon="0.09379">
        <ele>320</ele>
        <time>2020-05-31T08:09:03Z</time>
      </trkpt>
      <trkpt lat="43.22054" lon="0.09385">
        <ele>320</ele>
        <time>2020-05-31T08:09:11Z</time>
      </trkpt>
      <trkpt lat="43.22048" lon="0.09389">
        <ele>320</ele>
        <time>2020-05-31T08:09:16Z</time>
      </trkpt>
      <trkpt lat="43.2204" lon="0.09393">
        <ele>320</ele>
        <time>2020-05-31T08:09:22Z</time>
      </trkpt>
      <trkpt lat="43.22018" lon="0.09408">
        <ele>320</ele>
        <time>2020-05-31T08:09:42Z</time>
      </trkpt>
      <trkpt lat="43.21977" lon="0.09423">
        <ele>321</ele>
        <time>2020-05-31T08:10:14Z</time>
      </trkpt>
      <trkpt lat="43.21964" lon="0.09427">
        <ele>321</ele>
        <time>2020-05-31T08:10:24Z</time>
      </trkpt>
      <trkpt lat="43.21946" lon="0.0943">
        <ele>322</ele>
        <time>2020-05-31T08:10:39Z</time>
      </trkpt>
      <trkpt lat="43.21934" lon="0.09433">
        <ele>323</ele>
        <time>2020-05-31T08:10:47Z</time>
      </trkpt>
      <trkpt lat="43.21923" lon="0.0943">
        <ele>323</ele>
        <time>2020-05-31T08:10:54Z</time>
      </trkpt>
      <trkpt lat="43.21919" lon="0.09431">
        <ele>323</ele>
        <time>2020-05-31T08:10:57Z</time>
      </trkpt>
      <trkpt lat="43.21915" lon="0.09431">
        <ele>324</ele>
        <time>2020-05-31T08:11:00Z</time>
      </trkpt>
      <trkpt lat="43.21911" lon="0.09428">
        <ele>324</ele>
        <time>2020-05-31T08:11:03Z</time>
      </trkpt>
      <trkpt lat="43.21899" lon="0.09426">
        <ele>324</ele>
        <time>2020-05-31T08:11:13Z</time>
      </trkpt>
      <trkpt lat="43.21896" lon="0.09427">
        <ele>325</ele>
        <time>2020-05-31T08:11:16Z</time>
      </trkpt>
      <trkpt lat="43.21858" lon="0.09417">
        <ele>326</ele>
        <time>2020-05-31T08:11:46Z</time>
      </trkpt>
      <trkpt lat="43.21833" lon="0.09421">
        <ele>326</ele>
        <time>2020-05-31T08:12:07Z</time>
      </trkpt>
      <trkpt lat="43.2183" lon="0.09421">
        <ele>326</ele>
        <time>2020-05-31T08:12:10Z</time>
      </trkpt>
      <trkpt lat="43.21825" lon="0.09419">
        <ele>326</ele>
        <time>2020-05-31T08:12:13Z</time>
      </trkpt>
      <trkpt lat="43.21818" lon="0.09418">
        <ele>327</ele>
        <time>2020-05-31T08:12:19Z</time>
      </trkpt>
      <trkpt lat="43.21814" lon="0.09416">
        <ele>327</ele>
        <time>2020-05-31T08:12:22Z</time>
      </trkpt>
      <trkpt lat="43.21794" lon="0.09416">
        <ele>327</ele>
        <time>2020-05-31T08:12:36Z</time>
      </trkpt>
      <trkpt lat="43.2177" lon="0.09424">
        <ele>326</ele>
        <time>2020-05-31T08:12:57Z</time>
      </trkpt>
      <trkpt lat="43.21761" lon="0.09423">
        <ele>326</ele>
        <time>2020-05-31T08:13:04Z</time>
      </trkpt>
      <trkpt lat="43.21749" lon="0.09419">
        <ele>325</ele>
        <time>2020-05-31T08:13:14Z</time>
      </trkpt>
      <trkpt lat="43.21745" lon="0.0942">
        <ele>325</ele>
        <time>2020-05-31T08:13:17Z</time>
      </trkpt>
      <trkpt lat="43.2174" lon="0.09417">
        <ele>325</ele>
        <time>2020-05-31T08:13:20Z</time>
      </trkpt>
      <trkpt lat="43.21736" lon="0.09418">
        <ele>325</ele>
        <time>2020-05-31T08:13:23Z</time>
      </trkpt>
      <trkpt lat="43.21695" lon="0.09406">
        <ele>325</ele>
        <time>2020-05-31T08:13:55Z</time>
      </trkpt>
      <trkpt lat="43.21677" lon="0.09401">
        <ele>324</ele>
        <time>2020-05-31T08:14:09Z</time>
      </trkpt>
      <trkpt lat="43.21669" lon="0.09396">
        <ele>325</ele>
        <time>2020-05-31T08:14:15Z</time>
      </trkpt>
      <trkpt lat="43.21662" lon="0.09393">
        <ele>325</ele>
        <time>2020-05-31T08:14:21Z</time>
      </trkpt>
      <trkpt lat="43.21655" lon="0.09386">
        <ele>325</ele>
        <time>2020-05-31T08:14:27Z</time>
      </trkpt>
      <trkpt lat="43.21651" lon="0.09386">
        <ele>325</ele>
        <time>2020-05-31T08:14:30Z</time>
      </trkpt>
      <trkpt lat="43.21648" lon="0.09384">
        <ele>325</ele>
        <time>2020-05-31T08:14:33Z</time>
      </trkpt>
      <trkpt lat="43.21646" lon="0.0938">
        <ele>325</ele>
        <time>2020-05-31T08:14:36Z</time>
      </trkpt>
      <trkpt lat="43.21624" lon="0.09362">
        <ele>326</ele>
        <time>2020-05-31T08:14:55Z</time>
      </trkpt>
      <trkpt lat="43.2162" lon="0.0936">
        <ele>326</ele>
        <time>2020-05-31T08:14:59Z</time>
      </trkpt>
      <trkpt lat="43.21606" lon="0.09357">
        <ele>326</ele>
        <time>2020-05-31T08:15:12Z</time>
      </trkpt>
      <trkpt lat="43.21602" lon="0.09352">
        <ele>326</ele>
        <time>2020-05-31T08:15:16Z</time>
      </trkpt>
      <trkpt lat="43.21582" lon="0.0934">
        <ele>326</ele>
        <time>2020-05-31T08:15:30Z</time>
      </trkpt>
      <trkpt lat="43.21572" lon="0.0933">
        <ele>326</ele>
        <time>2020-05-31T08:15:41Z</time>
      </trkpt>
      <trkpt lat="43.21568" lon="0.09327">
        <ele>326</ele>
        <time>2020-05-31T08:15:45Z</time>
      </trkpt>
      <trkpt lat="43.21561" lon="0.0932">
        <ele>326</ele>
        <time>2020-05-31T08:15:51Z</time>
      </trkpt>
      <trkpt lat="43.21557" lon="0.09318">
        <ele>326</ele>
        <time>2020-05-31T08:15:53Z</time>
      </trkpt>
      <trkpt lat="43.21555" lon="0.09313">
        <ele>326</ele>
        <time>2020-05-31T08:15:56Z</time>
      </trkpt>
      <trkpt lat="43.21547" lon="0.09309">
        <ele>326</ele>
        <time>2020-05-31T08:16:02Z</time>
      </trkpt>
      <trkpt lat="43.21544" lon="0.09306">
        <ele>326</ele>
        <time>2020-05-31T08:16:05Z</time>
      </trkpt>
      <trkpt lat="43.21541" lon="0.09301">
        <ele>326</ele>
        <time>2020-05-31T08:16:08Z</time>
      </trkpt>
      <trkpt lat="43.21538" lon="0.09298">
        <ele>326</ele>
        <time>2020-05-31T08:16:11Z</time>
      </trkpt>
      <trkpt lat="43.2153" lon="0.09284">
        <ele>326</ele>
        <time>2020-05-31T08:16:21Z</time>
      </trkpt>
      <trkpt lat="43.21518" lon="0.09277">
        <ele>326</ele>
        <time>2020-05-31T08:16:40Z</time>
      </trkpt>
      <trkpt lat="43.21507" lon="0.09266">
        <ele>326</ele>
        <time>2020-05-31T08:16:48Z</time>
      </trkpt>
      <trkpt lat="43.21494" lon="0.09262">
        <ele>327</ele>
        <time>2020-05-31T08:16:55Z</time>
      </trkpt>
      <trkpt lat="43.21486" lon="0.09257">
        <ele>327</ele>
        <time>2020-05-31T08:17:01Z</time>
      </trkpt>
      <trkpt lat="43.21483" lon="0.09257">
        <ele>327</ele>
        <time>2020-05-31T08:17:05Z</time>
      </trkpt>
      <trkpt lat="43.21475" lon="0.09257">
        <ele>329</ele>
        <time>2020-05-31T08:17:17Z</time>
      </trkpt>
      <trkpt lat="43.2147" lon="0.09256">
        <ele>329</ele>
        <time>2020-05-31T08:17:22Z</time>
      </trkpt>
      <trkpt lat="43.21466" lon="0.09251">
        <ele>329</ele>
        <time>2020-05-31T08:17:25Z</time>
      </trkpt>
      <trkpt lat="43.21455" lon="0.09232">
        <ele>329</ele>
        <time>2020-05-31T08:17:37Z</time>
      </trkpt>
      <trkpt lat="43.2145" lon="0.0923">
        <ele>329</ele>
        <time>2020-05-31T08:17:40Z</time>
      </trkpt>
      <trkpt lat="43.21447" lon="0.09227">
        <ele>329</ele>
        <time>2020-05-31T08:17:43Z</time>
      </trkpt>
      <trkpt lat="43.21442" lon="0.09223">
        <ele>329</ele>
        <time>2020-05-31T08:17:46Z</time>
      </trkpt>
      <trkpt lat="43.21438" lon="0.09222">
        <ele>329</ele>
        <time>2020-05-31T08:17:49Z</time>
      </trkpt>
      <trkpt lat="43.21419" lon="0.09204">
        <ele>329</ele>
        <time>2020-05-31T08:18:12Z</time>
      </trkpt>
      <trkpt lat="43.21415" lon="0.09202">
        <ele>329</ele>
        <time>2020-05-31T08:18:16Z</time>
      </trkpt>
      <trkpt lat="43.21411" lon="0.09202">
        <ele>329</ele>
        <time>2020-05-31T08:18:19Z</time>
      </trkpt>
      <trkpt lat="43.21407" lon="0.092">
        <ele>329</ele>
        <time>2020-05-31T08:18:22Z</time>
      </trkpt>
      <trkpt lat="43.21394" lon="0.092">
        <ele>329</ele>
        <time>2020-05-31T08:18:33Z</time>
      </trkpt>
      <trkpt lat="43.2139" lon="0.09199">
        <ele>330</ele>
        <time>2020-05-31T08:18:36Z</time>
      </trkpt>
      <trkpt lat="43.21382" lon="0.09201">
        <ele>330</ele>
        <time>2020-05-31T08:18:43Z</time>
      </trkpt>
      <trkpt lat="43.21377" lon="0.09198">
        <ele>330</ele>
        <time>2020-05-31T08:18:49Z</time>
      </trkpt>
      <trkpt lat="43.21374" lon="0.09195">
        <ele>330</ele>
        <time>2020-05-31T08:18:52Z</time>
      </trkpt>
      <trkpt lat="43.21366" lon="0.09194">
        <ele>330</ele>
        <time>2020-05-31T08:18:58Z</time>
      </trkpt>
      <trkpt lat="43.21358" lon="0.0919">
        <ele>330</ele>
        <time>2020-05-31T08:19:03Z</time>
      </trkpt>
      <trkpt lat="43.21341" lon="0.09185">
        <ele>329</ele>
        <time>2020-05-31T08:19:16Z</time>
      </trkpt>
      <trkpt lat="43.21338" lon="0.09182">
        <ele>329</ele>
        <time>2020-05-31T08:19:19Z</time>
      </trkpt>
      <trkpt lat="43.21334" lon="0.09181">
        <ele>329</ele>
        <time>2020-05-31T08:19:22Z</time>
      </trkpt>
      <trkpt lat="43.21308" lon="0.09183">
        <ele>329</ele>
        <time>2020-05-31T08:19:43Z</time>
      </trkpt>
      <trkpt lat="43.21305" lon="0.09185">
        <ele>329</ele>
        <time>2020-05-31T08:19:46Z</time>
      </trkpt>
      <trkpt lat="43.2128" lon="0.09188">
        <ele>329</ele>
        <time>2020-05-31T08:20:05Z</time>
      </trkpt>
      <trkpt lat="43.21276" lon="0.09189">
        <ele>329</ele>
        <time>2020-05-31T08:20:08Z</time>
      </trkpt>
      <trkpt lat="43.21268" lon="0.09185">
        <ele>329</ele>
        <time>2020-05-31T08:20:15Z</time>
      </trkpt>
      <trkpt lat="43.21264" lon="0.09188">
        <ele>329</ele>
        <time>2020-05-31T08:20:18Z</time>
      </trkpt>
      <trkpt lat="43.21256" lon="0.09186">
        <ele>329</ele>
        <time>2020-05-31T08:20:24Z</time>
      </trkpt>
      <trkpt lat="43.21243" lon="0.09189">
        <ele>329</ele>
        <time>2020-05-31T08:20:34Z</time>
      </trkpt>
      <trkpt lat="43.21235" lon="0.09194">
        <ele>329</ele>
        <time>2020-05-31T08:20:40Z</time>
      </trkpt>
      <trkpt lat="43.2123" lon="0.09193">
        <ele>329</ele>
        <time>2020-05-31T08:20:44Z</time>
      </trkpt>
      <trkpt lat="43.21222" lon="0.09197">
        <ele>329</ele>
        <time>2020-05-31T08:20:50Z</time>
      </trkpt>
      <trkpt lat="43.21217" lon="0.09196">
        <ele>329</ele>
        <time>2020-05-31T08:20:56Z</time>
      </trkpt>
      <trkpt lat="43.21212" lon="0.09196">
        <ele>329</ele>
        <time>2020-05-31T08:21:01Z</time>
      </trkpt>
      <trkpt lat="43.21204" lon="0.09201">
        <ele>329</ele>
        <time>2020-05-31T08:21:07Z</time>
      </trkpt>
      <trkpt lat="43.21202" lon="0.09207">
        <ele>329</ele>
        <time>2020-05-31T08:21:12Z</time>
      </trkpt>
      <trkpt lat="43.21199" lon="0.09211">
        <ele>329</ele>
        <time>2020-05-31T08:21:16Z</time>
      </trkpt>
      <trkpt lat="43.21196" lon="0.09214">
        <ele>329</ele>
        <time>2020-05-31T08:21:19Z</time>
      </trkpt>
      <trkpt lat="43.21191" lon="0.09216">
        <ele>329</ele>
        <time>2020-05-31T08:21:22Z</time>
      </trkpt>
      <trkpt lat="43.21188" lon="0.09222">
        <ele>329</ele>
        <time>2020-05-31T08:21:25Z</time>
      </trkpt>
      <trkpt lat="43.21185" lon="0.09236">
        <ele>329</ele>
        <time>2020-05-31T08:21:34Z</time>
      </trkpt>
      <trkpt lat="43.21185" lon="0.09242">
        <ele>329</ele>
        <time>2020-05-31T08:21:38Z</time>
      </trkpt>
      <trkpt lat="43.21182" lon="0.09265">
        <ele>329</ele>
        <time>2020-05-31T08:21:50Z</time>
      </trkpt>
      <trkpt lat="43.21176" lon="0.09274">
        <ele>330</ele>
        <time>2020-05-31T08:21:57Z</time>
      </trkpt>
      <trkpt lat="43.21173" lon="0.09297">
        <ele>330</ele>
        <time>2020-05-31T08:22:10Z</time>
      </trkpt>
      <trkpt lat="43.2117" lon="0.09307">
        <ele>330</ele>
        <time>2020-05-31T08:22:17Z</time>
      </trkpt>
      <trkpt lat="43.21171" lon="0.09318">
        <ele>330</ele>
        <time>2020-05-31T08:22:23Z</time>
      </trkpt>
      <trkpt lat="43.2119" lon="0.09343">
        <ele>330</ele>
        <time>2020-05-31T08:22:44Z</time>
      </trkpt>
      <trkpt lat="43.21211" lon="0.09352">
        <ele>330</ele>
        <time>2020-05-31T08:23:01Z</time>
      </trkpt>
      <trkpt lat="43.21219" lon="0.09353">
        <ele>330</ele>
        <time>2020-05-31T08:23:08Z</time>
      </trkpt>
      <trkpt lat="43.21235" lon="0.09362">
        <ele>330</ele>
        <time>2020-05-31T08:23:19Z</time>
      </trkpt>
      <trkpt lat="43.21265" lon="0.09364">
        <ele>329</ele>
        <time>2020-05-31T08:23:41Z</time>
      </trkpt>
      <trkpt lat="43.21295" lon="0.09355">
        <ele>329</ele>
        <time>2020-05-31T08:24:07Z</time>
      </trkpt>
      <trkpt lat="43.21308" lon="0.09356">
        <ele>329</ele>
        <time>2020-05-31T08:24:17Z</time>
      </trkpt>
      <trkpt lat="43.21316" lon="0.09362">
        <ele>329</ele>
        <time>2020-05-31T08:24:23Z</time>
      </trkpt>
      <trkpt lat="43.2132" lon="0.09362">
        <ele>329</ele>
        <time>2020-05-31T08:24:26Z</time>
      </trkpt>
      <trkpt lat="43.21333" lon="0.09366">
        <ele>329</ele>
        <time>2020-05-31T08:24:35Z</time>
      </trkpt>
      <trkpt lat="43.21337" lon="0.09367">
        <ele>329</ele>
        <time>2020-05-31T08:24:38Z</time>
      </trkpt>
      <trkpt lat="43.21346" lon="0.09367">
        <ele>329</ele>
        <time>2020-05-31T08:24:45Z</time>
      </trkpt>
      <trkpt lat="43.21351" lon="0.09366">
        <ele>329</ele>
        <time>2020-05-31T08:24:49Z</time>
      </trkpt>
      <trkpt lat="43.21355" lon="0.09368">
        <ele>329</ele>
        <time>2020-05-31T08:24:52Z</time>
      </trkpt>
      <trkpt lat="43.21364" lon="0.09367">
        <ele>329</ele>
        <time>2020-05-31T08:24:58Z</time>
      </trkpt>
      <trkpt lat="43.21367" lon="0.09368">
        <ele>329</ele>
        <time>2020-05-31T08:25:01Z</time>
      </trkpt>
      <trkpt lat="43.21374" lon="0.09367">
        <ele>329</ele>
        <time>2020-05-31T08:25:08Z</time>
      </trkpt>
      <trkpt lat="43.21388" lon="0.09361">
        <ele>329</ele>
        <time>2020-05-31T08:25:20Z</time>
      </trkpt>
      <trkpt lat="43.21392" lon="0.09361">
        <ele>329</ele>
        <time>2020-05-31T08:25:23Z</time>
      </trkpt>
      <trkpt lat="43.21408" lon="0.09375">
        <ele>328</ele>
        <time>2020-05-31T08:25:38Z</time>
      </trkpt>
      <trkpt lat="43.21411" lon="0.09376">
        <ele>328</ele>
        <time>2020-05-31T08:25:41Z</time>
      </trkpt>
      <trkpt lat="43.21415" lon="0.09378">
        <ele>328</ele>
        <time>2020-05-31T08:25:43Z</time>
      </trkpt>
      <trkpt lat="43.21426" lon="0.09387">
        <ele>328</ele>
        <time>2020-05-31T08:25:54Z</time>
      </trkpt>
      <trkpt lat="43.21429" lon="0.09393">
        <ele>328</ele>
        <time>2020-05-31T08:25:59Z</time>
      </trkpt>
      <trkpt lat="43.21432" lon="0.094">
        <ele>328</ele>
        <time>2020-05-31T08:26:04Z</time>
      </trkpt>
      <trkpt lat="43.21432" lon="0.0941">
        <ele>327</ele>
        <time>2020-05-31T08:26:08Z</time>
      </trkpt>
      <trkpt lat="43.21435" lon="0.09415">
        <ele>327</ele>
        <time>2020-05-31T08:26:13Z</time>
      </trkpt>
      <trkpt lat="43.21442" lon="0.09408">
        <ele>327</ele>
        <time>2020-05-31T08:26:25Z</time>
      </trkpt>
      <trkpt lat="43.21445" lon="0.09403">
        <ele>327</ele>
        <time>2020-05-31T08:26:29Z</time>
      </trkpt>
      <trkpt lat="43.21447" lon="0.09379">
        <ele>327</ele>
        <time>2020-05-31T08:26:42Z</time>
      </trkpt>
      <trkpt lat="43.21448" lon="0.09372">
        <ele>327</ele>
        <time>2020-05-31T08:26:47Z</time>
      </trkpt>
      <trkpt lat="43.21452" lon="0.09357">
        <ele>326</ele>
        <time>2020-05-31T08:26:55Z</time>
      </trkpt>
      <trkpt lat="43.21455" lon="0.09349">
        <ele>326</ele>
        <time>2020-05-31T08:27:00Z</time>
      </trkpt>
      <trkpt lat="43.21456" lon="0.09342">
        <ele>327</ele>
        <time>2020-05-31T08:27:06Z</time>
      </trkpt>
      <trkpt lat="43.21473" lon="0.09297">
        <ele>326</ele>
        <time>2020-05-31T08:27:32Z</time>
      </trkpt>
      <trkpt lat="43.21482" lon="0.09282">
        <ele>326</ele>
        <time>2020-05-31T08:27:41Z</time>
      </trkpt>
      <trkpt lat="43.21486" lon="0.09278">
        <ele>326</ele>
        <time>2020-05-31T08:27:45Z</time>
      </trkpt>
      <trkpt lat="43.21489" lon="0.09271">
        <ele>326</ele>
        <time>2020-05-31T08:27:50Z</time>
      </trkpt>
      <trkpt lat="43.21491" lon="0.09263">
        <ele>326</ele>
        <time>2020-05-31T08:27:53Z</time>
      </trkpt>
      <trkpt lat="43.21496" lon="0.09262">
        <ele>326</ele>
        <time>2020-05-31T08:27:56Z</time>
      </trkpt>
      <trkpt lat="43.21503" lon="0.09258">
        <ele>325</ele>
        <time>2020-05-31T08:28:03Z</time>
      </trkpt>
      <trkpt lat="43.21509" lon="0.09266">
        <ele>326</ele>
        <time>2020-05-31T08:28:15Z</time>
      </trkpt>
      <trkpt lat="43.21526" lon="0.09278">
        <ele>326</ele>
        <time>2020-05-31T08:28:24Z</time>
      </trkpt>
      <trkpt lat="43.21534" lon="0.09292">
        <ele>326</ele>
        <time>2020-05-31T08:28:30Z</time>
      </trkpt>
      <trkpt lat="43.21539" lon="0.09294">
        <ele>326</ele>
        <time>2020-05-31T08:28:33Z</time>
      </trkpt>
      <trkpt lat="43.21552" lon="0.0931">
        <ele>326</ele>
        <time>2020-05-31T08:28:45Z</time>
      </trkpt>
      <trkpt lat="43.21557" lon="0.09314">
        <ele>326</ele>
        <time>2020-05-31T08:28:49Z</time>
      </trkpt>
      <trkpt lat="43.21573" lon="0.09322">
        <ele>326</ele>
        <time>2020-05-31T08:29:02Z</time>
      </trkpt>
      <trkpt lat="43.21594" lon="0.0934">
        <ele>326</ele>
        <time>2020-05-31T08:29:21Z</time>
      </trkpt>
      <trkpt lat="43.21608" lon="0.09348">
        <ele>326</ele>
        <time>2020-05-31T08:29:33Z</time>
      </trkpt>
      <trkpt lat="43.21612" lon="0.09351">
        <ele>326</ele>
        <time>2020-05-31T08:29:36Z</time>
      </trkpt>
      <trkpt lat="43.21615" lon="0.09353">
        <ele>326</ele>
        <time>2020-05-31T08:29:38Z</time>
      </trkpt>
      <trkpt lat="43.21621" lon="0.09353">
        <ele>326</ele>
        <time>2020-05-31T08:29:43Z</time>
      </trkpt>
      <trkpt lat="43.21627" lon="0.09356">
        <ele>326</ele>
        <time>2020-05-31T08:29:48Z</time>
      </trkpt>
      <trkpt lat="43.21644" lon="0.09371">
        <ele>325</ele>
        <time>2020-05-31T08:30:05Z</time>
      </trkpt>
      <trkpt lat="43.21648" lon="0.09373">
        <ele>325</ele>
        <time>2020-05-31T08:30:09Z</time>
      </trkpt>
      <trkpt lat="43.21651" lon="0.09377">
        <ele>325</ele>
        <time>2020-05-31T08:30:12Z</time>
      </trkpt>
      <trkpt lat="43.2166" lon="0.09382">
        <ele>325</ele>
        <time>2020-05-31T08:30:20Z</time>
      </trkpt>
      <trkpt lat="43.21686" lon="0.09394">
        <ele>325</ele>
        <time>2020-05-31T08:30:43Z</time>
      </trkpt>
      <trkpt lat="43.21697" lon="0.09396">
        <ele>325</ele>
        <time>2020-05-31T08:30:53Z</time>
      </trkpt>
      <trkpt lat="43.21702" lon="0.09398">
        <ele>325</ele>
        <time>2020-05-31T08:30:57Z</time>
      </trkpt>
      <trkpt lat="43.21706" lon="0.094">
        <ele>325</ele>
        <time>2020-05-31T08:31:01Z</time>
      </trkpt>
      <trkpt lat="43.21709" lon="0.09401">
        <ele>325</ele>
        <time>2020-05-31T08:31:05Z</time>
      </trkpt>
      <trkpt lat="43.21716" lon="0.09401">
        <ele>325</ele>
        <time>2020-05-31T08:31:11Z</time>
      </trkpt>
      <trkpt lat="43.21759" lon="0.09412">
        <ele>326</ele>
        <time>2020-05-31T08:31:43Z</time>
      </trkpt>
      <trkpt lat="43.21762" lon="0.09413">
        <ele>326</ele>
        <time>2020-05-31T08:31:47Z</time>
      </trkpt>
      <trkpt lat="43.21782" lon="0.09409">
        <ele>327</ele>
        <time>2020-05-31T08:32:02Z</time>
      </trkpt>
      <trkpt lat="43.21811" lon="0.09415">
        <ele>327</ele>
        <time>2020-05-31T08:32:23Z</time>
      </trkpt>
      <trkpt lat="43.21823" lon="0.09411">
        <ele>327</ele>
        <time>2020-05-31T08:32:31Z</time>
      </trkpt>
      <trkpt lat="43.21832" lon="0.09412">
        <ele>327</ele>
        <time>2020-05-31T08:32:37Z</time>
      </trkpt>
      <trkpt lat="43.21852" lon="0.09416">
        <ele>326</ele>
        <time>2020-05-31T08:32:55Z</time>
      </trkpt>
      <trkpt lat="43.21867" lon="0.09415">
        <ele>325</ele>
        <time>2020-05-31T08:33:06Z</time>
      </trkpt>
      <trkpt lat="43.21876" lon="0.09413">
        <ele>325</ele>
        <time>2020-05-31T08:33:13Z</time>
      </trkpt>
      <trkpt lat="43.21895" lon="0.09416">
        <ele>324</ele>
        <time>2020-05-31T08:33:28Z</time>
      </trkpt>
      <trkpt lat="43.21907" lon="0.0942">
        <ele>323</ele>
        <time>2020-05-31T08:33:39Z</time>
      </trkpt>
      <trkpt lat="43.21911" lon="0.0942">
        <ele>323</ele>
        <time>2020-05-31T08:33:42Z</time>
      </trkpt>
      <trkpt lat="43.21915" lon="0.09418">
        <ele>323</ele>
        <time>2020-05-31T08:33:45Z</time>
      </trkpt>
      <trkpt lat="43.21919" lon="0.0942">
        <ele>323</ele>
        <time>2020-05-31T08:33:49Z</time>
      </trkpt>
      <trkpt lat="43.21923" lon="0.09423">
        <ele>323</ele>
        <time>2020-05-31T08:33:53Z</time>
      </trkpt>
      <trkpt lat="43.21933" lon="0.09422">
        <ele>322</ele>
        <time>2020-05-31T08:34:02Z</time>
      </trkpt>
      <trkpt lat="43.21938" lon="0.09421">
        <ele>322</ele>
        <time>2020-05-31T08:34:06Z</time>
      </trkpt>
      <trkpt lat="43.21951" lon="0.09418">
        <ele>322</ele>
        <time>2020-05-31T08:34:15Z</time>
      </trkpt>
      <trkpt lat="43.21957" lon="0.09418">
        <ele>321</ele>
        <time>2020-05-31T08:34:21Z</time>
      </trkpt>
      <trkpt lat="43.21969" lon="0.09411">
        <ele>321</ele>
        <time>2020-05-31T08:34:32Z</time>
      </trkpt>
      <trkpt lat="43.21985" lon="0.09407">
        <ele>321</ele>
        <time>2020-05-31T08:34:42Z</time>
      </trkpt>
      <trkpt lat="43.22024" lon="0.09395">
        <ele>320</ele>
        <time>2020-05-31T08:35:09Z</time>
      </trkpt>
      <trkpt lat="43.22054" lon="0.09376">
        <ele>319</ele>
        <time>2020-05-31T08:35:33Z</time>
      </trkpt>
      <trkpt lat="43.2206" lon="0.09368">
        <ele>319</ele>
        <time>2020-05-31T08:35:40Z</time>
      </trkpt>
      <trkpt lat="43.22067" lon="0.09366">
        <ele>319</ele>
        <time>2020-05-31T08:35:46Z</time>
      </trkpt>
      <trkpt lat="43.22072" lon="0.09364">
        <ele>319</ele>
        <time>2020-05-31T08:35:50Z</time>
      </trkpt>
      <trkpt lat="43.22077" lon="0.09358">
        <ele>319</ele>
        <time>2020-05-31T08:35:57Z</time>
      </trkpt>
      <trkpt lat="43.22098" lon="0.09347">
        <ele>319</ele>
        <time>2020-05-31T08:36:10Z</time>
      </trkpt>
      <trkpt lat="43.221" lon="0.09343">
        <ele>319</ele>
        <time>2020-05-31T08:36:14Z</time>
      </trkpt>
      <trkpt lat="43.22123" lon="0.09338">
        <ele>318</ele>
        <time>2020-05-31T08:36:34Z</time>
      </trkpt>
      <trkpt lat="43.22135" lon="0.09327">
        <ele>318</ele>
        <time>2020-05-31T08:36:46Z</time>
      </trkpt>
      <trkpt lat="43.22138" lon="0.09319">
        <ele>318</ele>
        <time>2020-05-31T08:36:54Z</time>
      </trkpt>
      <trkpt lat="43.22184" lon="0.09298">
        <ele>318</ele>
        <time>2020-05-31T08:37:26Z</time>
      </trkpt>
      <trkpt lat="43.22219" lon="0.09283">
        <ele>318</ele>
        <time>2020-05-31T08:37:53Z</time>
      </trkpt>
      <trkpt lat="43.22225" lon="0.09285">
        <ele>318</ele>
        <time>2020-05-31T08:37:58Z</time>
      </trkpt>
      <trkpt lat="43.22257" lon="0.0928">
        <ele>317</ele>
        <time>2020-05-31T08:38:21Z</time>
      </trkpt>
      <trkpt lat="43.22271" lon="0.09273">
        <ele>318</ele>
        <time>2020-05-31T08:38:35Z</time>
      </trkpt>
      <trkpt lat="43.22293" lon="0.09272">
        <ele>318</ele>
        <time>2020-05-31T08:38:49Z</time>
      </trkpt>
      <trkpt lat="43.22296" lon="0.09269">
        <ele>318</ele>
        <time>2020-05-31T08:38:52Z</time>
      </trkpt>
      <trkpt lat="43.22298" lon="0.09265">
        <ele>318</ele>
        <time>2020-05-31T08:38:55Z</time>
      </trkpt>
      <trkpt lat="43.22304" lon="0.09263">
        <ele>318</ele>
        <time>2020-05-31T08:39:00Z</time>
      </trkpt>
      <trkpt lat="43.22327" lon="0.09262">
        <ele>319</ele>
        <time>2020-05-31T08:39:16Z</time>
      </trkpt>
      <trkpt lat="43.22331" lon="0.09265">
        <ele>319</ele>
        <time>2020-05-31T08:39:20Z</time>
      </trkpt>
      <trkpt lat="43.22333" lon="0.09269">
        <ele>319</ele>
        <time>2020-05-31T08:39:22Z</time>
      </trkpt>
      <trkpt lat="43.22341" lon="0.09278">
        <ele>319</ele>
        <time>2020-05-31T08:39:29Z</time>
      </trkpt>
      <trkpt lat="43.22346" lon="0.09275">
        <ele>320</ele>
        <time>2020-05-31T08:39:42Z</time>
      </trkpt>
      <trkpt lat="43.22348" lon="0.09271">
        <ele>320</ele>
        <time>2020-05-31T08:39:45Z</time>
      </trkpt>
      <trkpt lat="43.22346" lon="0.09259">
        <ele>320</ele>
        <time>2020-05-31T08:39:50Z</time>
      </trkpt>
      <trkpt lat="43.22342" lon="0.09255">
        <ele>320</ele>
        <time>2020-05-31T08:39:55Z</time>
      </trkpt>
      <trkpt lat="43.22335" lon="0.09247">
        <ele>320</ele>
        <time>2020-05-31T08:40:01Z</time>
      </trkpt>
      <trkpt lat="43.22332" lon="0.09239">
        <ele>320</ele>
        <time>2020-05-31T08:40:08Z</time>
      </trkpt>
      <trkpt lat="43.22329" lon="0.09235">
        <ele>320</ele>
        <time>2020-05-31T08:40:11Z</time>
      </trkpt>
      <trkpt lat="43.22327" lon="0.09226">
        <ele>320</ele>
        <time>2020-05-31T08:40:16Z</time>
      </trkpt>
      <trkpt lat="43.22325" lon="0.0922">
        <ele>320</ele>
        <time>2020-05-31T08:40:19Z</time>
      </trkpt>
      <trkpt lat="43.2232" lon="0.0921">
        <ele>319</ele>
        <time>2020-05-31T08:40:26Z</time>
      </trkpt>
      <trkpt lat="43.22321" lon="0.09205">
        <ele>319</ele>
        <time>2020-05-31T08:40:29Z</time>
      </trkpt>
      <trkpt lat="43.22313" lon="0.09195">
        <ele>319</ele>
        <time>2020-05-31T08:40:37Z</time>
      </trkpt>
      <trkpt lat="43.22312" lon="0.0919">
        <ele>319</ele>
        <time>2020-05-31T08:40:40Z</time>
      </trkpt>
      <trkpt lat="43.22313" lon="0.09183">
        <ele>319</ele>
        <time>2020-05-31T08:40:43Z</time>
      </trkpt>
      <trkpt lat="43.22318" lon="0.09182">
        <ele>319</ele>
        <time>2020-05-31T08:40:46Z</time>
      </trkpt>
      <trkpt lat="43.22333" lon="0.09184">
        <ele>319</ele>
        <time>2020-05-31T08:40:55Z</time>
      </trkpt>
      <trkpt lat="43.22339" lon="0.09177">
        <ele>319</ele>
        <time>2020-05-31T08:41:02Z</time>
      </trkpt>
      <trkpt lat="43.22343" lon="0.09175">
        <ele>319</ele>
        <time>2020-05-31T08:41:05Z</time>
      </trkpt>
      <trkpt lat="43.22351" lon="0.09175">
        <ele>319</ele>
        <time>2020-05-31T08:41:11Z</time>
      </trkpt>
      <trkpt lat="43.22364" lon="0.09169">
        <ele>318</ele>
        <time>2020-05-31T08:41:20Z</time>
      </trkpt>
      <trkpt lat="43.22369" lon="0.09167">
        <ele>318</ele>
        <time>2020-05-31T08:41:24Z</time>
      </trkpt>
      <trkpt lat="43.22372" lon="0.09164">
        <ele>318</ele>
        <time>2020-05-31T08:41:28Z</time>
      </trkpt>
      <trkpt lat="43.22378" lon="0.09165">
        <ele>318</ele>
        <time>2020-05-31T08:41:32Z</time>
      </trkpt>
      <trkpt lat="43.22386" lon="0.0916">
        <ele>317</ele>
        <time>2020-05-31T08:41:38Z</time>
      </trkpt>
      <trkpt lat="43.22395" lon="0.09159">
        <ele>316</ele>
        <time>2020-05-31T08:41:44Z</time>
      </trkpt>
      <trkpt lat="43.224" lon="0.09161">
        <ele>316</ele>
        <time>2020-05-31T08:41:48Z</time>
      </trkpt>
      <trkpt lat="43.22409" lon="0.09162">
        <ele>316</ele>
        <time>2020-05-31T08:41:54Z</time>
      </trkpt>
      <trkpt lat="43.22416" lon="0.09158">
        <ele>316</ele>
        <time>2020-05-31T08:42:00Z</time>
      </trkpt>
      <trkpt lat="43.2242" lon="0.09157">
        <ele>316</ele>
        <time>2020-05-31T08:42:04Z</time>
      </trkpt>
      <trkpt lat="43.22428" lon="0.09155">
        <ele>316</ele>
        <time>2020-05-31T08:42:12Z</time>
      </trkpt>
      <trkpt lat="43.22431" lon="0.09155">
        <ele>316</ele>
        <time>2020-05-31T08:42:16Z</time>
      </trkpt>
      <trkpt lat="43.2244" lon="0.0915">
        <ele>316</ele>
        <time>2020-05-31T08:42:22Z</time>
      </trkpt>
      <trkpt lat="43.22444" lon="0.09148">
        <ele>316</ele>
        <time>2020-05-31T08:42:25Z</time>
      </trkpt>
      <trkpt lat="43.22453" lon="0.09148">
        <ele>316</ele>
        <time>2020-05-31T08:42:31Z</time>
      </trkpt>
      <trkpt lat="43.22471" lon="0.09135">
        <ele>317</ele>
        <time>2020-05-31T08:42:47Z</time>
      </trkpt>
      <trkpt lat="43.22479" lon="0.09132">
        <ele>317</ele>
        <time>2020-05-31T08:42:53Z</time>
      </trkpt>
      <trkpt lat="43.22483" lon="0.0913">
        <ele>317</ele>
        <time>2020-05-31T08:42:56Z</time>
      </trkpt>
      <trkpt lat="43.22489" lon="0.09123">
        <ele>316</ele>
        <time>2020-05-31T08:43:03Z</time>
      </trkpt>
      <trkpt lat="43.2253" lon="0.09108">
        <ele>317</ele>
        <time>2020-05-31T08:43:34Z</time>
      </trkpt>
      <trkpt lat="43.22538" lon="0.09105">
        <ele>317</ele>
        <time>2020-05-31T08:43:40Z</time>
      </trkpt>
      <trkpt lat="43.22552" lon="0.09097">
        <ele>317</ele>
        <time>2020-05-31T08:43:50Z</time>
      </trkpt>
      <trkpt lat="43.22557" lon="0.09098">
        <ele>316</ele>
        <time>2020-05-31T08:43:53Z</time>
      </trkpt>
      <trkpt lat="43.22567" lon="0.09094">
        <ele>316</ele>
        <time>2020-05-31T08:44:00Z</time>
      </trkpt>
      <trkpt lat="43.22571" lon="0.09091">
        <ele>316</ele>
        <time>2020-05-31T08:44:03Z</time>
      </trkpt>
      <trkpt lat="43.22575" lon="0.0909">
        <ele>316</ele>
        <time>2020-05-31T08:44:06Z</time>
      </trkpt>
      <trkpt lat="43.22611" lon="0.09074">
        <ele>316</ele>
        <time>2020-05-31T08:44:38Z</time>
      </trkpt>
      <trkpt lat="43.22624" lon="0.09067">
        <ele>316</ele>
        <time>2020-05-31T08:44:49Z</time>
      </trkpt>
      <trkpt lat="43.22632" lon="0.0906">
        <ele>316</ele>
        <time>2020-05-31T08:44:55Z</time>
      </trkpt>
      <trkpt lat="43.22638" lon="0.09058">
        <ele>315</ele>
        <time>2020-05-31T08:45:02Z</time>
      </trkpt>
      <trkpt lat="43.2265" lon="0.09055">
        <ele>315</ele>
        <time>2020-05-31T08:45:11Z</time>
      </trkpt>
      <trkpt lat="43.22653" lon="0.09051">
        <ele>315</ele>
        <time>2020-05-31T08:45:14Z</time>
      </trkpt>
      <trkpt lat="43.22658" lon="0.0905">
        <ele>315</ele>
        <time>2020-05-31T08:45:17Z</time>
      </trkpt>
      <trkpt lat="43.22664" lon="0.09044">
        <ele>315</ele>
        <time>2020-05-31T08:45:23Z</time>
      </trkpt>
      <trkpt lat="43.22689" lon="0.09036">
        <ele>315</ele>
        <time>2020-05-31T08:45:44Z</time>
      </trkpt>
      <trkpt lat="43.22693" lon="0.09035">
        <ele>315</ele>
        <time>2020-05-31T08:45:47Z</time>
      </trkpt>
      <trkpt lat="43.22697" lon="0.09034">
        <ele>315</ele>
        <time>2020-05-31T08:45:49Z</time>
      </trkpt>
      <trkpt lat="43.22701" lon="0.09034">
        <ele>315</ele>
        <time>2020-05-31T08:45:51Z</time>
      </trkpt>
      <trkpt lat="43.22713" lon="0.09027">
        <ele>315</ele>
        <time>2020-05-31T08:46:01Z</time>
      </trkpt>
      <trkpt lat="43.2272" lon="0.09027">
        <ele>315</ele>
        <time>2020-05-31T08:46:06Z</time>
      </trkpt>
      <trkpt lat="43.22726" lon="0.09023">
        <ele>315</ele>
        <time>2020-05-31T08:46:12Z</time>
      </trkpt>
      <trkpt lat="43.22734" lon="0.09021">
        <ele>315</ele>
        <time>2020-05-31T08:46:16Z</time>
      </trkpt>
      <trkpt lat="43.2274" lon="0.09014">
        <ele>315</ele>
        <time>2020-05-31T08:46:22Z</time>
      </trkpt>
      <trkpt lat="43.22747" lon="0.0901">
        <ele>315</ele>
        <time>2020-05-31T08:46:31Z</time>
      </trkpt>
      <trkpt lat="43.22752" lon="0.09007">
        <ele>315</ele>
        <time>2020-05-31T08:46:34Z</time>
      </trkpt>
      <trkpt lat="43.22776" lon="0.08997">
        <ele>314</ele>
        <time>2020-05-31T08:46:54Z</time>
      </trkpt>
      <trkpt lat="43.22779" lon="0.08995">
        <ele>314</ele>
        <time>2020-05-31T08:46:58Z</time>
      </trkpt>
      <trkpt lat="43.22786" lon="0.08994">
        <ele>314</ele>
        <time>2020-05-31T08:47:03Z</time>
      </trkpt>
      <trkpt lat="43.22791" lon="0.08988">
        <ele>314</ele>
        <time>2020-05-31T08:47:07Z</time>
      </trkpt>
      <trkpt lat="43.22797" lon="0.08985">
        <ele>314</ele>
        <time>2020-05-31T08:47:13Z</time>
      </trkpt>
      <trkpt lat="43.22802" lon="0.08984">
        <ele>314</ele>
        <time>2020-05-31T08:47:17Z</time>
      </trkpt>
      <trkpt lat="43.22809" lon="0.08987">
        <ele>314</ele>
        <time>2020-05-31T08:47:22Z</time>
      </trkpt>
      <trkpt lat="43.22841" lon="0.08979">
        <ele>314</ele>
        <time>2020-05-31T08:47:47Z</time>
      </trkpt>
      <trkpt lat="43.22853" lon="0.08979">
        <ele>314</ele>
        <time>2020-05-31T08:47:56Z</time>
      </trkpt>
      <trkpt lat="43.22876" lon="0.08972">
        <ele>314</ele>
        <time>2020-05-31T08:48:13Z</time>
      </trkpt>
      <trkpt lat="43.22882" lon="0.08967">
        <ele>314</ele>
        <time>2020-05-31T08:48:15Z</time>
      </trkpt>
      <trkpt lat="43.22885" lon="0.08962">
        <ele>314</ele>
        <time>2020-05-31T08:48:18Z</time>
      </trkpt>
      <trkpt lat="43.2289" lon="0.08959">
        <ele>314</ele>
        <time>2020-05-31T08:48:24Z</time>
      </trkpt>
      <trkpt lat="43.22896" lon="0.0896">
        <ele>314</ele>
        <time>2020-05-31T08:48:29Z</time>
      </trkpt>
      <trkpt lat="43.2291" lon="0.08956">
        <ele>314</ele>
        <time>2020-05-31T08:48:40Z</time>
      </trkpt>
      <trkpt lat="43.22914" lon="0.08952">
        <ele>314</ele>
        <time>2020-05-31T08:48:45Z</time>
      </trkpt>
      <trkpt lat="43.2292" lon="0.0895">
        <ele>314</ele>
        <time>2020-05-31T08:48:50Z</time>
      </trkpt>
      <trkpt lat="43.22923" lon="0.08946">
        <ele>313</ele>
        <time>2020-05-31T08:48:54Z</time>
      </trkpt>
      <trkpt lat="43.22927" lon="0.08944">
        <ele>313</ele>
        <time>2020-05-31T08:48:57Z</time>
      </trkpt>
      <trkpt lat="43.22932" lon="0.08942">
        <ele>313</ele>
        <time>2020-05-31T08:49:00Z</time>
      </trkpt>
      <trkpt lat="43.22945" lon="0.08927">
        <ele>313</ele>
        <time>2020-05-31T08:49:12Z</time>
      </trkpt>
      <trkpt lat="43.22954" lon="0.08919">
        <ele>313</ele>
        <time>2020-05-31T08:49:19Z</time>
      </trkpt>
      <trkpt lat="43.2296" lon="0.08912">
        <ele>313</ele>
        <time>2020-05-31T08:49:26Z</time>
      </trkpt>
      <trkpt lat="43.22976" lon="0.08903">
        <ele>313</ele>
        <time>2020-05-31T08:49:38Z</time>
      </trkpt>
      <trkpt lat="43.22979" lon="0.08899">
        <ele>313</ele>
        <time>2020-05-31T08:49:40Z</time>
      </trkpt>
      <trkpt lat="43.23" lon="0.08887">
        <ele>313</ele>
        <time>2020-05-31T08:49:55Z</time>
      </trkpt>
      <trkpt lat="43.23003" lon="0.08884">
        <ele>313</ele>
        <time>2020-05-31T08:49:58Z</time>
      </trkpt>
      <trkpt lat="43.23029" lon="0.08871">
        <ele>313</ele>
        <time>2020-05-31T08:50:21Z</time>
      </trkpt>
      <trkpt lat="43.23031" lon="0.08867">
        <ele>313</ele>
        <time>2020-05-31T08:50:24Z</time>
      </trkpt>
      <trkpt lat="43.2304" lon="0.08858">
        <ele>314</ele>
        <time>2020-05-31T08:50:50Z</time>
      </trkpt>
      <trkpt lat="43.23056" lon="0.08852">
        <ele>314</ele>
        <time>2020-05-31T08:51:00Z</time>
      </trkpt>
      <trkpt lat="43.23064" lon="0.08841">
        <ele>313</ele>
        <time>2020-05-31T08:51:07Z</time>
      </trkpt>
      <trkpt lat="43.23069" lon="0.08838">
        <ele>313</ele>
        <time>2020-05-31T08:51:10Z</time>
      </trkpt>
      <trkpt lat="43.23073" lon="0.08832">
        <ele>313</ele>
        <time>2020-05-31T08:51:15Z</time>
      </trkpt>
      <trkpt lat="43.2308" lon="0.0881">
        <ele>313</ele>
        <time>2020-05-31T08:51:31Z</time>
      </trkpt>
      <trkpt lat="43.23084" lon="0.08805">
        <ele>313</ele>
        <time>2020-05-31T08:51:36Z</time>
      </trkpt>
      <trkpt lat="43.23086" lon="0.08797">
        <ele>313</ele>
        <time>2020-05-31T08:51:41Z</time>
      </trkpt>
      <trkpt lat="43.23097" lon="0.08789">
        <ele>313</ele>
        <time>2020-05-31T08:51:49Z</time>
      </trkpt>
      <trkpt lat="43.23099" lon="0.08781">
        <ele>313</ele>
        <time>2020-05-31T08:51:54Z</time>
      </trkpt>
      <trkpt lat="43.23129" lon="0.08757">
        <ele>313</ele>
        <time>2020-05-31T08:52:21Z</time>
      </trkpt>
      <trkpt lat="43.23142" lon="0.08754">
        <ele>313</ele>
        <time>2020-05-31T08:52:29Z</time>
      </trkpt>
      <trkpt lat="43.23148" lon="0.08756">
        <ele>313</ele>
        <time>2020-05-31T08:52:34Z</time>
      </trkpt>
      <trkpt lat="43.23153" lon="0.0875">
        <ele>313</ele>
        <time>2020-05-31T08:52:42Z</time>
      </trkpt>
      <trkpt lat="43.23162" lon="0.08745">
        <ele>314</ele>
        <time>2020-05-31T08:52:56Z</time>
      </trkpt>
      <trkpt lat="43.23161" lon="0.08739">
        <ele>314</ele>
        <time>2020-05-31T08:53:00Z</time>
      </trkpt>
      <trkpt lat="43.23177" lon="0.08743">
        <ele>314</ele>
        <time>2020-05-31T08:53:20Z</time>
      </trkpt>
      <trkpt lat="43.23195" lon="0.0874">
        <ele>315</ele>
        <time>2020-05-31T08:53:33Z</time>
      </trkpt>
      <trkpt lat="43.232" lon="0.08737">
        <ele>315</ele>
        <time>2020-05-31T08:53:37Z</time>
      </trkpt>
      <trkpt lat="43.23203" lon="0.08717">
        <ele>315</ele>
        <time>2020-05-31T08:53:51Z</time>
      </trkpt>
      <trkpt lat="43.23201" lon="0.08708">
        <ele>314</ele>
        <time>2020-05-31T08:53:56Z</time>
      </trkpt>
      <trkpt lat="43.23199" lon="0.08701">
        <ele>314</ele>
        <time>2020-05-31T08:54:01Z</time>
      </trkpt>
      <trkpt lat="43.23199" lon="0.08693">
        <ele>314</ele>
        <time>2020-05-31T08:54:07Z</time>
      </trkpt>
      <trkpt lat="43.23196" lon="0.08685">
        <ele>314</ele>
        <time>2020-05-31T08:54:12Z</time>
      </trkpt>
      <trkpt lat="43.23198" lon="0.08671">
        <ele>314</ele>
        <time>2020-05-31T08:54:20Z</time>
      </trkpt>
      <trkpt lat="43.23193" lon="0.08655">
        <ele>314</ele>
        <time>2020-05-31T08:54:29Z</time>
      </trkpt>
      <trkpt lat="43.23193" lon="0.08646">
        <ele>314</ele>
        <time>2020-05-31T08:54:34Z</time>
      </trkpt>
      <trkpt lat="43.2318" lon="0.08604">
        <ele>314</ele>
        <time>2020-05-31T08:55:05Z</time>
      </trkpt>
      <trkpt lat="43.23175" lon="0.08588">
        <ele>314</ele>
        <time>2020-05-31T08:55:17Z</time>
      </trkpt>
      <trkpt lat="43.23171" lon="0.08584">
        <ele>314</ele>
        <time>2020-05-31T08:55:20Z</time>
      </trkpt>
      <trkpt lat="43.23167" lon="0.08578">
        <ele>314</ele>
        <time>2020-05-31T08:55:32Z</time>
      </trkpt>
      <trkpt lat="43.23165" lon="0.08565">
        <ele>314</ele>
        <time>2020-05-31T08:55:44Z</time>
      </trkpt>
      <trkpt lat="43.23166" lon="0.0852">
        <ele>314</ele>
        <time>2020-05-31T08:56:07Z</time>
      </trkpt>
      <trkpt lat="43.23158" lon="0.08474">
        <ele>313</ele>
        <time>2020-05-31T08:56:39Z</time>
      </trkpt>
      <trkpt lat="43.23158" lon="0.08459">
        <ele>313</ele>
        <time>2020-05-31T08:56:46Z</time>
      </trkpt>
      <trkpt lat="43.23154" lon="0.08436">
        <ele>313</ele>
        <time>2020-05-31T08:56:59Z</time>
      </trkpt>
      <trkpt lat="43.23155" lon="0.08429">
        <ele>313</ele>
        <time>2020-05-31T08:57:04Z</time>
      </trkpt>
      <trkpt lat="43.23154" lon="0.08424">
        <ele>313</ele>
        <time>2020-05-31T08:57:07Z</time>
      </trkpt>
      <trkpt lat="43.23153" lon="0.08416">
        <ele>313</ele>
        <time>2020-05-31T08:57:11Z</time>
      </trkpt>
      <trkpt lat="43.23155" lon="0.08408">
        <ele>313</ele>
        <time>2020-05-31T08:57:16Z</time>
      </trkpt>
      <trkpt lat="43.23155" lon="0.084">
        <ele>313</ele>
        <time>2020-05-31T08:57:21Z</time>
      </trkpt>
      <trkpt lat="43.2316" lon="0.08394">
        <ele>314</ele>
        <time>2020-05-31T08:57:25Z</time>
      </trkpt>
      <trkpt lat="43.23165" lon="0.08366">
        <ele>314</ele>
        <time>2020-05-31T08:57:46Z</time>
      </trkpt>
      <trkpt lat="43.23166" lon="0.08353">
        <ele>314</ele>
        <time>2020-05-31T08:57:53Z</time>
      </trkpt>
      <trkpt lat="43.2317" lon="0.08341">
        <ele>314</ele>
        <time>2020-05-31T08:58:00Z</time>
      </trkpt>
      <trkpt lat="43.23169" lon="0.08326">
        <ele>314</ele>
        <time>2020-05-31T08:58:05Z</time>
      </trkpt>
      <trkpt lat="43.2317" lon="0.08322">
        <ele>314</ele>
        <time>2020-05-31T08:58:08Z</time>
      </trkpt>
      <trkpt lat="43.23171" lon="0.08302">
        <ele>314</ele>
        <time>2020-05-31T08:58:22Z</time>
      </trkpt>
      <trkpt lat="43.2318" lon="0.08254">
        <ele>314</ele>
        <time>2020-05-31T08:58:50Z</time>
      </trkpt>
      <trkpt lat="43.23185" lon="0.08247">
        <ele>314</ele>
        <time>2020-05-31T08:58:53Z</time>
      </trkpt>
      <trkpt lat="43.23192" lon="0.08235">
        <ele>314</ele>
        <time>2020-05-31T08:59:00Z</time>
      </trkpt>
      <trkpt lat="43.23211" lon="0.0822">
        <ele>314</ele>
        <time>2020-05-31T08:59:17Z</time>
      </trkpt>
      <trkpt lat="43.23215" lon="0.08213">
        <ele>314</ele>
        <time>2020-05-31T08:59:23Z</time>
      </trkpt>
      <trkpt lat="43.23228" lon="0.08209">
        <ele>313</ele>
        <time>2020-05-31T08:59:32Z</time>
      </trkpt>
      <trkpt lat="43.23232" lon="0.08191">
        <ele>313</ele>
        <time>2020-05-31T08:59:41Z</time>
      </trkpt>
      <trkpt lat="43.23236" lon="0.08188">
        <ele>313</ele>
        <time>2020-05-31T08:59:44Z</time>
      </trkpt>
      <trkpt lat="43.23253" lon="0.08179">
        <ele>313</ele>
        <time>2020-05-31T09:00:00Z</time>
      </trkpt>
      <trkpt lat="43.23259" lon="0.08178">
        <ele>313</ele>
        <time>2020-05-31T09:00:07Z</time>
      </trkpt>
      <trkpt lat="43.2327" lon="0.08185">
        <ele>313</ele>
        <time>2020-05-31T09:00:16Z</time>
      </trkpt>
      <trkpt lat="43.23275" lon="0.08186">
        <ele>313</ele>
        <time>2020-05-31T09:00:20Z</time>
      </trkpt>
      <trkpt lat="43.23307" lon="0.08206">
        <ele>313</ele>
        <time>2020-05-31T09:00:46Z</time>
      </trkpt>
      <trkpt lat="43.23312" lon="0.08206">
        <ele>313</ele>
        <time>2020-05-31T09:00:49Z</time>
      </trkpt>
      <trkpt lat="43.23317" lon="0.08208">
        <ele>313</ele>
        <time>2020-05-31T09:00:51Z</time>
      </trkpt>
      <trkpt lat="43.23324" lon="0.08203">
        <ele>312</ele>
        <time>2020-05-31T09:01:05Z</time>
      </trkpt>
      <trkpt lat="43.23331" lon="0.08205">
        <ele>312</ele>
        <time>2020-05-31T09:01:14Z</time>
      </trkpt>
      <trkpt lat="43.23335" lon="0.08202">
        <ele>312</ele>
        <time>2020-05-31T09:01:16Z</time>
      </trkpt>
      <trkpt lat="43.23348" lon="0.08211">
        <ele>312</ele>
        <time>2020-05-31T09:01:29Z</time>
      </trkpt>
      <trkpt lat="43.23372" lon="0.08211">
        <ele>312</ele>
        <time>2020-05-31T09:01:51Z</time>
      </trkpt>
      <trkpt lat="43.23377" lon="0.08209">
        <ele>312</ele>
        <time>2020-05-31T09:01:54Z</time>
      </trkpt>
      <trkpt lat="43.23386" lon="0.08196">
        <ele>312</ele>
        <time>2020-05-31T09:01:59Z</time>
      </trkpt>
      <trkpt lat="43.23397" lon="0.08187">
        <ele>312</ele>
        <time>2020-05-31T09:02:06Z</time>
      </trkpt>
      <trkpt lat="43.23405" lon="0.08174">
        <ele>312</ele>
        <time>2020-05-31T09:02:16Z</time>
      </trkpt>
      <trkpt lat="43.23402" lon="0.08168">
        <ele>312</ele>
        <time>2020-05-31T09:02:22Z</time>
      </trkpt>
    </trkseg>
  </trk>
</gpx>